<?xml version="1.0" encoding="UTF-8" standalone="no" ?>
<gpx xmlns="http://www.topografix.com/GPX/1/1" xmlns:xsi="http://www.w3.org/2001/XMLSchema-instance" xsi:schemaLocation="http://www.topografix.com/GPX/1/1 http://www.topografix.com/GPX/1/1/gpx.xsd" version="1.1" creator="VisuGPX - https://www.visugpx.com">
  <metadata>
    <name>Letra - GR76 - Reboisselet </name>
    <desc><![CDATA[Départ de la cave du Doury, petit détour par Ternand (pour éviter la grande route). La montée vers St Paule commence par la route, pour rejoindre le GR76 au niveau du hameau de Ronzière. On suit le GR76 jusqu'au Chatoux. De là on rejoint le col du Joncin, puis on descend en direction de Fontelagne. 
On contourne le Crêt de Tier pour plonger dans le vallon du Rebaisselet. Au fond du Hameau, on longe le ruisseau jusqu'au Chatillard, puis on rejoint le point de départ.]]></desc>
  </metadata>
  <trk>
    <name><![CDATA[OR-6736274--Létra:Letra - GR76 - Reboisselet]]></name>
    <trkseg>
      <trkpt lat="45.95508" lon="4.52458">
        <ele>290</ele>
        <time>2016-11-04T22:21:23Z</time>
      </trkpt>
      <trkpt lat="45.9553" lon="4.52436">
        <ele>289</ele>
        <time>2016-11-04T22:23:23Z</time>
      </trkpt>
      <trkpt lat="45.95553" lon="4.52416">
        <ele>288</ele>
        <time>2016-11-04T22:25:23Z</time>
      </trkpt>
      <trkpt lat="45.95614" lon="4.52364">
        <ele>287</ele>
        <time>2016-11-04T22:27:23Z</time>
      </trkpt>
      <trkpt lat="45.95644" lon="4.52335">
        <ele>287</ele>
        <time>2016-11-04T22:29:23Z</time>
      </trkpt>
      <trkpt lat="45.95652" lon="4.52326">
        <ele>286</ele>
        <time>2016-11-04T22:31:23Z</time>
      </trkpt>
      <trkpt lat="45.95657" lon="4.52319">
        <ele>286</ele>
        <time>2016-11-04T22:33:23Z</time>
      </trkpt>
      <trkpt lat="45.95672" lon="4.523">
        <ele>286</ele>
        <time>2016-11-04T22:35:23Z</time>
      </trkpt>
      <trkpt lat="45.95684" lon="4.52283">
        <ele>286</ele>
        <time>2016-11-04T22:37:23Z</time>
      </trkpt>
      <trkpt lat="45.95696" lon="4.52265">
        <ele>286</ele>
        <time>2016-11-04T22:39:23Z</time>
      </trkpt>
      <trkpt lat="45.95717" lon="4.52229">
        <ele>287</ele>
        <time>2016-11-04T22:41:23Z</time>
      </trkpt>
      <trkpt lat="45.95733" lon="4.52201">
        <ele>287</ele>
        <time>2016-11-04T22:43:23Z</time>
      </trkpt>
      <trkpt lat="45.95746" lon="4.52177">
        <ele>287</ele>
        <time>2016-11-04T22:45:23Z</time>
      </trkpt>
      <trkpt lat="45.95768" lon="4.52136">
        <ele>286</ele>
        <time>2016-11-04T22:47:23Z</time>
      </trkpt>
      <trkpt lat="45.95768" lon="4.52136">
        <ele>286</ele>
        <time>2016-11-04T22:49:23Z</time>
      </trkpt>
      <trkpt lat="45.95731" lon="4.52081">
        <ele>284</ele>
        <time>2016-11-04T22:51:23Z</time>
      </trkpt>
      <trkpt lat="45.95702" lon="4.52044">
        <ele>284</ele>
        <time>2016-11-04T22:53:23Z</time>
      </trkpt>
      <trkpt lat="45.95667" lon="4.52007">
        <ele>284</ele>
        <time>2016-11-04T22:55:23Z</time>
      </trkpt>
      <trkpt lat="45.9566" lon="4.51998">
        <ele>284</ele>
        <time>2016-11-04T22:57:23Z</time>
      </trkpt>
      <trkpt lat="45.95654" lon="4.51987">
        <ele>285</ele>
        <time>2016-11-04T22:59:23Z</time>
      </trkpt>
      <trkpt lat="45.95669" lon="4.51954">
        <ele>286</ele>
        <time>2016-11-04T23:01:23Z</time>
      </trkpt>
      <trkpt lat="45.9567" lon="4.51947">
        <ele>286</ele>
        <time>2016-11-04T23:03:23Z</time>
      </trkpt>
      <trkpt lat="45.9567" lon="4.5194">
        <ele>286</ele>
        <time>2016-11-04T23:05:23Z</time>
      </trkpt>
      <trkpt lat="45.95669" lon="4.51928">
        <ele>287</ele>
        <time>2016-11-04T23:07:23Z</time>
      </trkpt>
      <trkpt lat="45.95666" lon="4.51921">
        <ele>287</ele>
        <time>2016-11-04T23:09:23Z</time>
      </trkpt>
      <trkpt lat="45.95662" lon="4.51911">
        <ele>288</ele>
        <time>2016-11-04T23:11:23Z</time>
      </trkpt>
      <trkpt lat="45.95658" lon="4.51901">
        <ele>289</ele>
        <time>2016-11-04T23:13:23Z</time>
      </trkpt>
      <trkpt lat="45.95656" lon="4.51895">
        <ele>289</ele>
        <time>2016-11-04T23:15:23Z</time>
      </trkpt>
      <trkpt lat="45.95656" lon="4.51891">
        <ele>289</ele>
        <time>2016-11-04T23:17:23Z</time>
      </trkpt>
      <trkpt lat="45.95656" lon="4.51888">
        <ele>289</ele>
        <time>2016-11-04T23:19:23Z</time>
      </trkpt>
      <trkpt lat="45.95658" lon="4.5188">
        <ele>290</ele>
        <time>2016-11-04T23:21:23Z</time>
      </trkpt>
      <trkpt lat="45.95666" lon="4.51858">
        <ele>290</ele>
        <time>2016-11-04T23:23:23Z</time>
      </trkpt>
      <trkpt lat="45.95668" lon="4.51853">
        <ele>290</ele>
        <time>2016-11-04T23:25:23Z</time>
      </trkpt>
      <trkpt lat="45.95669" lon="4.51839">
        <ele>291</ele>
        <time>2016-11-04T23:27:23Z</time>
      </trkpt>
      <trkpt lat="45.95669" lon="4.51832">
        <ele>291</ele>
        <time>2016-11-04T23:29:23Z</time>
      </trkpt>
      <trkpt lat="45.95669" lon="4.51828">
        <ele>291</ele>
        <time>2016-11-04T23:31:23Z</time>
      </trkpt>
      <trkpt lat="45.95668" lon="4.51825">
        <ele>292</ele>
        <time>2016-11-04T23:33:23Z</time>
      </trkpt>
      <trkpt lat="45.95667" lon="4.51822">
        <ele>292</ele>
        <time>2016-11-04T23:35:23Z</time>
      </trkpt>
      <trkpt lat="45.95665" lon="4.51819">
        <ele>292</ele>
        <time>2016-11-04T23:37:23Z</time>
      </trkpt>
      <trkpt lat="45.95663" lon="4.51817">
        <ele>293</ele>
        <time>2016-11-04T23:39:23Z</time>
      </trkpt>
      <trkpt lat="45.9566" lon="4.51816">
        <ele>293</ele>
        <time>2016-11-04T23:41:23Z</time>
      </trkpt>
      <trkpt lat="45.95657" lon="4.51818">
        <ele>293</ele>
        <time>2016-11-04T23:43:23Z</time>
      </trkpt>
      <trkpt lat="45.95648" lon="4.51823">
        <ele>294</ele>
        <time>2016-11-04T23:45:23Z</time>
      </trkpt>
      <trkpt lat="45.95637" lon="4.51831">
        <ele>295</ele>
        <time>2016-11-04T23:47:23Z</time>
      </trkpt>
      <trkpt lat="45.9562" lon="4.51844">
        <ele>296</ele>
        <time>2016-11-04T23:49:23Z</time>
      </trkpt>
      <trkpt lat="45.956" lon="4.51861">
        <ele>297</ele>
        <time>2016-11-04T23:51:23Z</time>
      </trkpt>
      <trkpt lat="45.95582" lon="4.51873">
        <ele>298</ele>
        <time>2016-11-04T23:53:23Z</time>
      </trkpt>
      <trkpt lat="45.9556" lon="4.51885">
        <ele>300</ele>
        <time>2016-11-04T23:55:23Z</time>
      </trkpt>
      <trkpt lat="45.95523" lon="4.51901">
        <ele>303</ele>
        <time>2016-11-04T23:57:23Z</time>
      </trkpt>
      <trkpt lat="45.95514" lon="4.51897">
        <ele>305</ele>
        <time>2016-11-04T23:59:23Z</time>
      </trkpt>
      <trkpt lat="45.95502" lon="4.51887">
        <ele>307</ele>
        <time>2016-11-05T00:01:23Z</time>
      </trkpt>
      <trkpt lat="45.95487" lon="4.51869">
        <ele>310</ele>
        <time>2016-11-05T00:03:23Z</time>
      </trkpt>
      <trkpt lat="45.95474" lon="4.51854">
        <ele>313</ele>
        <time>2016-11-05T00:05:23Z</time>
      </trkpt>
      <trkpt lat="45.95466" lon="4.51849">
        <ele>314</ele>
        <time>2016-11-05T00:07:23Z</time>
      </trkpt>
      <trkpt lat="45.95461" lon="4.51845">
        <ele>315</ele>
        <time>2016-11-05T00:09:23Z</time>
      </trkpt>
      <trkpt lat="45.95453" lon="4.51842">
        <ele>316</ele>
        <time>2016-11-05T00:11:23Z</time>
      </trkpt>
      <trkpt lat="45.95442" lon="4.5184">
        <ele>317</ele>
        <time>2016-11-05T00:13:23Z</time>
      </trkpt>
      <trkpt lat="45.95435" lon="4.51843">
        <ele>317</ele>
        <time>2016-11-05T00:15:23Z</time>
      </trkpt>
      <trkpt lat="45.95428" lon="4.51849">
        <ele>317</ele>
        <time>2016-11-05T00:17:23Z</time>
      </trkpt>
      <trkpt lat="45.95388" lon="4.51895">
        <ele>316</ele>
        <time>2016-11-05T00:19:23Z</time>
      </trkpt>
      <trkpt lat="45.95388" lon="4.51895">
        <ele>316</ele>
        <time>2016-11-05T00:21:23Z</time>
      </trkpt>
      <trkpt lat="45.95369" lon="4.51919">
        <ele>315</ele>
        <time>2016-11-05T00:23:23Z</time>
      </trkpt>
      <trkpt lat="45.95362" lon="4.51929">
        <ele>314</ele>
        <time>2016-11-05T00:25:23Z</time>
      </trkpt>
      <trkpt lat="45.95356" lon="4.51932">
        <ele>314</ele>
        <time>2016-11-05T00:27:23Z</time>
      </trkpt>
      <trkpt lat="45.9535" lon="4.51933">
        <ele>315</ele>
        <time>2016-11-05T00:29:23Z</time>
      </trkpt>
      <trkpt lat="45.95345" lon="4.51931">
        <ele>316</ele>
        <time>2016-11-05T00:31:23Z</time>
      </trkpt>
      <trkpt lat="45.95331" lon="4.51922">
        <ele>318</ele>
        <time>2016-11-05T00:33:23Z</time>
      </trkpt>
      <trkpt lat="45.95325" lon="4.51917">
        <ele>320</ele>
        <time>2016-11-05T00:35:23Z</time>
      </trkpt>
      <trkpt lat="45.95322" lon="4.5191">
        <ele>322</ele>
        <time>2016-11-05T00:37:23Z</time>
      </trkpt>
      <trkpt lat="45.95321" lon="4.51905">
        <ele>323</ele>
        <time>2016-11-05T00:39:23Z</time>
      </trkpt>
      <trkpt lat="45.95321" lon="4.51901">
        <ele>323</ele>
        <time>2016-11-05T00:41:23Z</time>
      </trkpt>
      <trkpt lat="45.95321" lon="4.51889">
        <ele>325</ele>
        <time>2016-11-05T00:43:23Z</time>
      </trkpt>
      <trkpt lat="45.95321" lon="4.51889">
        <ele>325</ele>
        <time>2016-11-05T00:45:23Z</time>
      </trkpt>
      <trkpt lat="45.95313" lon="4.51897">
        <ele>325</ele>
        <time>2016-11-05T00:47:23Z</time>
      </trkpt>
      <trkpt lat="45.95272" lon="4.51949">
        <ele>324</ele>
        <time>2016-11-05T00:49:23Z</time>
      </trkpt>
      <trkpt lat="45.95261" lon="4.51964">
        <ele>323</ele>
        <time>2016-11-05T00:51:23Z</time>
      </trkpt>
      <trkpt lat="45.95233" lon="4.51997">
        <ele>325</ele>
        <time>2016-11-05T00:53:23Z</time>
      </trkpt>
      <trkpt lat="45.95206" lon="4.52046">
        <ele>324</ele>
        <time>2016-11-05T00:55:23Z</time>
      </trkpt>
      <trkpt lat="45.95204" lon="4.52048">
        <ele>324</ele>
        <time>2016-11-05T00:57:23Z</time>
      </trkpt>
      <trkpt lat="45.9516" lon="4.52096">
        <ele>324</ele>
        <time>2016-11-05T00:59:23Z</time>
      </trkpt>
      <trkpt lat="45.95135" lon="4.52124">
        <ele>325</ele>
        <time>2016-11-05T01:01:23Z</time>
      </trkpt>
      <trkpt lat="45.95126" lon="4.52136">
        <ele>325</ele>
        <time>2016-11-05T01:03:23Z</time>
      </trkpt>
      <trkpt lat="45.95104" lon="4.52157">
        <ele>326</ele>
        <time>2016-11-05T01:05:23Z</time>
      </trkpt>
      <trkpt lat="45.95096" lon="4.52161">
        <ele>327</ele>
        <time>2016-11-05T01:07:23Z</time>
      </trkpt>
      <trkpt lat="45.95091" lon="4.52163">
        <ele>328</ele>
        <time>2016-11-05T01:09:23Z</time>
      </trkpt>
      <trkpt lat="45.95082" lon="4.52164">
        <ele>330</ele>
        <time>2016-11-05T01:11:23Z</time>
      </trkpt>
      <trkpt lat="45.95056" lon="4.52166">
        <ele>337</ele>
        <time>2016-11-05T01:13:23Z</time>
      </trkpt>
      <trkpt lat="45.9505" lon="4.52165">
        <ele>339</ele>
        <time>2016-11-05T01:15:23Z</time>
      </trkpt>
      <trkpt lat="45.9505" lon="4.52165">
        <ele>339</ele>
        <time>2016-11-05T01:17:23Z</time>
      </trkpt>
      <trkpt lat="45.95041" lon="4.52188">
        <ele>337</ele>
        <time>2016-11-05T01:19:23Z</time>
      </trkpt>
      <trkpt lat="45.95034" lon="4.52205">
        <ele>336</ele>
        <time>2016-11-05T01:21:23Z</time>
      </trkpt>
      <trkpt lat="45.95021" lon="4.52247">
        <ele>332</ele>
        <time>2016-11-05T01:23:23Z</time>
      </trkpt>
      <trkpt lat="45.94996" lon="4.52317">
        <ele>326</ele>
        <time>2016-11-05T01:25:23Z</time>
      </trkpt>
      <trkpt lat="45.94991" lon="4.52328">
        <ele>326</ele>
        <time>2016-11-05T01:27:23Z</time>
      </trkpt>
      <trkpt lat="45.94991" lon="4.52328">
        <ele>326</ele>
        <time>2016-11-05T01:29:23Z</time>
      </trkpt>
      <trkpt lat="45.94986" lon="4.52329">
        <ele>327</ele>
        <time>2016-11-05T01:31:23Z</time>
      </trkpt>
      <trkpt lat="45.94954" lon="4.52355">
        <ele>330</ele>
        <time>2016-11-05T01:33:23Z</time>
      </trkpt>
      <trkpt lat="45.94946" lon="4.52361">
        <ele>331</ele>
        <time>2016-11-05T01:35:23Z</time>
      </trkpt>
      <trkpt lat="45.9488" lon="4.52405">
        <ele>339</ele>
        <time>2016-11-05T01:37:23Z</time>
      </trkpt>
      <trkpt lat="45.94851" lon="4.52417">
        <ele>345</ele>
        <time>2016-11-05T01:39:23Z</time>
      </trkpt>
      <trkpt lat="45.94842" lon="4.5242">
        <ele>347</ele>
        <time>2016-11-05T01:41:23Z</time>
      </trkpt>
      <trkpt lat="45.94835" lon="4.5242">
        <ele>349</ele>
        <time>2016-11-05T01:43:23Z</time>
      </trkpt>
      <trkpt lat="45.9482" lon="4.52419">
        <ele>349</ele>
        <time>2016-11-05T01:45:23Z</time>
      </trkpt>
      <trkpt lat="45.948" lon="4.52419">
        <ele>350</ele>
        <time>2016-11-05T01:47:23Z</time>
      </trkpt>
      <trkpt lat="45.9479" lon="4.52418">
        <ele>350</ele>
        <time>2016-11-05T01:49:23Z</time>
      </trkpt>
      <trkpt lat="45.9479" lon="4.52418">
        <ele>350</ele>
        <time>2016-11-05T01:51:23Z</time>
      </trkpt>
      <trkpt lat="45.94762" lon="4.52441">
        <ele>348</ele>
        <time>2016-11-05T01:53:23Z</time>
      </trkpt>
      <trkpt lat="45.94755" lon="4.52447">
        <ele>347</ele>
        <time>2016-11-05T01:55:23Z</time>
      </trkpt>
      <trkpt lat="45.94731" lon="4.52472">
        <ele>345</ele>
        <time>2016-11-05T01:57:23Z</time>
      </trkpt>
      <trkpt lat="45.94716" lon="4.52486">
        <ele>345</ele>
        <time>2016-11-05T01:59:23Z</time>
      </trkpt>
      <trkpt lat="45.94706" lon="4.52504">
        <ele>345</ele>
        <time>2016-11-05T02:01:23Z</time>
      </trkpt>
      <trkpt lat="45.9469" lon="4.52522">
        <ele>345</ele>
        <time>2016-11-05T02:03:23Z</time>
      </trkpt>
      <trkpt lat="45.9468" lon="4.5253">
        <ele>346</ele>
        <time>2016-11-05T02:05:23Z</time>
      </trkpt>
      <trkpt lat="45.94675" lon="4.52534">
        <ele>346</ele>
        <time>2016-11-05T02:07:23Z</time>
      </trkpt>
      <trkpt lat="45.94641" lon="4.52553">
        <ele>347</ele>
        <time>2016-11-05T02:09:23Z</time>
      </trkpt>
      <trkpt lat="45.94632" lon="4.52559">
        <ele>347</ele>
        <time>2016-11-05T02:11:23Z</time>
      </trkpt>
      <trkpt lat="45.9462" lon="4.52571">
        <ele>348</ele>
        <time>2016-11-05T02:13:23Z</time>
      </trkpt>
      <trkpt lat="45.946" lon="4.52604">
        <ele>351</ele>
        <time>2016-11-05T02:15:23Z</time>
      </trkpt>
      <trkpt lat="45.94595" lon="4.52615">
        <ele>352</ele>
        <time>2016-11-05T02:17:23Z</time>
      </trkpt>
      <trkpt lat="45.94588" lon="4.52639">
        <ele>354</ele>
        <time>2016-11-05T02:19:23Z</time>
      </trkpt>
      <trkpt lat="45.94583" lon="4.52659">
        <ele>356</ele>
        <time>2016-11-05T02:21:23Z</time>
      </trkpt>
      <trkpt lat="45.94583" lon="4.52659">
        <ele>356</ele>
        <time>2016-11-05T02:23:23Z</time>
      </trkpt>
      <trkpt lat="45.94586" lon="4.52679">
        <ele>355</ele>
        <time>2016-11-05T02:25:23Z</time>
      </trkpt>
      <trkpt lat="45.94586" lon="4.52694">
        <ele>353</ele>
        <time>2016-11-05T02:27:23Z</time>
      </trkpt>
      <trkpt lat="45.94585" lon="4.5271">
        <ele>351</ele>
        <time>2016-11-05T02:29:23Z</time>
      </trkpt>
      <trkpt lat="45.94581" lon="4.52726">
        <ele>350</ele>
        <time>2016-11-05T02:31:23Z</time>
      </trkpt>
      <trkpt lat="45.94575" lon="4.52753">
        <ele>347</ele>
        <time>2016-11-05T02:33:23Z</time>
      </trkpt>
      <trkpt lat="45.94567" lon="4.5278">
        <ele>343</ele>
        <time>2016-11-05T02:35:23Z</time>
      </trkpt>
      <trkpt lat="45.94544" lon="4.52866">
        <ele>334</ele>
        <time>2016-11-05T02:37:23Z</time>
      </trkpt>
      <trkpt lat="45.94541" lon="4.52877">
        <ele>332</ele>
        <time>2016-11-05T02:39:23Z</time>
      </trkpt>
      <trkpt lat="45.94533" lon="4.52898">
        <ele>331</ele>
        <time>2016-11-05T02:41:23Z</time>
      </trkpt>
      <trkpt lat="45.94523" lon="4.52919">
        <ele>330</ele>
        <time>2016-11-05T02:43:23Z</time>
      </trkpt>
      <trkpt lat="45.94519" lon="4.52927">
        <ele>330</ele>
        <time>2016-11-05T02:45:23Z</time>
      </trkpt>
      <trkpt lat="45.94515" lon="4.52931">
        <ele>331</ele>
        <time>2016-11-05T02:47:23Z</time>
      </trkpt>
      <trkpt lat="45.94515" lon="4.52931">
        <ele>331</ele>
        <time>2016-11-05T02:49:23Z</time>
      </trkpt>
      <trkpt lat="45.94509" lon="4.52947">
        <ele>330</ele>
        <time>2016-11-05T02:51:23Z</time>
      </trkpt>
      <trkpt lat="45.94502" lon="4.52979">
        <ele>326</ele>
        <time>2016-11-05T02:53:23Z</time>
      </trkpt>
      <trkpt lat="45.94498" lon="4.53">
        <ele>323</ele>
        <time>2016-11-05T02:55:23Z</time>
      </trkpt>
      <trkpt lat="45.94493" lon="4.53039">
        <ele>318</ele>
        <time>2016-11-05T02:57:23Z</time>
      </trkpt>
      <trkpt lat="45.94488" lon="4.53085">
        <ele>311</ele>
        <time>2016-11-05T02:59:23Z</time>
      </trkpt>
      <trkpt lat="45.94476" lon="4.53149">
        <ele>302</ele>
        <time>2016-11-05T03:01:23Z</time>
      </trkpt>
      <trkpt lat="45.94473" lon="4.53173">
        <ele>299</ele>
        <time>2016-11-05T03:03:23Z</time>
      </trkpt>
      <trkpt lat="45.9447" lon="4.53193">
        <ele>296</ele>
        <time>2016-11-05T03:05:23Z</time>
      </trkpt>
      <trkpt lat="45.94467" lon="4.53214">
        <ele>293</ele>
        <time>2016-11-05T03:07:23Z</time>
      </trkpt>
      <trkpt lat="45.94466" lon="4.53227">
        <ele>291</ele>
        <time>2016-11-05T03:09:23Z</time>
      </trkpt>
      <trkpt lat="45.94466" lon="4.53238">
        <ele>289</ele>
        <time>2016-11-05T03:11:23Z</time>
      </trkpt>
      <trkpt lat="45.94467" lon="4.53247">
        <ele>287</ele>
        <time>2016-11-05T03:13:23Z</time>
      </trkpt>
      <trkpt lat="45.94469" lon="4.53254">
        <ele>287</ele>
        <time>2016-11-05T03:15:23Z</time>
      </trkpt>
      <trkpt lat="45.94469" lon="4.53254">
        <ele>287</ele>
        <time>2016-11-05T03:17:23Z</time>
      </trkpt>
      <trkpt lat="45.94467" lon="4.53301">
        <ele>283</ele>
        <time>2016-11-05T03:19:23Z</time>
      </trkpt>
      <trkpt lat="45.94464" lon="4.53312">
        <ele>282</ele>
        <time>2016-11-05T03:21:23Z</time>
      </trkpt>
      <trkpt lat="45.94461" lon="4.53318">
        <ele>282</ele>
        <time>2016-11-05T03:23:23Z</time>
      </trkpt>
      <trkpt lat="45.94461" lon="4.53318">
        <ele>282</ele>
        <time>2016-11-05T03:25:23Z</time>
      </trkpt>
      <trkpt lat="45.94462" lon="4.53325">
        <ele>282</ele>
        <time>2016-11-05T03:27:23Z</time>
      </trkpt>
      <trkpt lat="45.94461" lon="4.53329">
        <ele>281</ele>
        <time>2016-11-05T03:29:23Z</time>
      </trkpt>
      <trkpt lat="45.94459" lon="4.53335">
        <ele>281</ele>
        <time>2016-11-05T03:31:23Z</time>
      </trkpt>
      <trkpt lat="45.94457" lon="4.53339">
        <ele>281</ele>
        <time>2016-11-05T03:33:23Z</time>
      </trkpt>
      <trkpt lat="45.94454" lon="4.53344">
        <ele>281</ele>
        <time>2016-11-05T03:35:23Z</time>
      </trkpt>
      <trkpt lat="45.94449" lon="4.5335">
        <ele>280</ele>
        <time>2016-11-05T03:37:23Z</time>
      </trkpt>
      <trkpt lat="45.94443" lon="4.53356">
        <ele>280</ele>
        <time>2016-11-05T03:39:23Z</time>
      </trkpt>
      <trkpt lat="45.94428" lon="4.5337">
        <ele>280</ele>
        <time>2016-11-05T03:41:23Z</time>
      </trkpt>
      <trkpt lat="45.9442" lon="4.5338">
        <ele>279</ele>
        <time>2016-11-05T03:43:23Z</time>
      </trkpt>
      <trkpt lat="45.94417" lon="4.53387">
        <ele>279</ele>
        <time>2016-11-05T03:45:23Z</time>
      </trkpt>
      <trkpt lat="45.94416" lon="4.53396">
        <ele>278</ele>
        <time>2016-11-05T03:47:23Z</time>
      </trkpt>
      <trkpt lat="45.94416" lon="4.53405">
        <ele>278</ele>
        <time>2016-11-05T03:49:23Z</time>
      </trkpt>
      <trkpt lat="45.94417" lon="4.53424">
        <ele>277</ele>
        <time>2016-11-05T03:51:23Z</time>
      </trkpt>
      <trkpt lat="45.94417" lon="4.53424">
        <ele>277</ele>
        <time>2016-11-05T03:53:23Z</time>
      </trkpt>
      <trkpt lat="45.94422" lon="4.53425">
        <ele>277</ele>
        <time>2016-11-05T03:55:23Z</time>
      </trkpt>
      <trkpt lat="45.94427" lon="4.53426">
        <ele>277</ele>
        <time>2016-11-05T03:57:23Z</time>
      </trkpt>
      <trkpt lat="45.94435" lon="4.53431">
        <ele>277</ele>
        <time>2016-11-05T03:59:23Z</time>
      </trkpt>
      <trkpt lat="45.94442" lon="4.53445">
        <ele>276</ele>
        <time>2016-11-05T04:01:23Z</time>
      </trkpt>
      <trkpt lat="45.9445" lon="4.53464">
        <ele>276</ele>
        <time>2016-11-05T04:03:23Z</time>
      </trkpt>
      <trkpt lat="45.94456" lon="4.53482">
        <ele>275</ele>
        <time>2016-11-05T04:05:23Z</time>
      </trkpt>
      <trkpt lat="45.94464" lon="4.53504">
        <ele>275</ele>
        <time>2016-11-05T04:07:23Z</time>
      </trkpt>
      <trkpt lat="45.94471" lon="4.53529">
        <ele>274</ele>
        <time>2016-11-05T04:09:23Z</time>
      </trkpt>
      <trkpt lat="45.94476" lon="4.53545">
        <ele>274</ele>
        <time>2016-11-05T04:11:23Z</time>
      </trkpt>
      <trkpt lat="45.94491" lon="4.53582">
        <ele>274</ele>
        <time>2016-11-05T04:13:23Z</time>
      </trkpt>
      <trkpt lat="45.94505" lon="4.53607">
        <ele>274</ele>
        <time>2016-11-05T04:15:23Z</time>
      </trkpt>
      <trkpt lat="45.94519" lon="4.53627">
        <ele>274</ele>
        <time>2016-11-05T04:17:23Z</time>
      </trkpt>
      <trkpt lat="45.94529" lon="4.5364">
        <ele>275</ele>
        <time>2016-11-05T04:19:23Z</time>
      </trkpt>
      <trkpt lat="45.94544" lon="4.53658">
        <ele>275</ele>
        <time>2016-11-05T04:21:23Z</time>
      </trkpt>
      <trkpt lat="45.94561" lon="4.5368">
        <ele>277</ele>
        <time>2016-11-05T04:23:23Z</time>
      </trkpt>
      <trkpt lat="45.94581" lon="4.53703">
        <ele>280</ele>
        <time>2016-11-05T04:25:23Z</time>
      </trkpt>
      <trkpt lat="45.94581" lon="4.53703">
        <ele>280</ele>
        <time>2016-11-05T04:27:23Z</time>
      </trkpt>
      <trkpt lat="45.94573" lon="4.53718">
        <ele>281</ele>
        <time>2016-11-05T04:29:23Z</time>
      </trkpt>
      <trkpt lat="45.94569" lon="4.53725">
        <ele>281</ele>
        <time>2016-11-05T04:31:23Z</time>
      </trkpt>
      <trkpt lat="45.94565" lon="4.53729">
        <ele>281</ele>
        <time>2016-11-05T04:33:23Z</time>
      </trkpt>
      <trkpt lat="45.94562" lon="4.53733">
        <ele>282</ele>
        <time>2016-11-05T04:35:23Z</time>
      </trkpt>
      <trkpt lat="45.94558" lon="4.53737">
        <ele>282</ele>
        <time>2016-11-05T04:37:23Z</time>
      </trkpt>
      <trkpt lat="45.94554" lon="4.5374">
        <ele>282</ele>
        <time>2016-11-05T04:39:23Z</time>
      </trkpt>
      <trkpt lat="45.94544" lon="4.53746">
        <ele>282</ele>
        <time>2016-11-05T04:41:23Z</time>
      </trkpt>
      <trkpt lat="45.94531" lon="4.53749">
        <ele>281</ele>
        <time>2016-11-05T04:43:23Z</time>
      </trkpt>
      <trkpt lat="45.94525" lon="4.53751">
        <ele>281</ele>
        <time>2016-11-05T04:45:23Z</time>
      </trkpt>
      <trkpt lat="45.94519" lon="4.53754">
        <ele>281</ele>
        <time>2016-11-05T04:47:23Z</time>
      </trkpt>
      <trkpt lat="45.94512" lon="4.53759">
        <ele>281</ele>
        <time>2016-11-05T04:49:23Z</time>
      </trkpt>
      <trkpt lat="45.94504" lon="4.53765">
        <ele>282</ele>
        <time>2016-11-05T04:51:23Z</time>
      </trkpt>
      <trkpt lat="45.94488" lon="4.5378">
        <ele>281</ele>
        <time>2016-11-05T04:53:23Z</time>
      </trkpt>
      <trkpt lat="45.94466" lon="4.53807">
        <ele>281</ele>
        <time>2016-11-05T04:55:23Z</time>
      </trkpt>
      <trkpt lat="45.94458" lon="4.53816">
        <ele>281</ele>
        <time>2016-11-05T04:57:23Z</time>
      </trkpt>
      <trkpt lat="45.94441" lon="4.53841">
        <ele>281</ele>
        <time>2016-11-05T04:59:23Z</time>
      </trkpt>
      <trkpt lat="45.94431" lon="4.53855">
        <ele>282</ele>
        <time>2016-11-05T05:01:23Z</time>
      </trkpt>
      <trkpt lat="45.94415" lon="4.53877">
        <ele>284</ele>
        <time>2016-11-05T05:03:23Z</time>
      </trkpt>
      <trkpt lat="45.94415" lon="4.53877">
        <ele>284</ele>
        <time>2016-11-05T05:05:23Z</time>
      </trkpt>
      <trkpt lat="45.94415" lon="4.5389">
        <ele>286</ele>
        <time>2016-11-05T05:07:23Z</time>
      </trkpt>
      <trkpt lat="45.94415" lon="4.53894">
        <ele>287</ele>
        <time>2016-11-05T05:09:23Z</time>
      </trkpt>
      <trkpt lat="45.94415" lon="4.53898">
        <ele>288</ele>
        <time>2016-11-05T05:11:23Z</time>
      </trkpt>
      <trkpt lat="45.94414" lon="4.53902">
        <ele>288</ele>
        <time>2016-11-05T05:13:23Z</time>
      </trkpt>
      <trkpt lat="45.94412" lon="4.53907">
        <ele>289</ele>
        <time>2016-11-05T05:15:23Z</time>
      </trkpt>
      <trkpt lat="45.9441" lon="4.5391">
        <ele>289</ele>
        <time>2016-11-05T05:17:23Z</time>
      </trkpt>
      <trkpt lat="45.94406" lon="4.53914">
        <ele>289</ele>
        <time>2016-11-05T05:19:23Z</time>
      </trkpt>
      <trkpt lat="45.94397" lon="4.53922">
        <ele>289</ele>
        <time>2016-11-05T05:21:23Z</time>
      </trkpt>
      <trkpt lat="45.94386" lon="4.53934">
        <ele>289</ele>
        <time>2016-11-05T05:23:23Z</time>
      </trkpt>
      <trkpt lat="45.94372" lon="4.53946">
        <ele>289</ele>
        <time>2016-11-05T05:25:23Z</time>
      </trkpt>
      <trkpt lat="45.94361" lon="4.53955">
        <ele>289</ele>
        <time>2016-11-05T05:27:23Z</time>
      </trkpt>
      <trkpt lat="45.94338" lon="4.5397">
        <ele>288</ele>
        <time>2016-11-05T05:29:23Z</time>
      </trkpt>
      <trkpt lat="45.94258" lon="4.54018">
        <ele>294</ele>
        <time>2016-11-05T05:31:23Z</time>
      </trkpt>
      <trkpt lat="45.94249" lon="4.54024">
        <ele>295</ele>
        <time>2016-11-05T05:33:23Z</time>
      </trkpt>
      <trkpt lat="45.94235" lon="4.54035">
        <ele>294</ele>
        <time>2016-11-05T05:35:23Z</time>
      </trkpt>
      <trkpt lat="45.94228" lon="4.54045">
        <ele>294</ele>
        <time>2016-11-05T05:37:23Z</time>
      </trkpt>
      <trkpt lat="45.94224" lon="4.54057">
        <ele>295</ele>
        <time>2016-11-05T05:39:23Z</time>
      </trkpt>
      <trkpt lat="45.94223" lon="4.54063">
        <ele>295</ele>
        <time>2016-11-05T05:41:23Z</time>
      </trkpt>
      <trkpt lat="45.94223" lon="4.5407">
        <ele>296</ele>
        <time>2016-11-05T05:43:23Z</time>
      </trkpt>
      <trkpt lat="45.94224" lon="4.54077">
        <ele>297</ele>
        <time>2016-11-05T05:45:23Z</time>
      </trkpt>
      <trkpt lat="45.94225" lon="4.54084">
        <ele>298</ele>
        <time>2016-11-05T05:47:23Z</time>
      </trkpt>
      <trkpt lat="45.94228" lon="4.5409">
        <ele>299</ele>
        <time>2016-11-05T05:49:23Z</time>
      </trkpt>
      <trkpt lat="45.94231" lon="4.54094">
        <ele>299</ele>
        <time>2016-11-05T05:51:23Z</time>
      </trkpt>
      <trkpt lat="45.94235" lon="4.54098">
        <ele>300</ele>
        <time>2016-11-05T05:53:23Z</time>
      </trkpt>
      <trkpt lat="45.94237" lon="4.541">
        <ele>300</ele>
        <time>2016-11-05T05:55:23Z</time>
      </trkpt>
      <trkpt lat="45.94244" lon="4.54102">
        <ele>302</ele>
        <time>2016-11-05T05:57:23Z</time>
      </trkpt>
      <trkpt lat="45.94249" lon="4.54103">
        <ele>303</ele>
        <time>2016-11-05T05:59:23Z</time>
      </trkpt>
      <trkpt lat="45.94254" lon="4.54104">
        <ele>303</ele>
        <time>2016-11-05T06:01:23Z</time>
      </trkpt>
      <trkpt lat="45.9427" lon="4.54102">
        <ele>304</ele>
        <time>2016-11-05T06:03:23Z</time>
      </trkpt>
      <trkpt lat="45.94287" lon="4.54099">
        <ele>304</ele>
        <time>2016-11-05T06:05:23Z</time>
      </trkpt>
      <trkpt lat="45.94314" lon="4.54093">
        <ele>305</ele>
        <time>2016-11-05T06:07:23Z</time>
      </trkpt>
      <trkpt lat="45.94338" lon="4.54089">
        <ele>306</ele>
        <time>2016-11-05T06:09:23Z</time>
      </trkpt>
      <trkpt lat="45.94361" lon="4.54083">
        <ele>308</ele>
        <time>2016-11-05T06:11:23Z</time>
      </trkpt>
      <trkpt lat="45.94399" lon="4.54069">
        <ele>310</ele>
        <time>2016-11-05T06:13:23Z</time>
      </trkpt>
      <trkpt lat="45.9442" lon="4.54062">
        <ele>312</ele>
        <time>2016-11-05T06:15:23Z</time>
      </trkpt>
      <trkpt lat="45.94448" lon="4.54056">
        <ele>313</ele>
        <time>2016-11-05T06:17:23Z</time>
      </trkpt>
      <trkpt lat="45.94464" lon="4.54056">
        <ele>314</ele>
        <time>2016-11-05T06:19:23Z</time>
      </trkpt>
      <trkpt lat="45.94478" lon="4.54057">
        <ele>315</ele>
        <time>2016-11-05T06:21:23Z</time>
      </trkpt>
      <trkpt lat="45.94491" lon="4.54059">
        <ele>316</ele>
        <time>2016-11-05T06:23:23Z</time>
      </trkpt>
      <trkpt lat="45.94519" lon="4.54066">
        <ele>317</ele>
        <time>2016-11-05T06:25:23Z</time>
      </trkpt>
      <trkpt lat="45.94541" lon="4.54074">
        <ele>319</ele>
        <time>2016-11-05T06:27:23Z</time>
      </trkpt>
      <trkpt lat="45.94559" lon="4.54084">
        <ele>321</ele>
        <time>2016-11-05T06:29:23Z</time>
      </trkpt>
      <trkpt lat="45.9457" lon="4.5409">
        <ele>322</ele>
        <time>2016-11-05T06:31:23Z</time>
      </trkpt>
      <trkpt lat="45.94584" lon="4.541">
        <ele>324</ele>
        <time>2016-11-05T06:33:23Z</time>
      </trkpt>
      <trkpt lat="45.94591" lon="4.54108">
        <ele>324</ele>
        <time>2016-11-05T06:35:23Z</time>
      </trkpt>
      <trkpt lat="45.946" lon="4.54121">
        <ele>326</ele>
        <time>2016-11-05T06:37:23Z</time>
      </trkpt>
      <trkpt lat="45.94608" lon="4.54136">
        <ele>327</ele>
        <time>2016-11-05T06:39:23Z</time>
      </trkpt>
      <trkpt lat="45.94616" lon="4.54151">
        <ele>329</ele>
        <time>2016-11-05T06:41:23Z</time>
      </trkpt>
      <trkpt lat="45.94625" lon="4.54175">
        <ele>331</ele>
        <time>2016-11-05T06:43:23Z</time>
      </trkpt>
      <trkpt lat="45.94628" lon="4.54182">
        <ele>331</ele>
        <time>2016-11-05T06:45:23Z</time>
      </trkpt>
      <trkpt lat="45.94635" lon="4.54196">
        <ele>333</ele>
        <time>2016-11-05T06:47:23Z</time>
      </trkpt>
      <trkpt lat="45.94642" lon="4.54207">
        <ele>333</ele>
        <time>2016-11-05T06:49:23Z</time>
      </trkpt>
      <trkpt lat="45.94649" lon="4.54217">
        <ele>334</ele>
        <time>2016-11-05T06:51:23Z</time>
      </trkpt>
      <trkpt lat="45.94661" lon="4.5423">
        <ele>335</ele>
        <time>2016-11-05T06:53:23Z</time>
      </trkpt>
      <trkpt lat="45.94687" lon="4.54255">
        <ele>337</ele>
        <time>2016-11-05T06:55:23Z</time>
      </trkpt>
      <trkpt lat="45.94726" lon="4.54288">
        <ele>341</ele>
        <time>2016-11-05T06:57:23Z</time>
      </trkpt>
      <trkpt lat="45.94736" lon="4.54298">
        <ele>342</ele>
        <time>2016-11-05T06:59:23Z</time>
      </trkpt>
      <trkpt lat="45.94753" lon="4.54319">
        <ele>344</ele>
        <time>2016-11-05T07:01:23Z</time>
      </trkpt>
      <trkpt lat="45.94761" lon="4.5433">
        <ele>345</ele>
        <time>2016-11-05T07:03:23Z</time>
      </trkpt>
      <trkpt lat="45.9477" lon="4.54344">
        <ele>346</ele>
        <time>2016-11-05T07:05:23Z</time>
      </trkpt>
      <trkpt lat="45.94804" lon="4.54408">
        <ele>349</ele>
        <time>2016-11-05T07:07:23Z</time>
      </trkpt>
      <trkpt lat="45.94813" lon="4.54425">
        <ele>349</ele>
        <time>2016-11-05T07:09:23Z</time>
      </trkpt>
      <trkpt lat="45.9482" lon="4.54437">
        <ele>350</ele>
        <time>2016-11-05T07:11:23Z</time>
      </trkpt>
      <trkpt lat="45.94827" lon="4.54445">
        <ele>350</ele>
        <time>2016-11-05T07:13:23Z</time>
      </trkpt>
      <trkpt lat="45.94837" lon="4.54452">
        <ele>350</ele>
        <time>2016-11-05T07:15:23Z</time>
      </trkpt>
      <trkpt lat="45.94854" lon="4.54457">
        <ele>352</ele>
        <time>2016-11-05T07:17:23Z</time>
      </trkpt>
      <trkpt lat="45.94874" lon="4.5446">
        <ele>353</ele>
        <time>2016-11-05T07:19:23Z</time>
      </trkpt>
      <trkpt lat="45.94949" lon="4.54466">
        <ele>361</ele>
        <time>2016-11-05T07:21:23Z</time>
      </trkpt>
      <trkpt lat="45.95" lon="4.54469">
        <ele>366</ele>
        <time>2016-11-05T07:23:23Z</time>
      </trkpt>
      <trkpt lat="45.95008" lon="4.54471">
        <ele>367</ele>
        <time>2016-11-05T07:25:23Z</time>
      </trkpt>
      <trkpt lat="45.95013" lon="4.54475">
        <ele>367</ele>
        <time>2016-11-05T07:27:23Z</time>
      </trkpt>
      <trkpt lat="45.95013" lon="4.54475">
        <ele>367</ele>
        <time>2016-11-05T07:29:23Z</time>
      </trkpt>
      <trkpt lat="45.95023" lon="4.54454">
        <ele>367</ele>
        <time>2016-11-05T07:31:23Z</time>
      </trkpt>
      <trkpt lat="45.95025" lon="4.54447">
        <ele>368</ele>
        <time>2016-11-05T07:33:23Z</time>
      </trkpt>
      <trkpt lat="45.95026" lon="4.54439">
        <ele>368</ele>
        <time>2016-11-05T07:35:23Z</time>
      </trkpt>
      <trkpt lat="45.95027" lon="4.54423">
        <ele>368</ele>
        <time>2016-11-05T07:37:23Z</time>
      </trkpt>
      <trkpt lat="45.95025" lon="4.54413">
        <ele>368</ele>
        <time>2016-11-05T07:39:23Z</time>
      </trkpt>
      <trkpt lat="45.95018" lon="4.54399">
        <ele>368</ele>
        <time>2016-11-05T07:41:23Z</time>
      </trkpt>
      <trkpt lat="45.95004" lon="4.54376">
        <ele>369</ele>
        <time>2016-11-05T07:43:23Z</time>
      </trkpt>
      <trkpt lat="45.94997" lon="4.54362">
        <ele>369</ele>
        <time>2016-11-05T07:45:23Z</time>
      </trkpt>
      <trkpt lat="45.94992" lon="4.54349">
        <ele>369</ele>
        <time>2016-11-05T07:47:23Z</time>
      </trkpt>
      <trkpt lat="45.94987" lon="4.54333">
        <ele>369</ele>
        <time>2016-11-05T07:49:23Z</time>
      </trkpt>
      <trkpt lat="45.94978" lon="4.54297">
        <ele>370</ele>
        <time>2016-11-05T07:51:23Z</time>
      </trkpt>
      <trkpt lat="45.94968" lon="4.54258">
        <ele>372</ele>
        <time>2016-11-05T07:53:23Z</time>
      </trkpt>
      <trkpt lat="45.94963" lon="4.54242">
        <ele>372</ele>
        <time>2016-11-05T07:55:23Z</time>
      </trkpt>
      <trkpt lat="45.94958" lon="4.54216">
        <ele>373</ele>
        <time>2016-11-05T07:57:23Z</time>
      </trkpt>
      <trkpt lat="45.94957" lon="4.54202">
        <ele>373</ele>
        <time>2016-11-05T07:59:23Z</time>
      </trkpt>
      <trkpt lat="45.94958" lon="4.54172">
        <ele>375</ele>
        <time>2016-11-05T08:01:23Z</time>
      </trkpt>
      <trkpt lat="45.94961" lon="4.54148">
        <ele>376</ele>
        <time>2016-11-05T08:03:23Z</time>
      </trkpt>
      <trkpt lat="45.94966" lon="4.5413">
        <ele>376</ele>
        <time>2016-11-05T08:05:23Z</time>
      </trkpt>
      <trkpt lat="45.94969" lon="4.54124">
        <ele>376</ele>
        <time>2016-11-05T08:07:23Z</time>
      </trkpt>
      <trkpt lat="45.94972" lon="4.5412">
        <ele>377</ele>
        <time>2016-11-05T08:09:23Z</time>
      </trkpt>
      <trkpt lat="45.94976" lon="4.54118">
        <ele>377</ele>
        <time>2016-11-05T08:11:23Z</time>
      </trkpt>
      <trkpt lat="45.94983" lon="4.54116">
        <ele>378</ele>
        <time>2016-11-05T08:13:23Z</time>
      </trkpt>
      <trkpt lat="45.94989" lon="4.54117">
        <ele>379</ele>
        <time>2016-11-05T08:15:23Z</time>
      </trkpt>
      <trkpt lat="45.94989" lon="4.54117">
        <ele>379</ele>
        <time>2016-11-05T08:17:23Z</time>
      </trkpt>
      <trkpt lat="45.95012" lon="4.54141">
        <ele>381</ele>
        <time>2016-11-05T08:19:23Z</time>
      </trkpt>
      <trkpt lat="45.95041" lon="4.54177">
        <ele>382</ele>
        <time>2016-11-05T08:21:23Z</time>
      </trkpt>
      <trkpt lat="45.95051" lon="4.54184">
        <ele>383</ele>
        <time>2016-11-05T08:23:23Z</time>
      </trkpt>
      <trkpt lat="45.95051" lon="4.54184">
        <ele>383</ele>
        <time>2016-11-05T08:25:23Z</time>
      </trkpt>
      <trkpt lat="45.95061" lon="4.54183">
        <ele>383</ele>
        <time>2016-11-05T08:27:23Z</time>
      </trkpt>
      <trkpt lat="45.95067" lon="4.54182">
        <ele>384</ele>
        <time>2016-11-05T08:29:23Z</time>
      </trkpt>
      <trkpt lat="45.95081" lon="4.54178">
        <ele>384</ele>
        <time>2016-11-05T08:31:23Z</time>
      </trkpt>
      <trkpt lat="45.95101" lon="4.54176">
        <ele>384</ele>
        <time>2016-11-05T08:33:23Z</time>
      </trkpt>
      <trkpt lat="45.95108" lon="4.54176">
        <ele>384</ele>
        <time>2016-11-05T08:35:23Z</time>
      </trkpt>
      <trkpt lat="45.95118" lon="4.54178">
        <ele>384</ele>
        <time>2016-11-05T08:37:23Z</time>
      </trkpt>
      <trkpt lat="45.95142" lon="4.54185">
        <ele>384</ele>
        <time>2016-11-05T08:39:23Z</time>
      </trkpt>
      <trkpt lat="45.9516" lon="4.54193">
        <ele>385</ele>
        <time>2016-11-05T08:41:23Z</time>
      </trkpt>
      <trkpt lat="45.95173" lon="4.54199">
        <ele>385</ele>
        <time>2016-11-05T08:43:23Z</time>
      </trkpt>
      <trkpt lat="45.95179" lon="4.54203">
        <ele>385</ele>
        <time>2016-11-05T08:45:23Z</time>
      </trkpt>
      <trkpt lat="45.95179" lon="4.54203">
        <ele>385</ele>
        <time>2016-11-05T08:47:23Z</time>
      </trkpt>
      <trkpt lat="45.95185" lon="4.54207">
        <ele>385</ele>
        <time>2016-11-05T08:49:23Z</time>
      </trkpt>
      <trkpt lat="45.9519" lon="4.54212">
        <ele>386</ele>
        <time>2016-11-05T08:51:23Z</time>
      </trkpt>
      <trkpt lat="45.95195" lon="4.54218">
        <ele>386</ele>
        <time>2016-11-05T08:53:23Z</time>
      </trkpt>
      <trkpt lat="45.95199" lon="4.54225">
        <ele>387</ele>
        <time>2016-11-05T08:55:23Z</time>
      </trkpt>
      <trkpt lat="45.95252" lon="4.54349">
        <ele>389</ele>
        <time>2016-11-05T08:57:23Z</time>
      </trkpt>
      <trkpt lat="45.95296" lon="4.54446">
        <ele>391</ele>
        <time>2016-11-05T08:59:23Z</time>
      </trkpt>
      <trkpt lat="45.95299" lon="4.54456">
        <ele>391</ele>
        <time>2016-11-05T09:01:23Z</time>
      </trkpt>
      <trkpt lat="45.953" lon="4.54463">
        <ele>391</ele>
        <time>2016-11-05T09:03:23Z</time>
      </trkpt>
      <trkpt lat="45.95302" lon="4.54469">
        <ele>391</ele>
        <time>2016-11-05T09:05:23Z</time>
      </trkpt>
      <trkpt lat="45.95302" lon="4.54481">
        <ele>390</ele>
        <time>2016-11-05T09:07:23Z</time>
      </trkpt>
      <trkpt lat="45.95301" lon="4.54498">
        <ele>390</ele>
        <time>2016-11-05T09:09:23Z</time>
      </trkpt>
      <trkpt lat="45.95301" lon="4.54519">
        <ele>390</ele>
        <time>2016-11-05T09:11:23Z</time>
      </trkpt>
      <trkpt lat="45.953" lon="4.54533">
        <ele>391</ele>
        <time>2016-11-05T09:13:23Z</time>
      </trkpt>
      <trkpt lat="45.953" lon="4.54549">
        <ele>391</ele>
        <time>2016-11-05T09:15:23Z</time>
      </trkpt>
      <trkpt lat="45.95299" lon="4.54568">
        <ele>392</ele>
        <time>2016-11-05T09:17:23Z</time>
      </trkpt>
      <trkpt lat="45.95298" lon="4.54587">
        <ele>393</ele>
        <time>2016-11-05T09:19:23Z</time>
      </trkpt>
      <trkpt lat="45.95297" lon="4.54606">
        <ele>393</ele>
        <time>2016-11-05T09:21:23Z</time>
      </trkpt>
      <trkpt lat="45.95296" lon="4.54619">
        <ele>394</ele>
        <time>2016-11-05T09:23:23Z</time>
      </trkpt>
      <trkpt lat="45.95293" lon="4.54629">
        <ele>394</ele>
        <time>2016-11-05T09:25:23Z</time>
      </trkpt>
      <trkpt lat="45.95286" lon="4.54658">
        <ele>395</ele>
        <time>2016-11-05T09:27:23Z</time>
      </trkpt>
      <trkpt lat="45.95284" lon="4.54666">
        <ele>395</ele>
        <time>2016-11-05T09:29:23Z</time>
      </trkpt>
      <trkpt lat="45.95283" lon="4.54671">
        <ele>395</ele>
        <time>2016-11-05T09:31:23Z</time>
      </trkpt>
      <trkpt lat="45.95282" lon="4.54678">
        <ele>395</ele>
        <time>2016-11-05T09:33:23Z</time>
      </trkpt>
      <trkpt lat="45.95281" lon="4.54697">
        <ele>396</ele>
        <time>2016-11-05T09:35:23Z</time>
      </trkpt>
      <trkpt lat="45.95281" lon="4.54703">
        <ele>396</ele>
        <time>2016-11-05T09:37:23Z</time>
      </trkpt>
      <trkpt lat="45.95282" lon="4.54712">
        <ele>396</ele>
        <time>2016-11-05T09:39:23Z</time>
      </trkpt>
      <trkpt lat="45.95283" lon="4.54719">
        <ele>396</ele>
        <time>2016-11-05T09:41:23Z</time>
      </trkpt>
      <trkpt lat="45.95284" lon="4.54724">
        <ele>396</ele>
        <time>2016-11-05T09:43:23Z</time>
      </trkpt>
      <trkpt lat="45.95286" lon="4.54732">
        <ele>396</ele>
        <time>2016-11-05T09:45:23Z</time>
      </trkpt>
      <trkpt lat="45.95298" lon="4.54746">
        <ele>398</ele>
        <time>2016-11-05T09:47:23Z</time>
      </trkpt>
      <trkpt lat="45.95313" lon="4.54757">
        <ele>399</ele>
        <time>2016-11-05T09:49:23Z</time>
      </trkpt>
      <trkpt lat="45.9535" lon="4.54783">
        <ele>403</ele>
        <time>2016-11-05T09:51:23Z</time>
      </trkpt>
      <trkpt lat="45.95357" lon="4.54789">
        <ele>404</ele>
        <time>2016-11-05T09:53:23Z</time>
      </trkpt>
      <trkpt lat="45.95363" lon="4.54794">
        <ele>405</ele>
        <time>2016-11-05T09:55:23Z</time>
      </trkpt>
      <trkpt lat="45.95375" lon="4.5481">
        <ele>406</ele>
        <time>2016-11-05T09:57:23Z</time>
      </trkpt>
      <trkpt lat="45.95386" lon="4.54828">
        <ele>408</ele>
        <time>2016-11-05T09:59:23Z</time>
      </trkpt>
      <trkpt lat="45.95397" lon="4.5485">
        <ele>410</ele>
        <time>2016-11-05T10:01:23Z</time>
      </trkpt>
      <trkpt lat="45.95401" lon="4.54863">
        <ele>410</ele>
        <time>2016-11-05T10:03:23Z</time>
      </trkpt>
      <trkpt lat="45.95405" lon="4.54881">
        <ele>411</ele>
        <time>2016-11-05T10:05:23Z</time>
      </trkpt>
      <trkpt lat="45.95408" lon="4.54906">
        <ele>412</ele>
        <time>2016-11-05T10:07:23Z</time>
      </trkpt>
      <trkpt lat="45.95409" lon="4.54929">
        <ele>412</ele>
        <time>2016-11-05T10:09:23Z</time>
      </trkpt>
      <trkpt lat="45.95411" lon="4.54955">
        <ele>412</ele>
        <time>2016-11-05T10:11:23Z</time>
      </trkpt>
      <trkpt lat="45.95412" lon="4.54967">
        <ele>412</ele>
        <time>2016-11-05T10:13:23Z</time>
      </trkpt>
      <trkpt lat="45.95418" lon="4.54988">
        <ele>413</ele>
        <time>2016-11-05T10:15:23Z</time>
      </trkpt>
      <trkpt lat="45.95421" lon="4.54994">
        <ele>413</ele>
        <time>2016-11-05T10:17:23Z</time>
      </trkpt>
      <trkpt lat="45.95429" lon="4.55003">
        <ele>414</ele>
        <time>2016-11-05T10:19:23Z</time>
      </trkpt>
      <trkpt lat="45.95448" lon="4.55023">
        <ele>414</ele>
        <time>2016-11-05T10:21:23Z</time>
      </trkpt>
      <trkpt lat="45.9548" lon="4.55046">
        <ele>416</ele>
        <time>2016-11-05T10:23:23Z</time>
      </trkpt>
      <trkpt lat="45.95493" lon="4.55056">
        <ele>417</ele>
        <time>2016-11-05T10:25:23Z</time>
      </trkpt>
      <trkpt lat="45.95507" lon="4.55068">
        <ele>418</ele>
        <time>2016-11-05T10:27:23Z</time>
      </trkpt>
      <trkpt lat="45.95535" lon="4.55094">
        <ele>420</ele>
        <time>2016-11-05T10:29:23Z</time>
      </trkpt>
      <trkpt lat="45.95552" lon="4.55108">
        <ele>421</ele>
        <time>2016-11-05T10:31:23Z</time>
      </trkpt>
      <trkpt lat="45.95558" lon="4.55113">
        <ele>421</ele>
        <time>2016-11-05T10:33:23Z</time>
      </trkpt>
      <trkpt lat="45.95591" lon="4.55132">
        <ele>424</ele>
        <time>2016-11-05T10:35:23Z</time>
      </trkpt>
      <trkpt lat="45.95619" lon="4.55145">
        <ele>426</ele>
        <time>2016-11-05T10:37:23Z</time>
      </trkpt>
      <trkpt lat="45.9565" lon="4.55159">
        <ele>429</ele>
        <time>2016-11-05T10:39:23Z</time>
      </trkpt>
      <trkpt lat="45.95663" lon="4.55169">
        <ele>429</ele>
        <time>2016-11-05T10:41:23Z</time>
      </trkpt>
      <trkpt lat="45.95678" lon="4.55183">
        <ele>431</ele>
        <time>2016-11-05T10:43:23Z</time>
      </trkpt>
      <trkpt lat="45.95694" lon="4.55202">
        <ele>433</ele>
        <time>2016-11-05T10:45:23Z</time>
      </trkpt>
      <trkpt lat="45.95712" lon="4.55226">
        <ele>435</ele>
        <time>2016-11-05T10:47:23Z</time>
      </trkpt>
      <trkpt lat="45.95719" lon="4.55233">
        <ele>435</ele>
        <time>2016-11-05T10:49:23Z</time>
      </trkpt>
      <trkpt lat="45.9573" lon="4.55243">
        <ele>437</ele>
        <time>2016-11-05T10:51:23Z</time>
      </trkpt>
      <trkpt lat="45.9576" lon="4.55269">
        <ele>441</ele>
        <time>2016-11-05T10:53:23Z</time>
      </trkpt>
      <trkpt lat="45.95774" lon="4.55284">
        <ele>443</ele>
        <time>2016-11-05T10:55:23Z</time>
      </trkpt>
      <trkpt lat="45.95799" lon="4.55321">
        <ele>446</ele>
        <time>2016-11-05T10:57:23Z</time>
      </trkpt>
      <trkpt lat="45.95807" lon="4.55327">
        <ele>447</ele>
        <time>2016-11-05T10:59:23Z</time>
      </trkpt>
      <trkpt lat="45.95818" lon="4.55333">
        <ele>448</ele>
        <time>2016-11-05T11:01:23Z</time>
      </trkpt>
      <trkpt lat="45.95834" lon="4.55341">
        <ele>449</ele>
        <time>2016-11-05T11:03:23Z</time>
      </trkpt>
      <trkpt lat="45.95848" lon="4.55343">
        <ele>451</ele>
        <time>2016-11-05T11:05:23Z</time>
      </trkpt>
      <trkpt lat="45.95858" lon="4.55338">
        <ele>453</ele>
        <time>2016-11-05T11:07:23Z</time>
      </trkpt>
      <trkpt lat="45.95873" lon="4.5533">
        <ele>457</ele>
        <time>2016-11-05T11:09:23Z</time>
      </trkpt>
      <trkpt lat="45.95889" lon="4.55326">
        <ele>459</ele>
        <time>2016-11-05T11:11:23Z</time>
      </trkpt>
      <trkpt lat="45.95907" lon="4.55325">
        <ele>463</ele>
        <time>2016-11-05T11:13:23Z</time>
      </trkpt>
      <trkpt lat="45.95939" lon="4.55328">
        <ele>466</ele>
        <time>2016-11-05T11:15:23Z</time>
      </trkpt>
      <trkpt lat="45.95983" lon="4.55328">
        <ele>469</ele>
        <time>2016-11-05T11:17:23Z</time>
      </trkpt>
      <trkpt lat="45.95998" lon="4.5533">
        <ele>470</ele>
        <time>2016-11-05T11:19:23Z</time>
      </trkpt>
      <trkpt lat="45.96034" lon="4.55339">
        <ele>469</ele>
        <time>2016-11-05T11:21:23Z</time>
      </trkpt>
      <trkpt lat="45.96051" lon="4.5534">
        <ele>469</ele>
        <time>2016-11-05T11:23:23Z</time>
      </trkpt>
      <trkpt lat="45.96059" lon="4.55339">
        <ele>469</ele>
        <time>2016-11-05T11:25:23Z</time>
      </trkpt>
      <trkpt lat="45.96077" lon="4.55335">
        <ele>470</ele>
        <time>2016-11-05T11:27:23Z</time>
      </trkpt>
      <trkpt lat="45.96117" lon="4.55317">
        <ele>472</ele>
        <time>2016-11-05T11:29:23Z</time>
      </trkpt>
      <trkpt lat="45.96133" lon="4.55311">
        <ele>472</ele>
        <time>2016-11-05T11:31:23Z</time>
      </trkpt>
      <trkpt lat="45.96139" lon="4.5531">
        <ele>472</ele>
        <time>2016-11-05T11:33:23Z</time>
      </trkpt>
      <trkpt lat="45.96147" lon="4.5531">
        <ele>472</ele>
        <time>2016-11-05T11:35:23Z</time>
      </trkpt>
      <trkpt lat="45.96154" lon="4.55311">
        <ele>472</ele>
        <time>2016-11-05T11:37:23Z</time>
      </trkpt>
      <trkpt lat="45.96162" lon="4.55314">
        <ele>472</ele>
        <time>2016-11-05T11:39:23Z</time>
      </trkpt>
      <trkpt lat="45.9617" lon="4.5532">
        <ele>472</ele>
        <time>2016-11-05T11:41:23Z</time>
      </trkpt>
      <trkpt lat="45.96207" lon="4.55344">
        <ele>474</ele>
        <time>2016-11-05T11:43:23Z</time>
      </trkpt>
      <trkpt lat="45.96234" lon="4.55363">
        <ele>476</ele>
        <time>2016-11-05T11:45:23Z</time>
      </trkpt>
      <trkpt lat="45.96243" lon="4.5537">
        <ele>477</ele>
        <time>2016-11-05T11:47:23Z</time>
      </trkpt>
      <trkpt lat="45.96253" lon="4.55378">
        <ele>478</ele>
        <time>2016-11-05T11:49:23Z</time>
      </trkpt>
      <trkpt lat="45.96264" lon="4.55387">
        <ele>479</ele>
        <time>2016-11-05T11:51:23Z</time>
      </trkpt>
      <trkpt lat="45.96275" lon="4.55397">
        <ele>480</ele>
        <time>2016-11-05T11:53:23Z</time>
      </trkpt>
      <trkpt lat="45.96283" lon="4.55405">
        <ele>481</ele>
        <time>2016-11-05T11:55:23Z</time>
      </trkpt>
      <trkpt lat="45.96288" lon="4.5541">
        <ele>482</ele>
        <time>2016-11-05T11:57:23Z</time>
      </trkpt>
      <trkpt lat="45.96292" lon="4.55415">
        <ele>482</ele>
        <time>2016-11-05T11:59:23Z</time>
      </trkpt>
      <trkpt lat="45.96296" lon="4.55421">
        <ele>482</ele>
        <time>2016-11-05T12:01:23Z</time>
      </trkpt>
      <trkpt lat="45.96302" lon="4.55431">
        <ele>483</ele>
        <time>2016-11-05T12:03:23Z</time>
      </trkpt>
      <trkpt lat="45.96309" lon="4.55443">
        <ele>483</ele>
        <time>2016-11-05T12:05:23Z</time>
      </trkpt>
      <trkpt lat="45.9632" lon="4.55463">
        <ele>484</ele>
        <time>2016-11-05T12:07:23Z</time>
      </trkpt>
      <trkpt lat="45.9633" lon="4.55483">
        <ele>485</ele>
        <time>2016-11-05T12:09:23Z</time>
      </trkpt>
      <trkpt lat="45.96338" lon="4.55499">
        <ele>485</ele>
        <time>2016-11-05T12:11:23Z</time>
      </trkpt>
      <trkpt lat="45.96343" lon="4.55507">
        <ele>485</ele>
        <time>2016-11-05T12:13:23Z</time>
      </trkpt>
      <trkpt lat="45.96346" lon="4.55511">
        <ele>486</ele>
        <time>2016-11-05T12:15:23Z</time>
      </trkpt>
      <trkpt lat="45.96351" lon="4.55516">
        <ele>486</ele>
        <time>2016-11-05T12:17:23Z</time>
      </trkpt>
      <trkpt lat="45.96354" lon="4.55519">
        <ele>486</ele>
        <time>2016-11-05T12:19:23Z</time>
      </trkpt>
      <trkpt lat="45.96356" lon="4.55523">
        <ele>486</ele>
        <time>2016-11-05T12:21:23Z</time>
      </trkpt>
      <trkpt lat="45.96359" lon="4.55527">
        <ele>486</ele>
        <time>2016-11-05T12:23:23Z</time>
      </trkpt>
      <trkpt lat="45.96361" lon="4.55531">
        <ele>486</ele>
        <time>2016-11-05T12:25:23Z</time>
      </trkpt>
      <trkpt lat="45.96363" lon="4.55537">
        <ele>486</ele>
        <time>2016-11-05T12:27:23Z</time>
      </trkpt>
      <trkpt lat="45.96365" lon="4.55544">
        <ele>486</ele>
        <time>2016-11-05T12:29:23Z</time>
      </trkpt>
      <trkpt lat="45.96367" lon="4.55552">
        <ele>486</ele>
        <time>2016-11-05T12:31:23Z</time>
      </trkpt>
      <trkpt lat="45.96368" lon="4.55559">
        <ele>486</ele>
        <time>2016-11-05T12:33:23Z</time>
      </trkpt>
      <trkpt lat="45.96369" lon="4.55567">
        <ele>486</ele>
        <time>2016-11-05T12:35:23Z</time>
      </trkpt>
      <trkpt lat="45.96369" lon="4.55567">
        <ele>486</ele>
        <time>2016-11-05T12:37:23Z</time>
      </trkpt>
      <trkpt lat="45.96364" lon="4.55578">
        <ele>486</ele>
        <time>2016-11-05T12:39:23Z</time>
      </trkpt>
      <trkpt lat="45.96358" lon="4.55585">
        <ele>486</ele>
        <time>2016-11-05T12:41:23Z</time>
      </trkpt>
      <trkpt lat="45.96351" lon="4.55596">
        <ele>486</ele>
        <time>2016-11-05T12:43:23Z</time>
      </trkpt>
      <trkpt lat="45.96346" lon="4.55606">
        <ele>486</ele>
        <time>2016-11-05T12:45:23Z</time>
      </trkpt>
      <trkpt lat="45.96337" lon="4.55631">
        <ele>487</ele>
        <time>2016-11-05T12:47:23Z</time>
      </trkpt>
      <trkpt lat="45.96328" lon="4.55658">
        <ele>487</ele>
        <time>2016-11-05T12:49:23Z</time>
      </trkpt>
      <trkpt lat="45.96323" lon="4.55681">
        <ele>487</ele>
        <time>2016-11-05T12:51:23Z</time>
      </trkpt>
      <trkpt lat="45.96319" lon="4.55704">
        <ele>487</ele>
        <time>2016-11-05T12:53:23Z</time>
      </trkpt>
      <trkpt lat="45.96317" lon="4.55717">
        <ele>488</ele>
        <time>2016-11-05T12:55:23Z</time>
      </trkpt>
      <trkpt lat="45.96318" lon="4.55745">
        <ele>489</ele>
        <time>2016-11-05T12:57:23Z</time>
      </trkpt>
      <trkpt lat="45.96318" lon="4.55769">
        <ele>490</ele>
        <time>2016-11-05T12:59:23Z</time>
      </trkpt>
      <trkpt lat="45.96318" lon="4.55777">
        <ele>491</ele>
        <time>2016-11-05T13:01:23Z</time>
      </trkpt>
      <trkpt lat="45.96317" lon="4.55785">
        <ele>491</ele>
        <time>2016-11-05T13:03:23Z</time>
      </trkpt>
      <trkpt lat="45.96315" lon="4.55793">
        <ele>491</ele>
        <time>2016-11-05T13:05:23Z</time>
      </trkpt>
      <trkpt lat="45.96312" lon="4.55798">
        <ele>491</ele>
        <time>2016-11-05T13:07:23Z</time>
      </trkpt>
      <trkpt lat="45.96308" lon="4.55802">
        <ele>491</ele>
        <time>2016-11-05T13:09:23Z</time>
      </trkpt>
      <trkpt lat="45.96301" lon="4.55804">
        <ele>491</ele>
        <time>2016-11-05T13:11:23Z</time>
      </trkpt>
      <trkpt lat="45.96297" lon="4.55805">
        <ele>491</ele>
        <time>2016-11-05T13:13:23Z</time>
      </trkpt>
      <trkpt lat="45.96273" lon="4.55805">
        <ele>490</ele>
        <time>2016-11-05T13:15:23Z</time>
      </trkpt>
      <trkpt lat="45.96266" lon="4.55807">
        <ele>490</ele>
        <time>2016-11-05T13:17:23Z</time>
      </trkpt>
      <trkpt lat="45.96258" lon="4.55809">
        <ele>489</ele>
        <time>2016-11-05T13:19:23Z</time>
      </trkpt>
      <trkpt lat="45.96235" lon="4.55817">
        <ele>489</ele>
        <time>2016-11-05T13:21:23Z</time>
      </trkpt>
      <trkpt lat="45.96235" lon="4.55817">
        <ele>489</ele>
        <time>2016-11-05T13:23:23Z</time>
      </trkpt>
      <trkpt lat="45.96269" lon="4.56013">
        <ele>515</ele>
        <time>2016-11-05T13:25:23Z</time>
      </trkpt>
      <trkpt lat="45.96269" lon="4.56013">
        <ele>515</ele>
        <time>2016-11-05T13:27:23Z</time>
      </trkpt>
      <trkpt lat="45.96243" lon="4.56007">
        <ele>513</ele>
        <time>2016-11-05T13:29:23Z</time>
      </trkpt>
      <trkpt lat="45.96217" lon="4.56008">
        <ele>510</ele>
        <time>2016-11-05T13:31:23Z</time>
      </trkpt>
      <trkpt lat="45.96202" lon="4.56008">
        <ele>509</ele>
        <time>2016-11-05T13:33:23Z</time>
      </trkpt>
      <trkpt lat="45.96202" lon="4.56008">
        <ele>509</ele>
        <time>2016-11-05T13:35:23Z</time>
      </trkpt>
      <trkpt lat="45.96208" lon="4.56023">
        <ele>510</ele>
        <time>2016-11-05T13:37:23Z</time>
      </trkpt>
      <trkpt lat="45.96213" lon="4.56041">
        <ele>512</ele>
        <time>2016-11-05T13:39:23Z</time>
      </trkpt>
      <trkpt lat="45.96222" lon="4.5608">
        <ele>515</ele>
        <time>2016-11-05T13:41:23Z</time>
      </trkpt>
      <trkpt lat="45.96225" lon="4.56106">
        <ele>516</ele>
        <time>2016-11-05T13:43:23Z</time>
      </trkpt>
      <trkpt lat="45.96226" lon="4.56136">
        <ele>517</ele>
        <time>2016-11-05T13:45:23Z</time>
      </trkpt>
      <trkpt lat="45.96229" lon="4.5615">
        <ele>517</ele>
        <time>2016-11-05T13:47:23Z</time>
      </trkpt>
      <trkpt lat="45.96231" lon="4.56163">
        <ele>518</ele>
        <time>2016-11-05T13:49:23Z</time>
      </trkpt>
      <trkpt lat="45.96235" lon="4.56174">
        <ele>518</ele>
        <time>2016-11-05T13:51:23Z</time>
      </trkpt>
      <trkpt lat="45.96246" lon="4.56201">
        <ele>521</ele>
        <time>2016-11-05T13:53:23Z</time>
      </trkpt>
      <trkpt lat="45.96252" lon="4.56218">
        <ele>522</ele>
        <time>2016-11-05T13:55:23Z</time>
      </trkpt>
      <trkpt lat="45.96252" lon="4.56218">
        <ele>522</ele>
        <time>2016-11-05T13:57:23Z</time>
      </trkpt>
      <trkpt lat="45.96255" lon="4.56225">
        <ele>522</ele>
        <time>2016-11-05T13:59:23Z</time>
      </trkpt>
      <trkpt lat="45.96256" lon="4.56234">
        <ele>522</ele>
        <time>2016-11-05T14:01:23Z</time>
      </trkpt>
      <trkpt lat="45.96256" lon="4.56244">
        <ele>522</ele>
        <time>2016-11-05T14:03:23Z</time>
      </trkpt>
      <trkpt lat="45.9625" lon="4.56277">
        <ele>521</ele>
        <time>2016-11-05T14:05:23Z</time>
      </trkpt>
      <trkpt lat="45.96245" lon="4.56295">
        <ele>519</ele>
        <time>2016-11-05T14:07:23Z</time>
      </trkpt>
      <trkpt lat="45.96239" lon="4.56341">
        <ele>517</ele>
        <time>2016-11-05T14:09:23Z</time>
      </trkpt>
      <trkpt lat="45.96239" lon="4.56341">
        <ele>517</ele>
        <time>2016-11-05T14:11:23Z</time>
      </trkpt>
      <trkpt lat="45.96255" lon="4.5634">
        <ele>522</ele>
        <time>2016-11-05T14:13:23Z</time>
      </trkpt>
      <trkpt lat="45.96273" lon="4.56336">
        <ele>526</ele>
        <time>2016-11-05T14:15:23Z</time>
      </trkpt>
      <trkpt lat="45.96286" lon="4.56334">
        <ele>528</ele>
        <time>2016-11-05T14:17:23Z</time>
      </trkpt>
      <trkpt lat="45.96291" lon="4.56332">
        <ele>529</ele>
        <time>2016-11-05T14:19:23Z</time>
      </trkpt>
      <trkpt lat="45.96295" lon="4.56327">
        <ele>530</ele>
        <time>2016-11-05T14:21:23Z</time>
      </trkpt>
      <trkpt lat="45.96299" lon="4.56322">
        <ele>531</ele>
        <time>2016-11-05T14:23:23Z</time>
      </trkpt>
      <trkpt lat="45.96303" lon="4.56318">
        <ele>531</ele>
        <time>2016-11-05T14:25:23Z</time>
      </trkpt>
      <trkpt lat="45.96307" lon="4.56319">
        <ele>532</ele>
        <time>2016-11-05T14:27:23Z</time>
      </trkpt>
      <trkpt lat="45.96307" lon="4.56319">
        <ele>532</ele>
        <time>2016-11-05T14:29:23Z</time>
      </trkpt>
      <trkpt lat="45.96311" lon="4.56347">
        <ele>533</ele>
        <time>2016-11-05T14:31:23Z</time>
      </trkpt>
      <trkpt lat="45.96314" lon="4.56367">
        <ele>534</ele>
        <time>2016-11-05T14:33:23Z</time>
      </trkpt>
      <trkpt lat="45.96314" lon="4.56367">
        <ele>534</ele>
        <time>2016-11-05T14:35:23Z</time>
      </trkpt>
      <trkpt lat="45.96322" lon="4.5636">
        <ele>536</ele>
        <time>2016-11-05T14:37:23Z</time>
      </trkpt>
      <trkpt lat="45.96328" lon="4.56357">
        <ele>537</ele>
        <time>2016-11-05T14:39:23Z</time>
      </trkpt>
      <trkpt lat="45.96337" lon="4.56355">
        <ele>538</ele>
        <time>2016-11-05T14:41:23Z</time>
      </trkpt>
      <trkpt lat="45.96357" lon="4.56351">
        <ele>540</ele>
        <time>2016-11-05T14:43:23Z</time>
      </trkpt>
      <trkpt lat="45.96376" lon="4.56345">
        <ele>541</ele>
        <time>2016-11-05T14:45:23Z</time>
      </trkpt>
      <trkpt lat="45.96391" lon="4.56337">
        <ele>543</ele>
        <time>2016-11-05T14:47:23Z</time>
      </trkpt>
      <trkpt lat="45.96414" lon="4.56321">
        <ele>545</ele>
        <time>2016-11-05T14:49:23Z</time>
      </trkpt>
      <trkpt lat="45.9646" lon="4.5629">
        <ele>548</ele>
        <time>2016-11-05T14:51:23Z</time>
      </trkpt>
      <trkpt lat="45.96473" lon="4.5628">
        <ele>549</ele>
        <time>2016-11-05T14:53:23Z</time>
      </trkpt>
      <trkpt lat="45.96484" lon="4.56274">
        <ele>550</ele>
        <time>2016-11-05T14:55:23Z</time>
      </trkpt>
      <trkpt lat="45.96492" lon="4.56273">
        <ele>550</ele>
        <time>2016-11-05T14:57:23Z</time>
      </trkpt>
      <trkpt lat="45.96498" lon="4.56272">
        <ele>551</ele>
        <time>2016-11-05T14:59:23Z</time>
      </trkpt>
      <trkpt lat="45.96509" lon="4.56273">
        <ele>552</ele>
        <time>2016-11-05T15:01:23Z</time>
      </trkpt>
      <trkpt lat="45.96516" lon="4.56272">
        <ele>552</ele>
        <time>2016-11-05T15:03:23Z</time>
      </trkpt>
      <trkpt lat="45.96528" lon="4.56278">
        <ele>553</ele>
        <time>2016-11-05T15:05:23Z</time>
      </trkpt>
      <trkpt lat="45.96541" lon="4.56286">
        <ele>554</ele>
        <time>2016-11-05T15:07:23Z</time>
      </trkpt>
      <trkpt lat="45.96567" lon="4.56306">
        <ele>554</ele>
        <time>2016-11-05T15:09:23Z</time>
      </trkpt>
      <trkpt lat="45.96588" lon="4.56321">
        <ele>555</ele>
        <time>2016-11-05T15:11:23Z</time>
      </trkpt>
      <trkpt lat="45.96599" lon="4.56331">
        <ele>555</ele>
        <time>2016-11-05T15:13:23Z</time>
      </trkpt>
      <trkpt lat="45.96607" lon="4.56336">
        <ele>555</ele>
        <time>2016-11-05T15:15:23Z</time>
      </trkpt>
      <trkpt lat="45.96615" lon="4.56341">
        <ele>555</ele>
        <time>2016-11-05T15:17:23Z</time>
      </trkpt>
      <trkpt lat="45.96633" lon="4.56345">
        <ele>555</ele>
        <time>2016-11-05T15:19:23Z</time>
      </trkpt>
      <trkpt lat="45.96641" lon="4.56346">
        <ele>556</ele>
        <time>2016-11-05T15:21:23Z</time>
      </trkpt>
      <trkpt lat="45.96657" lon="4.56348">
        <ele>557</ele>
        <time>2016-11-05T15:23:23Z</time>
      </trkpt>
      <trkpt lat="45.96678" lon="4.56348">
        <ele>557</ele>
        <time>2016-11-05T15:25:23Z</time>
      </trkpt>
      <trkpt lat="45.9669" lon="4.56345">
        <ele>557</ele>
        <time>2016-11-05T15:27:23Z</time>
      </trkpt>
      <trkpt lat="45.96719" lon="4.56338">
        <ele>557</ele>
        <time>2016-11-05T15:29:23Z</time>
      </trkpt>
      <trkpt lat="45.96729" lon="4.56335">
        <ele>557</ele>
        <time>2016-11-05T15:31:23Z</time>
      </trkpt>
      <trkpt lat="45.96741" lon="4.56333">
        <ele>557</ele>
        <time>2016-11-05T15:33:23Z</time>
      </trkpt>
      <trkpt lat="45.96754" lon="4.56334">
        <ele>557</ele>
        <time>2016-11-05T15:35:23Z</time>
      </trkpt>
      <trkpt lat="45.96771" lon="4.56336">
        <ele>556</ele>
        <time>2016-11-05T15:37:23Z</time>
      </trkpt>
      <trkpt lat="45.96795" lon="4.56342">
        <ele>555</ele>
        <time>2016-11-05T15:39:23Z</time>
      </trkpt>
      <trkpt lat="45.96813" lon="4.56345">
        <ele>554</ele>
        <time>2016-11-05T15:41:23Z</time>
      </trkpt>
      <trkpt lat="45.96829" lon="4.56348">
        <ele>554</ele>
        <time>2016-11-05T15:43:23Z</time>
      </trkpt>
      <trkpt lat="45.96863" lon="4.56361">
        <ele>552</ele>
        <time>2016-11-05T15:45:23Z</time>
      </trkpt>
      <trkpt lat="45.96897" lon="4.56374">
        <ele>551</ele>
        <time>2016-11-05T15:47:23Z</time>
      </trkpt>
      <trkpt lat="45.96916" lon="4.56383">
        <ele>551</ele>
        <time>2016-11-05T15:49:23Z</time>
      </trkpt>
      <trkpt lat="45.96925" lon="4.56388">
        <ele>551</ele>
        <time>2016-11-05T15:51:23Z</time>
      </trkpt>
      <trkpt lat="45.96937" lon="4.564">
        <ele>551</ele>
        <time>2016-11-05T15:53:23Z</time>
      </trkpt>
      <trkpt lat="45.96942" lon="4.56405">
        <ele>551</ele>
        <time>2016-11-05T15:55:23Z</time>
      </trkpt>
      <trkpt lat="45.96943" lon="4.56406">
        <ele>551</ele>
        <time>2016-11-05T15:57:23Z</time>
      </trkpt>
      <trkpt lat="45.96961" lon="4.56422">
        <ele>551</ele>
        <time>2016-11-05T15:59:23Z</time>
      </trkpt>
      <trkpt lat="45.96982" lon="4.56441">
        <ele>551</ele>
        <time>2016-11-05T16:01:23Z</time>
      </trkpt>
      <trkpt lat="45.96986" lon="4.56443">
        <ele>551</ele>
        <time>2016-11-05T16:03:23Z</time>
      </trkpt>
      <trkpt lat="45.96992" lon="4.5645">
        <ele>552</ele>
        <time>2016-11-05T16:05:23Z</time>
      </trkpt>
      <trkpt lat="45.97017" lon="4.56462">
        <ele>553</ele>
        <time>2016-11-05T16:07:23Z</time>
      </trkpt>
      <trkpt lat="45.97025" lon="4.56464">
        <ele>553</ele>
        <time>2016-11-05T16:09:23Z</time>
      </trkpt>
      <trkpt lat="45.97034" lon="4.56467">
        <ele>554</ele>
        <time>2016-11-05T16:11:23Z</time>
      </trkpt>
      <trkpt lat="45.97041" lon="4.56468">
        <ele>554</ele>
        <time>2016-11-05T16:13:23Z</time>
      </trkpt>
      <trkpt lat="45.97055" lon="4.56468">
        <ele>554</ele>
        <time>2016-11-05T16:15:23Z</time>
      </trkpt>
      <trkpt lat="45.97068" lon="4.56468">
        <ele>555</ele>
        <time>2016-11-05T16:17:23Z</time>
      </trkpt>
      <trkpt lat="45.97095" lon="4.56464">
        <ele>555</ele>
        <time>2016-11-05T16:19:23Z</time>
      </trkpt>
      <trkpt lat="45.97114" lon="4.56462">
        <ele>556</ele>
        <time>2016-11-05T16:21:23Z</time>
      </trkpt>
      <trkpt lat="45.97139" lon="4.56455">
        <ele>556</ele>
        <time>2016-11-05T16:23:23Z</time>
      </trkpt>
      <trkpt lat="45.97167" lon="4.56446">
        <ele>557</ele>
        <time>2016-11-05T16:25:23Z</time>
      </trkpt>
      <trkpt lat="45.97195" lon="4.56434">
        <ele>559</ele>
        <time>2016-11-05T16:27:23Z</time>
      </trkpt>
      <trkpt lat="45.97215" lon="4.56426">
        <ele>561</ele>
        <time>2016-11-05T16:29:23Z</time>
      </trkpt>
      <trkpt lat="45.97235" lon="4.56418">
        <ele>562</ele>
        <time>2016-11-05T16:31:23Z</time>
      </trkpt>
      <trkpt lat="45.97252" lon="4.5641">
        <ele>563</ele>
        <time>2016-11-05T16:33:23Z</time>
      </trkpt>
      <trkpt lat="45.97263" lon="4.56404">
        <ele>563</ele>
        <time>2016-11-05T16:35:23Z</time>
      </trkpt>
      <trkpt lat="45.97276" lon="4.56396">
        <ele>564</ele>
        <time>2016-11-05T16:37:23Z</time>
      </trkpt>
      <trkpt lat="45.97305" lon="4.56378">
        <ele>566</ele>
        <time>2016-11-05T16:39:23Z</time>
      </trkpt>
      <trkpt lat="45.97315" lon="4.56373">
        <ele>567</ele>
        <time>2016-11-05T16:41:23Z</time>
      </trkpt>
      <trkpt lat="45.97345" lon="4.56357">
        <ele>569</ele>
        <time>2016-11-05T16:43:23Z</time>
      </trkpt>
      <trkpt lat="45.97356" lon="4.56353">
        <ele>570</ele>
        <time>2016-11-05T16:45:23Z</time>
      </trkpt>
      <trkpt lat="45.97372" lon="4.56348">
        <ele>571</ele>
        <time>2016-11-05T16:47:23Z</time>
      </trkpt>
      <trkpt lat="45.97372" lon="4.56348">
        <ele>571</ele>
        <time>2016-11-05T16:49:23Z</time>
      </trkpt>
      <trkpt lat="45.97381" lon="4.56345">
        <ele>572</ele>
        <time>2016-11-05T16:51:23Z</time>
      </trkpt>
      <trkpt lat="45.97398" lon="4.56341">
        <ele>573</ele>
        <time>2016-11-05T16:53:23Z</time>
      </trkpt>
      <trkpt lat="45.97414" lon="4.56339">
        <ele>574</ele>
        <time>2016-11-05T16:55:23Z</time>
      </trkpt>
      <trkpt lat="45.97428" lon="4.56339">
        <ele>575</ele>
        <time>2016-11-05T16:57:23Z</time>
      </trkpt>
      <trkpt lat="45.97439" lon="4.56339">
        <ele>576</ele>
        <time>2016-11-05T16:59:23Z</time>
      </trkpt>
      <trkpt lat="45.97451" lon="4.56341">
        <ele>577</ele>
        <time>2016-11-05T17:01:23Z</time>
      </trkpt>
      <trkpt lat="45.97451" lon="4.56341">
        <ele>577</ele>
        <time>2016-11-05T17:03:23Z</time>
      </trkpt>
      <trkpt lat="45.97456" lon="4.56337">
        <ele>578</ele>
        <time>2016-11-05T17:05:23Z</time>
      </trkpt>
      <trkpt lat="45.9746" lon="4.56335">
        <ele>578</ele>
        <time>2016-11-05T17:07:23Z</time>
      </trkpt>
      <trkpt lat="45.9748" lon="4.56327">
        <ele>578</ele>
        <time>2016-11-05T17:09:23Z</time>
      </trkpt>
      <trkpt lat="45.97499" lon="4.56318">
        <ele>577</ele>
        <time>2016-11-05T17:11:23Z</time>
      </trkpt>
      <trkpt lat="45.97508" lon="4.56313">
        <ele>577</ele>
        <time>2016-11-05T17:13:23Z</time>
      </trkpt>
      <trkpt lat="45.97519" lon="4.56306">
        <ele>577</ele>
        <time>2016-11-05T17:15:23Z</time>
      </trkpt>
      <trkpt lat="45.97529" lon="4.56301">
        <ele>576</ele>
        <time>2016-11-05T17:17:23Z</time>
      </trkpt>
      <trkpt lat="45.97543" lon="4.56296">
        <ele>577</ele>
        <time>2016-11-05T17:19:23Z</time>
      </trkpt>
      <trkpt lat="45.97543" lon="4.56296">
        <ele>577</ele>
        <time>2016-11-05T17:21:23Z</time>
      </trkpt>
      <trkpt lat="45.97621" lon="4.56263">
        <ele>574</ele>
        <time>2016-11-05T17:23:23Z</time>
      </trkpt>
      <trkpt lat="45.97631" lon="4.5626">
        <ele>573</ele>
        <time>2016-11-05T17:25:23Z</time>
      </trkpt>
      <trkpt lat="45.97637" lon="4.5626">
        <ele>573</ele>
        <time>2016-11-05T17:27:23Z</time>
      </trkpt>
      <trkpt lat="45.97644" lon="4.5626">
        <ele>573</ele>
        <time>2016-11-05T17:29:23Z</time>
      </trkpt>
      <trkpt lat="45.97655" lon="4.56264">
        <ele>574</ele>
        <time>2016-11-05T17:31:23Z</time>
      </trkpt>
      <trkpt lat="45.97666" lon="4.5627">
        <ele>575</ele>
        <time>2016-11-05T17:33:23Z</time>
      </trkpt>
      <trkpt lat="45.97683" lon="4.56282">
        <ele>576</ele>
        <time>2016-11-05T17:35:23Z</time>
      </trkpt>
      <trkpt lat="45.97712" lon="4.56301">
        <ele>578</ele>
        <time>2016-11-05T17:37:23Z</time>
      </trkpt>
      <trkpt lat="45.97728" lon="4.56311">
        <ele>579</ele>
        <time>2016-11-05T17:39:23Z</time>
      </trkpt>
      <trkpt lat="45.97741" lon="4.56319">
        <ele>580</ele>
        <time>2016-11-05T17:41:23Z</time>
      </trkpt>
      <trkpt lat="45.9775" lon="4.56323">
        <ele>581</ele>
        <time>2016-11-05T17:43:23Z</time>
      </trkpt>
      <trkpt lat="45.97755" lon="4.56325">
        <ele>582</ele>
        <time>2016-11-05T17:45:23Z</time>
      </trkpt>
      <trkpt lat="45.97761" lon="4.56326">
        <ele>582</ele>
        <time>2016-11-05T17:47:23Z</time>
      </trkpt>
      <trkpt lat="45.97775" lon="4.56327">
        <ele>584</ele>
        <time>2016-11-05T17:49:23Z</time>
      </trkpt>
      <trkpt lat="45.97783" lon="4.56327">
        <ele>585</ele>
        <time>2016-11-05T17:51:23Z</time>
      </trkpt>
      <trkpt lat="45.97787" lon="4.56327">
        <ele>585</ele>
        <time>2016-11-05T17:53:23Z</time>
      </trkpt>
      <trkpt lat="45.97795" lon="4.56325">
        <ele>586</ele>
        <time>2016-11-05T17:55:23Z</time>
      </trkpt>
      <trkpt lat="45.97806" lon="4.56323">
        <ele>586</ele>
        <time>2016-11-05T17:57:23Z</time>
      </trkpt>
      <trkpt lat="45.97813" lon="4.56319">
        <ele>586</ele>
        <time>2016-11-05T17:59:23Z</time>
      </trkpt>
      <trkpt lat="45.97824" lon="4.56313">
        <ele>586</ele>
        <time>2016-11-05T18:01:23Z</time>
      </trkpt>
      <trkpt lat="45.97838" lon="4.563">
        <ele>584</ele>
        <time>2016-11-05T18:03:23Z</time>
      </trkpt>
      <trkpt lat="45.97843" lon="4.56296">
        <ele>584</ele>
        <time>2016-11-05T18:05:23Z</time>
      </trkpt>
      <trkpt lat="45.97848" lon="4.5629">
        <ele>584</ele>
        <time>2016-11-05T18:07:23Z</time>
      </trkpt>
      <trkpt lat="45.97855" lon="4.56279">
        <ele>582</ele>
        <time>2016-11-05T18:09:23Z</time>
      </trkpt>
      <trkpt lat="45.97862" lon="4.5627">
        <ele>581</ele>
        <time>2016-11-05T18:11:23Z</time>
      </trkpt>
      <trkpt lat="45.97869" lon="4.56259">
        <ele>580</ele>
        <time>2016-11-05T18:13:23Z</time>
      </trkpt>
      <trkpt lat="45.97881" lon="4.56245">
        <ele>579</ele>
        <time>2016-11-05T18:15:23Z</time>
      </trkpt>
      <trkpt lat="45.97894" lon="4.56231">
        <ele>578</ele>
        <time>2016-11-05T18:17:23Z</time>
      </trkpt>
      <trkpt lat="45.97905" lon="4.5622">
        <ele>578</ele>
        <time>2016-11-05T18:19:23Z</time>
      </trkpt>
      <trkpt lat="45.97919" lon="4.56209">
        <ele>577</ele>
        <time>2016-11-05T18:21:23Z</time>
      </trkpt>
      <trkpt lat="45.97932" lon="4.56203">
        <ele>578</ele>
        <time>2016-11-05T18:23:23Z</time>
      </trkpt>
      <trkpt lat="45.97939" lon="4.562">
        <ele>578</ele>
        <time>2016-11-05T18:25:23Z</time>
      </trkpt>
      <trkpt lat="45.97949" lon="4.56199">
        <ele>580</ele>
        <time>2016-11-05T18:27:23Z</time>
      </trkpt>
      <trkpt lat="45.97955" lon="4.56198">
        <ele>580</ele>
        <time>2016-11-05T18:29:23Z</time>
      </trkpt>
      <trkpt lat="45.97967" lon="4.56197">
        <ele>582</ele>
        <time>2016-11-05T18:31:23Z</time>
      </trkpt>
      <trkpt lat="45.97972" lon="4.56197">
        <ele>583</ele>
        <time>2016-11-05T18:33:23Z</time>
      </trkpt>
      <trkpt lat="45.97976" lon="4.56194">
        <ele>583</ele>
        <time>2016-11-05T18:35:23Z</time>
      </trkpt>
      <trkpt lat="45.97983" lon="4.56187">
        <ele>582</ele>
        <time>2016-11-05T18:37:23Z</time>
      </trkpt>
      <trkpt lat="45.98014" lon="4.56153">
        <ele>585</ele>
        <time>2016-11-05T18:39:23Z</time>
      </trkpt>
      <trkpt lat="45.9802" lon="4.56143">
        <ele>586</ele>
        <time>2016-11-05T18:41:23Z</time>
      </trkpt>
      <trkpt lat="45.98029" lon="4.56124">
        <ele>587</ele>
        <time>2016-11-05T18:43:23Z</time>
      </trkpt>
      <trkpt lat="45.98032" lon="4.56116">
        <ele>587</ele>
        <time>2016-11-05T18:45:23Z</time>
      </trkpt>
      <trkpt lat="45.98034" lon="4.56109">
        <ele>587</ele>
        <time>2016-11-05T18:47:23Z</time>
      </trkpt>
      <trkpt lat="45.98035" lon="4.561">
        <ele>587</ele>
        <time>2016-11-05T18:49:23Z</time>
      </trkpt>
      <trkpt lat="45.98034" lon="4.56089">
        <ele>585</ele>
        <time>2016-11-05T18:51:23Z</time>
      </trkpt>
      <trkpt lat="45.98033" lon="4.56072">
        <ele>583</ele>
        <time>2016-11-05T18:53:23Z</time>
      </trkpt>
      <trkpt lat="45.98034" lon="4.56061">
        <ele>583</ele>
        <time>2016-11-05T18:55:23Z</time>
      </trkpt>
      <trkpt lat="45.98035" lon="4.56055">
        <ele>582</ele>
        <time>2016-11-05T18:57:23Z</time>
      </trkpt>
      <trkpt lat="45.98038" lon="4.56046">
        <ele>583</ele>
        <time>2016-11-05T18:59:23Z</time>
      </trkpt>
      <trkpt lat="45.98042" lon="4.56034">
        <ele>583</ele>
        <time>2016-11-05T19:01:23Z</time>
      </trkpt>
      <trkpt lat="45.98047" lon="4.56021">
        <ele>583</ele>
        <time>2016-11-05T19:03:23Z</time>
      </trkpt>
      <trkpt lat="45.98053" lon="4.56012">
        <ele>584</ele>
        <time>2016-11-05T19:05:23Z</time>
      </trkpt>
      <trkpt lat="45.98056" lon="4.56007">
        <ele>584</ele>
        <time>2016-11-05T19:07:23Z</time>
      </trkpt>
      <trkpt lat="45.98059" lon="4.56003">
        <ele>585</ele>
        <time>2016-11-05T19:09:23Z</time>
      </trkpt>
      <trkpt lat="45.98065" lon="4.55993">
        <ele>585</ele>
        <time>2016-11-05T19:11:23Z</time>
      </trkpt>
      <trkpt lat="45.98071" lon="4.55985">
        <ele>586</ele>
        <time>2016-11-05T19:13:23Z</time>
      </trkpt>
      <trkpt lat="45.98077" lon="4.55979">
        <ele>587</ele>
        <time>2016-11-05T19:15:23Z</time>
      </trkpt>
      <trkpt lat="45.98084" lon="4.55972">
        <ele>588</ele>
        <time>2016-11-05T19:17:23Z</time>
      </trkpt>
      <trkpt lat="45.98094" lon="4.55964">
        <ele>588</ele>
        <time>2016-11-05T19:19:23Z</time>
      </trkpt>
      <trkpt lat="45.98105" lon="4.55956">
        <ele>588</ele>
        <time>2016-11-05T19:21:23Z</time>
      </trkpt>
      <trkpt lat="45.98115" lon="4.5595">
        <ele>588</ele>
        <time>2016-11-05T19:23:23Z</time>
      </trkpt>
      <trkpt lat="45.98125" lon="4.55946">
        <ele>588</ele>
        <time>2016-11-05T19:25:23Z</time>
      </trkpt>
      <trkpt lat="45.98135" lon="4.5594">
        <ele>588</ele>
        <time>2016-11-05T19:27:23Z</time>
      </trkpt>
      <trkpt lat="45.98145" lon="4.55936">
        <ele>588</ele>
        <time>2016-11-05T19:29:23Z</time>
      </trkpt>
      <trkpt lat="45.98153" lon="4.55934">
        <ele>589</ele>
        <time>2016-11-05T19:31:23Z</time>
      </trkpt>
      <trkpt lat="45.98166" lon="4.55933">
        <ele>589</ele>
        <time>2016-11-05T19:33:23Z</time>
      </trkpt>
      <trkpt lat="45.98179" lon="4.55934">
        <ele>589</ele>
        <time>2016-11-05T19:35:23Z</time>
      </trkpt>
      <trkpt lat="45.98194" lon="4.55937">
        <ele>589</ele>
        <time>2016-11-05T19:37:23Z</time>
      </trkpt>
      <trkpt lat="45.98212" lon="4.55942">
        <ele>589</ele>
        <time>2016-11-05T19:39:23Z</time>
      </trkpt>
      <trkpt lat="45.98227" lon="4.55947">
        <ele>590</ele>
        <time>2016-11-05T19:41:23Z</time>
      </trkpt>
      <trkpt lat="45.98243" lon="4.55953">
        <ele>590</ele>
        <time>2016-11-05T19:43:23Z</time>
      </trkpt>
      <trkpt lat="45.98261" lon="4.55958">
        <ele>591</ele>
        <time>2016-11-05T19:45:23Z</time>
      </trkpt>
      <trkpt lat="45.9828" lon="4.55963">
        <ele>590</ele>
        <time>2016-11-05T19:47:23Z</time>
      </trkpt>
      <trkpt lat="45.98292" lon="4.55968">
        <ele>591</ele>
        <time>2016-11-05T19:49:23Z</time>
      </trkpt>
      <trkpt lat="45.98308" lon="4.55973">
        <ele>590</ele>
        <time>2016-11-05T19:51:23Z</time>
      </trkpt>
      <trkpt lat="45.98317" lon="4.55977">
        <ele>591</ele>
        <time>2016-11-05T19:53:23Z</time>
      </trkpt>
      <trkpt lat="45.98337" lon="4.55989">
        <ele>592</ele>
        <time>2016-11-05T19:55:23Z</time>
      </trkpt>
      <trkpt lat="45.98342" lon="4.5599">
        <ele>593</ele>
        <time>2016-11-05T19:57:23Z</time>
      </trkpt>
      <trkpt lat="45.98345" lon="4.5599">
        <ele>594</ele>
        <time>2016-11-05T19:59:23Z</time>
      </trkpt>
      <trkpt lat="45.98347" lon="4.55989">
        <ele>594</ele>
        <time>2016-11-05T20:01:23Z</time>
      </trkpt>
      <trkpt lat="45.9835" lon="4.55988">
        <ele>594</ele>
        <time>2016-11-05T20:03:23Z</time>
      </trkpt>
      <trkpt lat="45.98354" lon="4.55984">
        <ele>594</ele>
        <time>2016-11-05T20:05:23Z</time>
      </trkpt>
      <trkpt lat="45.98359" lon="4.55977">
        <ele>593</ele>
        <time>2016-11-05T20:07:23Z</time>
      </trkpt>
      <trkpt lat="45.98369" lon="4.55959">
        <ele>591</ele>
        <time>2016-11-05T20:09:23Z</time>
      </trkpt>
      <trkpt lat="45.98373" lon="4.55952">
        <ele>591</ele>
        <time>2016-11-05T20:11:23Z</time>
      </trkpt>
      <trkpt lat="45.98377" lon="4.55946">
        <ele>590</ele>
        <time>2016-11-05T20:13:23Z</time>
      </trkpt>
      <trkpt lat="45.98384" lon="4.55938">
        <ele>590</ele>
        <time>2016-11-05T20:15:23Z</time>
      </trkpt>
      <trkpt lat="45.9839" lon="4.55932">
        <ele>590</ele>
        <time>2016-11-05T20:17:23Z</time>
      </trkpt>
      <trkpt lat="45.98402" lon="4.55926">
        <ele>592</ele>
        <time>2016-11-05T20:19:23Z</time>
      </trkpt>
      <trkpt lat="45.98402" lon="4.55926">
        <ele>592</ele>
        <time>2016-11-05T20:21:23Z</time>
      </trkpt>
      <trkpt lat="45.98406" lon="4.55923">
        <ele>592</ele>
        <time>2016-11-05T20:23:23Z</time>
      </trkpt>
      <trkpt lat="45.98414" lon="4.55922">
        <ele>593</ele>
        <time>2016-11-05T20:25:23Z</time>
      </trkpt>
      <trkpt lat="45.98419" lon="4.55923">
        <ele>594</ele>
        <time>2016-11-05T20:27:23Z</time>
      </trkpt>
      <trkpt lat="45.9843" lon="4.55929">
        <ele>595</ele>
        <time>2016-11-05T20:29:23Z</time>
      </trkpt>
      <trkpt lat="45.98439" lon="4.55937">
        <ele>596</ele>
        <time>2016-11-05T20:31:23Z</time>
      </trkpt>
      <trkpt lat="45.98449" lon="4.55949">
        <ele>599</ele>
        <time>2016-11-05T20:33:23Z</time>
      </trkpt>
      <trkpt lat="45.98467" lon="4.55974">
        <ele>604</ele>
        <time>2016-11-05T20:35:23Z</time>
      </trkpt>
      <trkpt lat="45.98484" lon="4.55995">
        <ele>608</ele>
        <time>2016-11-05T20:37:23Z</time>
      </trkpt>
      <trkpt lat="45.98494" lon="4.56006">
        <ele>611</ele>
        <time>2016-11-05T20:39:23Z</time>
      </trkpt>
      <trkpt lat="45.98504" lon="4.56014">
        <ele>613</ele>
        <time>2016-11-05T20:41:23Z</time>
      </trkpt>
      <trkpt lat="45.98513" lon="4.56019">
        <ele>616</ele>
        <time>2016-11-05T20:43:23Z</time>
      </trkpt>
      <trkpt lat="45.9852" lon="4.56022">
        <ele>618</ele>
        <time>2016-11-05T20:45:23Z</time>
      </trkpt>
      <trkpt lat="45.98524" lon="4.56023">
        <ele>619</ele>
        <time>2016-11-05T20:47:23Z</time>
      </trkpt>
      <trkpt lat="45.98526" lon="4.56022">
        <ele>619</ele>
        <time>2016-11-05T20:49:23Z</time>
      </trkpt>
      <trkpt lat="45.98527" lon="4.56022">
        <ele>619</ele>
        <time>2016-11-05T20:51:23Z</time>
      </trkpt>
      <trkpt lat="45.9853" lon="4.5602">
        <ele>619</ele>
        <time>2016-11-05T20:53:23Z</time>
      </trkpt>
      <trkpt lat="45.98533" lon="4.56015">
        <ele>619</ele>
        <time>2016-11-05T20:55:23Z</time>
      </trkpt>
      <trkpt lat="45.98537" lon="4.56005">
        <ele>618</ele>
        <time>2016-11-05T20:57:23Z</time>
      </trkpt>
      <trkpt lat="45.98543" lon="4.55988">
        <ele>616</ele>
        <time>2016-11-05T20:59:23Z</time>
      </trkpt>
      <trkpt lat="45.98545" lon="4.55978">
        <ele>615</ele>
        <time>2016-11-05T21:01:23Z</time>
      </trkpt>
      <trkpt lat="45.98547" lon="4.55973">
        <ele>614</ele>
        <time>2016-11-05T21:03:23Z</time>
      </trkpt>
      <trkpt lat="45.9855" lon="4.55965">
        <ele>613</ele>
        <time>2016-11-05T21:05:23Z</time>
      </trkpt>
      <trkpt lat="45.98556" lon="4.55954">
        <ele>612</ele>
        <time>2016-11-05T21:07:23Z</time>
      </trkpt>
      <trkpt lat="45.98562" lon="4.55943">
        <ele>612</ele>
        <time>2016-11-05T21:09:23Z</time>
      </trkpt>
      <trkpt lat="45.98569" lon="4.55935">
        <ele>612</ele>
        <time>2016-11-05T21:11:23Z</time>
      </trkpt>
      <trkpt lat="45.98575" lon="4.55928">
        <ele>612</ele>
        <time>2016-11-05T21:13:23Z</time>
      </trkpt>
      <trkpt lat="45.9858" lon="4.55923">
        <ele>612</ele>
        <time>2016-11-05T21:15:23Z</time>
      </trkpt>
      <trkpt lat="45.98597" lon="4.55907">
        <ele>612</ele>
        <time>2016-11-05T21:17:23Z</time>
      </trkpt>
      <trkpt lat="45.98611" lon="4.55898">
        <ele>612</ele>
        <time>2016-11-05T21:19:23Z</time>
      </trkpt>
      <trkpt lat="45.98618" lon="4.55895">
        <ele>612</ele>
        <time>2016-11-05T21:21:23Z</time>
      </trkpt>
      <trkpt lat="45.98638" lon="4.55891">
        <ele>614</ele>
        <time>2016-11-05T21:23:23Z</time>
      </trkpt>
      <trkpt lat="45.98656" lon="4.55895">
        <ele>617</ele>
        <time>2016-11-05T21:25:23Z</time>
      </trkpt>
      <trkpt lat="45.98668" lon="4.55899">
        <ele>619</ele>
        <time>2016-11-05T21:27:23Z</time>
      </trkpt>
      <trkpt lat="45.9868" lon="4.55902">
        <ele>619</ele>
        <time>2016-11-05T21:29:23Z</time>
      </trkpt>
      <trkpt lat="45.9869" lon="4.55909">
        <ele>620</ele>
        <time>2016-11-05T21:31:23Z</time>
      </trkpt>
      <trkpt lat="45.98695" lon="4.55913">
        <ele>620</ele>
        <time>2016-11-05T21:33:23Z</time>
      </trkpt>
      <trkpt lat="45.98703" lon="4.55924">
        <ele>622</ele>
        <time>2016-11-05T21:35:23Z</time>
      </trkpt>
      <trkpt lat="45.98713" lon="4.55934">
        <ele>624</ele>
        <time>2016-11-05T21:37:23Z</time>
      </trkpt>
      <trkpt lat="45.98725" lon="4.55947">
        <ele>625</ele>
        <time>2016-11-05T21:39:23Z</time>
      </trkpt>
      <trkpt lat="45.98748" lon="4.55976">
        <ele>629</ele>
        <time>2016-11-05T21:41:23Z</time>
      </trkpt>
      <trkpt lat="45.98761" lon="4.55997">
        <ele>630</ele>
        <time>2016-11-05T21:43:23Z</time>
      </trkpt>
      <trkpt lat="45.98766" lon="4.56006">
        <ele>631</ele>
        <time>2016-11-05T21:45:23Z</time>
      </trkpt>
      <trkpt lat="45.98775" lon="4.56018">
        <ele>632</ele>
        <time>2016-11-05T21:47:23Z</time>
      </trkpt>
      <trkpt lat="45.98793" lon="4.56039">
        <ele>634</ele>
        <time>2016-11-05T21:49:23Z</time>
      </trkpt>
      <trkpt lat="45.98801" lon="4.56048">
        <ele>634</ele>
        <time>2016-11-05T21:51:23Z</time>
      </trkpt>
      <trkpt lat="45.98811" lon="4.56061">
        <ele>635</ele>
        <time>2016-11-05T21:53:23Z</time>
      </trkpt>
      <trkpt lat="45.9882" lon="4.56074">
        <ele>636</ele>
        <time>2016-11-05T21:55:23Z</time>
      </trkpt>
      <trkpt lat="45.98828" lon="4.56087">
        <ele>637</ele>
        <time>2016-11-05T21:57:23Z</time>
      </trkpt>
      <trkpt lat="45.98838" lon="4.56098">
        <ele>639</ele>
        <time>2016-11-05T21:59:23Z</time>
      </trkpt>
      <trkpt lat="45.9885" lon="4.56114">
        <ele>643</ele>
        <time>2016-11-05T22:01:23Z</time>
      </trkpt>
      <trkpt lat="45.98858" lon="4.56121">
        <ele>644</ele>
        <time>2016-11-05T22:03:23Z</time>
      </trkpt>
      <trkpt lat="45.98868" lon="4.56132">
        <ele>647</ele>
        <time>2016-11-05T22:05:23Z</time>
      </trkpt>
      <trkpt lat="45.98878" lon="4.56145">
        <ele>650</ele>
        <time>2016-11-05T22:07:23Z</time>
      </trkpt>
      <trkpt lat="45.98884" lon="4.5615">
        <ele>651</ele>
        <time>2016-11-05T22:09:23Z</time>
      </trkpt>
      <trkpt lat="45.98887" lon="4.56152">
        <ele>651</ele>
        <time>2016-11-05T22:11:23Z</time>
      </trkpt>
      <trkpt lat="45.98889" lon="4.56154">
        <ele>651</ele>
        <time>2016-11-05T22:13:23Z</time>
      </trkpt>
      <trkpt lat="45.98894" lon="4.56154">
        <ele>651</ele>
        <time>2016-11-05T22:15:23Z</time>
      </trkpt>
      <trkpt lat="45.98898" lon="4.56153">
        <ele>651</ele>
        <time>2016-11-05T22:17:23Z</time>
      </trkpt>
      <trkpt lat="45.98902" lon="4.56152">
        <ele>651</ele>
        <time>2016-11-05T22:19:23Z</time>
      </trkpt>
      <trkpt lat="45.98905" lon="4.5615">
        <ele>650</ele>
        <time>2016-11-05T22:21:23Z</time>
      </trkpt>
      <trkpt lat="45.9891" lon="4.56146">
        <ele>650</ele>
        <time>2016-11-05T22:23:23Z</time>
      </trkpt>
      <trkpt lat="45.9892" lon="4.56131">
        <ele>648</ele>
        <time>2016-11-05T22:25:23Z</time>
      </trkpt>
      <trkpt lat="45.98922" lon="4.56129">
        <ele>648</ele>
        <time>2016-11-05T22:27:23Z</time>
      </trkpt>
      <trkpt lat="45.98925" lon="4.56124">
        <ele>648</ele>
        <time>2016-11-05T22:29:23Z</time>
      </trkpt>
      <trkpt lat="45.98928" lon="4.56122">
        <ele>648</ele>
        <time>2016-11-05T22:31:23Z</time>
      </trkpt>
      <trkpt lat="45.98931" lon="4.56119">
        <ele>648</ele>
        <time>2016-11-05T22:33:23Z</time>
      </trkpt>
      <trkpt lat="45.98936" lon="4.56117">
        <ele>649</ele>
        <time>2016-11-05T22:35:23Z</time>
      </trkpt>
      <trkpt lat="45.98941" lon="4.56117">
        <ele>650</ele>
        <time>2016-11-05T22:37:23Z</time>
      </trkpt>
      <trkpt lat="45.98951" lon="4.56118">
        <ele>652</ele>
        <time>2016-11-05T22:39:23Z</time>
      </trkpt>
      <trkpt lat="45.98956" lon="4.56118">
        <ele>654</ele>
        <time>2016-11-05T22:41:23Z</time>
      </trkpt>
      <trkpt lat="45.98957" lon="4.56118">
        <ele>654</ele>
        <time>2016-11-05T22:43:23Z</time>
      </trkpt>
      <trkpt lat="45.98968" lon="4.56117">
        <ele>656</ele>
        <time>2016-11-05T22:45:23Z</time>
      </trkpt>
      <trkpt lat="45.98998" lon="4.56111">
        <ele>662</ele>
        <time>2016-11-05T22:47:23Z</time>
      </trkpt>
      <trkpt lat="45.99011" lon="4.56107">
        <ele>664</ele>
        <time>2016-11-05T22:49:23Z</time>
      </trkpt>
      <trkpt lat="45.99025" lon="4.56101">
        <ele>666</ele>
        <time>2016-11-05T22:51:23Z</time>
      </trkpt>
      <trkpt lat="45.99029" lon="4.56101">
        <ele>666</ele>
        <time>2016-11-05T22:53:23Z</time>
      </trkpt>
      <trkpt lat="45.99032" lon="4.56102">
        <ele>667</ele>
        <time>2016-11-05T22:55:23Z</time>
      </trkpt>
      <trkpt lat="45.99039" lon="4.56104">
        <ele>669</ele>
        <time>2016-11-05T22:57:23Z</time>
      </trkpt>
      <trkpt lat="45.99043" lon="4.56103">
        <ele>670</ele>
        <time>2016-11-05T22:59:23Z</time>
      </trkpt>
      <trkpt lat="45.99048" lon="4.561">
        <ele>670</ele>
        <time>2016-11-05T23:01:23Z</time>
      </trkpt>
      <trkpt lat="45.99052" lon="4.56096">
        <ele>671</ele>
        <time>2016-11-05T23:03:23Z</time>
      </trkpt>
      <trkpt lat="45.99058" lon="4.56087">
        <ele>670</ele>
        <time>2016-11-05T23:05:23Z</time>
      </trkpt>
      <trkpt lat="45.99064" lon="4.56077">
        <ele>670</ele>
        <time>2016-11-05T23:07:23Z</time>
      </trkpt>
      <trkpt lat="45.99079" lon="4.56061">
        <ele>672</ele>
        <time>2016-11-05T23:09:23Z</time>
      </trkpt>
      <trkpt lat="45.9909" lon="4.56049">
        <ele>674</ele>
        <time>2016-11-05T23:11:23Z</time>
      </trkpt>
      <trkpt lat="45.99099" lon="4.56034">
        <ele>676</ele>
        <time>2016-11-05T23:13:23Z</time>
      </trkpt>
      <trkpt lat="45.99103" lon="4.56015">
        <ele>675</ele>
        <time>2016-11-05T23:15:23Z</time>
      </trkpt>
      <trkpt lat="45.99103" lon="4.55993">
        <ele>674</ele>
        <time>2016-11-05T23:17:23Z</time>
      </trkpt>
      <trkpt lat="45.99103" lon="4.55986">
        <ele>674</ele>
        <time>2016-11-05T23:19:23Z</time>
      </trkpt>
      <trkpt lat="45.991" lon="4.55964">
        <ele>673</ele>
        <time>2016-11-05T23:21:23Z</time>
      </trkpt>
      <trkpt lat="45.99099" lon="4.55957">
        <ele>673</ele>
        <time>2016-11-05T23:23:23Z</time>
      </trkpt>
      <trkpt lat="45.99099" lon="4.55957">
        <ele>673</ele>
        <time>2016-11-05T23:25:23Z</time>
      </trkpt>
      <trkpt lat="45.99099" lon="4.55951">
        <ele>673</ele>
        <time>2016-11-05T23:27:23Z</time>
      </trkpt>
      <trkpt lat="45.991" lon="4.55945">
        <ele>673</ele>
        <time>2016-11-05T23:29:23Z</time>
      </trkpt>
      <trkpt lat="45.99102" lon="4.55936">
        <ele>673</ele>
        <time>2016-11-05T23:31:23Z</time>
      </trkpt>
      <trkpt lat="45.99103" lon="4.55933">
        <ele>673</ele>
        <time>2016-11-05T23:33:23Z</time>
      </trkpt>
      <trkpt lat="45.99104" lon="4.55929">
        <ele>673</ele>
        <time>2016-11-05T23:35:23Z</time>
      </trkpt>
      <trkpt lat="45.99107" lon="4.55926">
        <ele>674</ele>
        <time>2016-11-05T23:37:23Z</time>
      </trkpt>
      <trkpt lat="45.99109" lon="4.55925">
        <ele>674</ele>
        <time>2016-11-05T23:39:23Z</time>
      </trkpt>
      <trkpt lat="45.9911" lon="4.55925">
        <ele>674</ele>
        <time>2016-11-05T23:41:23Z</time>
      </trkpt>
      <trkpt lat="45.99111" lon="4.55925">
        <ele>674</ele>
        <time>2016-11-05T23:43:23Z</time>
      </trkpt>
      <trkpt lat="45.99112" lon="4.55926">
        <ele>674</ele>
        <time>2016-11-05T23:45:23Z</time>
      </trkpt>
      <trkpt lat="45.99113" lon="4.55927">
        <ele>674</ele>
        <time>2016-11-05T23:47:23Z</time>
      </trkpt>
      <trkpt lat="45.99114" lon="4.55928">
        <ele>674</ele>
        <time>2016-11-05T23:49:23Z</time>
      </trkpt>
      <trkpt lat="45.99117" lon="4.55933">
        <ele>675</ele>
        <time>2016-11-05T23:51:23Z</time>
      </trkpt>
      <trkpt lat="45.99117" lon="4.55933">
        <ele>675</ele>
        <time>2016-11-05T23:53:23Z</time>
      </trkpt>
      <trkpt lat="45.9912" lon="4.55928">
        <ele>675</ele>
        <time>2016-11-05T23:55:23Z</time>
      </trkpt>
      <trkpt lat="45.99123" lon="4.55925">
        <ele>675</ele>
        <time>2016-11-05T23:57:23Z</time>
      </trkpt>
      <trkpt lat="45.99123" lon="4.55925">
        <ele>675</ele>
        <time>2016-11-05T23:59:23Z</time>
      </trkpt>
      <trkpt lat="45.99127" lon="4.55922">
        <ele>675</ele>
        <time>2016-11-06T00:01:23Z</time>
      </trkpt>
      <trkpt lat="45.99133" lon="4.55919">
        <ele>675</ele>
        <time>2016-11-06T00:03:23Z</time>
      </trkpt>
      <trkpt lat="45.99146" lon="4.55919">
        <ele>676</ele>
        <time>2016-11-06T00:05:23Z</time>
      </trkpt>
      <trkpt lat="45.99157" lon="4.55922">
        <ele>677</ele>
        <time>2016-11-06T00:07:23Z</time>
      </trkpt>
      <trkpt lat="45.99175" lon="4.55927">
        <ele>678</ele>
        <time>2016-11-06T00:09:23Z</time>
      </trkpt>
      <trkpt lat="45.9919" lon="4.55934">
        <ele>678</ele>
        <time>2016-11-06T00:11:23Z</time>
      </trkpt>
      <trkpt lat="45.9919" lon="4.55934">
        <ele>678</ele>
        <time>2016-11-06T00:13:23Z</time>
      </trkpt>
      <trkpt lat="45.99191" lon="4.55932">
        <ele>678</ele>
        <time>2016-11-06T00:15:23Z</time>
      </trkpt>
      <trkpt lat="45.99194" lon="4.5593">
        <ele>677</ele>
        <time>2016-11-06T00:17:23Z</time>
      </trkpt>
      <trkpt lat="45.99196" lon="4.5593">
        <ele>677</ele>
        <time>2016-11-06T00:19:23Z</time>
      </trkpt>
      <trkpt lat="45.99197" lon="4.55929">
        <ele>677</ele>
        <time>2016-11-06T00:21:23Z</time>
      </trkpt>
      <trkpt lat="45.99199" lon="4.5593">
        <ele>677</ele>
        <time>2016-11-06T00:23:23Z</time>
      </trkpt>
      <trkpt lat="45.9921" lon="4.55932">
        <ele>677</ele>
        <time>2016-11-06T00:25:23Z</time>
      </trkpt>
      <trkpt lat="45.99233" lon="4.55938">
        <ele>677</ele>
        <time>2016-11-06T00:27:23Z</time>
      </trkpt>
      <trkpt lat="45.99236" lon="4.5594">
        <ele>677</ele>
        <time>2016-11-06T00:29:23Z</time>
      </trkpt>
      <trkpt lat="45.99236" lon="4.5594">
        <ele>677</ele>
        <time>2016-11-06T00:31:23Z</time>
      </trkpt>
      <trkpt lat="45.99247" lon="4.55938">
        <ele>676</ele>
        <time>2016-11-06T00:33:23Z</time>
      </trkpt>
      <trkpt lat="45.99254" lon="4.55938">
        <ele>676</ele>
        <time>2016-11-06T00:35:23Z</time>
      </trkpt>
      <trkpt lat="45.99266" lon="4.55936">
        <ele>677</ele>
        <time>2016-11-06T00:37:23Z</time>
      </trkpt>
      <trkpt lat="45.9928" lon="4.55932">
        <ele>677</ele>
        <time>2016-11-06T00:39:23Z</time>
      </trkpt>
      <trkpt lat="45.99311" lon="4.55928">
        <ele>679</ele>
        <time>2016-11-06T00:41:23Z</time>
      </trkpt>
      <trkpt lat="45.99324" lon="4.55925">
        <ele>679</ele>
        <time>2016-11-06T00:43:23Z</time>
      </trkpt>
      <trkpt lat="45.9933" lon="4.55922">
        <ele>679</ele>
        <time>2016-11-06T00:45:23Z</time>
      </trkpt>
      <trkpt lat="45.99333" lon="4.55919">
        <ele>679</ele>
        <time>2016-11-06T00:47:23Z</time>
      </trkpt>
      <trkpt lat="45.99333" lon="4.55911">
        <ele>679</ele>
        <time>2016-11-06T00:49:23Z</time>
      </trkpt>
      <trkpt lat="45.99333" lon="4.55902">
        <ele>678</ele>
        <time>2016-11-06T00:51:23Z</time>
      </trkpt>
      <trkpt lat="45.99331" lon="4.55889">
        <ele>677</ele>
        <time>2016-11-06T00:53:23Z</time>
      </trkpt>
      <trkpt lat="45.99328" lon="4.55879">
        <ele>676</ele>
        <time>2016-11-06T00:55:23Z</time>
      </trkpt>
      <trkpt lat="45.99323" lon="4.55867">
        <ele>674</ele>
        <time>2016-11-06T00:57:23Z</time>
      </trkpt>
      <trkpt lat="45.9932" lon="4.55856">
        <ele>673</ele>
        <time>2016-11-06T00:59:23Z</time>
      </trkpt>
      <trkpt lat="45.99316" lon="4.55829">
        <ele>669</ele>
        <time>2016-11-06T01:01:23Z</time>
      </trkpt>
      <trkpt lat="45.99315" lon="4.55809">
        <ele>667</ele>
        <time>2016-11-06T01:03:23Z</time>
      </trkpt>
      <trkpt lat="45.99316" lon="4.55796">
        <ele>665</ele>
        <time>2016-11-06T01:05:23Z</time>
      </trkpt>
      <trkpt lat="45.99319" lon="4.55787">
        <ele>665</ele>
        <time>2016-11-06T01:07:23Z</time>
      </trkpt>
      <trkpt lat="45.99324" lon="4.55777">
        <ele>665</ele>
        <time>2016-11-06T01:09:23Z</time>
      </trkpt>
      <trkpt lat="45.9933" lon="4.55771">
        <ele>666</ele>
        <time>2016-11-06T01:11:23Z</time>
      </trkpt>
      <trkpt lat="45.9934" lon="4.55766">
        <ele>666</ele>
        <time>2016-11-06T01:13:23Z</time>
      </trkpt>
      <trkpt lat="45.99346" lon="4.55761">
        <ele>666</ele>
        <time>2016-11-06T01:15:23Z</time>
      </trkpt>
      <trkpt lat="45.99367" lon="4.55752">
        <ele>666</ele>
        <time>2016-11-06T01:17:23Z</time>
      </trkpt>
      <trkpt lat="45.99391" lon="4.55745">
        <ele>666</ele>
        <time>2016-11-06T01:19:23Z</time>
      </trkpt>
      <trkpt lat="45.99412" lon="4.55743">
        <ele>667</ele>
        <time>2016-11-06T01:21:23Z</time>
      </trkpt>
      <trkpt lat="45.99433" lon="4.55744">
        <ele>671</ele>
        <time>2016-11-06T01:23:23Z</time>
      </trkpt>
      <trkpt lat="45.99448" lon="4.55747">
        <ele>675</ele>
        <time>2016-11-06T01:25:23Z</time>
      </trkpt>
      <trkpt lat="45.99453" lon="4.55747">
        <ele>676</ele>
        <time>2016-11-06T01:27:23Z</time>
      </trkpt>
      <trkpt lat="45.99457" lon="4.55746">
        <ele>676</ele>
        <time>2016-11-06T01:29:23Z</time>
      </trkpt>
      <trkpt lat="45.9946" lon="4.55743">
        <ele>676</ele>
        <time>2016-11-06T01:31:23Z</time>
      </trkpt>
      <trkpt lat="45.99461" lon="4.5574">
        <ele>676</ele>
        <time>2016-11-06T01:33:23Z</time>
      </trkpt>
      <trkpt lat="45.99462" lon="4.55738">
        <ele>676</ele>
        <time>2016-11-06T01:35:23Z</time>
      </trkpt>
      <trkpt lat="45.99463" lon="4.55731">
        <ele>676</ele>
        <time>2016-11-06T01:37:23Z</time>
      </trkpt>
      <trkpt lat="45.9946" lon="4.5567">
        <ele>667</ele>
        <time>2016-11-06T01:39:23Z</time>
      </trkpt>
      <trkpt lat="45.99456" lon="4.55634">
        <ele>662</ele>
        <time>2016-11-06T01:41:23Z</time>
      </trkpt>
      <trkpt lat="45.99454" lon="4.55625">
        <ele>661</ele>
        <time>2016-11-06T01:43:23Z</time>
      </trkpt>
      <trkpt lat="45.9945" lon="4.55603">
        <ele>657</ele>
        <time>2016-11-06T01:45:23Z</time>
      </trkpt>
      <trkpt lat="45.9945" lon="4.55593">
        <ele>656</ele>
        <time>2016-11-06T01:47:23Z</time>
      </trkpt>
      <trkpt lat="45.99455" lon="4.55562">
        <ele>655</ele>
        <time>2016-11-06T01:49:23Z</time>
      </trkpt>
      <trkpt lat="45.99464" lon="4.55528">
        <ele>656</ele>
        <time>2016-11-06T01:51:23Z</time>
      </trkpt>
      <trkpt lat="45.99468" lon="4.55513">
        <ele>656</ele>
        <time>2016-11-06T01:53:23Z</time>
      </trkpt>
      <trkpt lat="45.99479" lon="4.55463">
        <ele>654</ele>
        <time>2016-11-06T01:55:23Z</time>
      </trkpt>
      <trkpt lat="45.99482" lon="4.55446">
        <ele>654</ele>
        <time>2016-11-06T01:57:23Z</time>
      </trkpt>
      <trkpt lat="45.99495" lon="4.55389">
        <ele>650</ele>
        <time>2016-11-06T01:59:23Z</time>
      </trkpt>
      <trkpt lat="45.99497" lon="4.5538">
        <ele>649</ele>
        <time>2016-11-06T02:01:23Z</time>
      </trkpt>
      <trkpt lat="45.99501" lon="4.55369">
        <ele>649</ele>
        <time>2016-11-06T02:03:23Z</time>
      </trkpt>
      <trkpt lat="45.99507" lon="4.55359">
        <ele>648</ele>
        <time>2016-11-06T02:05:23Z</time>
      </trkpt>
      <trkpt lat="45.99516" lon="4.55346">
        <ele>647</ele>
        <time>2016-11-06T02:07:23Z</time>
      </trkpt>
      <trkpt lat="45.9954" lon="4.55325">
        <ele>647</ele>
        <time>2016-11-06T02:09:23Z</time>
      </trkpt>
      <trkpt lat="45.99551" lon="4.55318">
        <ele>647</ele>
        <time>2016-11-06T02:11:23Z</time>
      </trkpt>
      <trkpt lat="45.99569" lon="4.55312">
        <ele>648</ele>
        <time>2016-11-06T02:13:23Z</time>
      </trkpt>
      <trkpt lat="45.99574" lon="4.55312">
        <ele>649</ele>
        <time>2016-11-06T02:15:23Z</time>
      </trkpt>
      <trkpt lat="45.99591" lon="4.55311">
        <ele>651</ele>
        <time>2016-11-06T02:17:23Z</time>
      </trkpt>
      <trkpt lat="45.99597" lon="4.55312">
        <ele>652</ele>
        <time>2016-11-06T02:19:23Z</time>
      </trkpt>
      <trkpt lat="45.99609" lon="4.55316">
        <ele>655</ele>
        <time>2016-11-06T02:21:23Z</time>
      </trkpt>
      <trkpt lat="45.99618" lon="4.55318">
        <ele>657</ele>
        <time>2016-11-06T02:23:23Z</time>
      </trkpt>
      <trkpt lat="45.99629" lon="4.55324">
        <ele>661</ele>
        <time>2016-11-06T02:25:23Z</time>
      </trkpt>
      <trkpt lat="45.99634" lon="4.55324">
        <ele>661</ele>
        <time>2016-11-06T02:27:23Z</time>
      </trkpt>
      <trkpt lat="45.99639" lon="4.5532">
        <ele>661</ele>
        <time>2016-11-06T02:29:23Z</time>
      </trkpt>
      <trkpt lat="45.99646" lon="4.5531">
        <ele>660</ele>
        <time>2016-11-06T02:31:23Z</time>
      </trkpt>
      <trkpt lat="45.99666" lon="4.55276">
        <ele>656</ele>
        <time>2016-11-06T02:33:23Z</time>
      </trkpt>
      <trkpt lat="45.99672" lon="4.55269">
        <ele>657</ele>
        <time>2016-11-06T02:35:23Z</time>
      </trkpt>
      <trkpt lat="45.99674" lon="4.55267">
        <ele>657</ele>
        <time>2016-11-06T02:37:23Z</time>
      </trkpt>
      <trkpt lat="45.99686" lon="4.55254">
        <ele>658</ele>
        <time>2016-11-06T02:39:23Z</time>
      </trkpt>
      <trkpt lat="45.99698" lon="4.55237">
        <ele>658</ele>
        <time>2016-11-06T02:41:23Z</time>
      </trkpt>
      <trkpt lat="45.99708" lon="4.55222">
        <ele>658</ele>
        <time>2016-11-06T02:43:23Z</time>
      </trkpt>
      <trkpt lat="45.99716" lon="4.55212">
        <ele>659</ele>
        <time>2016-11-06T02:45:23Z</time>
      </trkpt>
      <trkpt lat="45.99728" lon="4.552">
        <ele>660</ele>
        <time>2016-11-06T02:47:23Z</time>
      </trkpt>
      <trkpt lat="45.99731" lon="4.55195">
        <ele>660</ele>
        <time>2016-11-06T02:49:23Z</time>
      </trkpt>
      <trkpt lat="45.99738" lon="4.55178">
        <ele>660</ele>
        <time>2016-11-06T02:51:23Z</time>
      </trkpt>
      <trkpt lat="45.99748" lon="4.5516">
        <ele>660</ele>
        <time>2016-11-06T02:53:23Z</time>
      </trkpt>
      <trkpt lat="45.99752" lon="4.55152">
        <ele>660</ele>
        <time>2016-11-06T02:55:23Z</time>
      </trkpt>
      <trkpt lat="45.99765" lon="4.55119">
        <ele>660</ele>
        <time>2016-11-06T02:57:23Z</time>
      </trkpt>
      <trkpt lat="45.99769" lon="4.55102">
        <ele>659</ele>
        <time>2016-11-06T02:59:23Z</time>
      </trkpt>
      <trkpt lat="45.9977" lon="4.55089">
        <ele>657</ele>
        <time>2016-11-06T03:01:23Z</time>
      </trkpt>
      <trkpt lat="45.99771" lon="4.55082">
        <ele>657</ele>
        <time>2016-11-06T03:03:23Z</time>
      </trkpt>
      <trkpt lat="45.99773" lon="4.55068">
        <ele>659</ele>
        <time>2016-11-06T03:05:23Z</time>
      </trkpt>
      <trkpt lat="45.99777" lon="4.55031">
        <ele>662</ele>
        <time>2016-11-06T03:07:23Z</time>
      </trkpt>
      <trkpt lat="45.99778" lon="4.54995">
        <ele>665</ele>
        <time>2016-11-06T03:09:23Z</time>
      </trkpt>
      <trkpt lat="45.99783" lon="4.54926">
        <ele>673</ele>
        <time>2016-11-06T03:11:23Z</time>
      </trkpt>
      <trkpt lat="45.99786" lon="4.54912">
        <ele>675</ele>
        <time>2016-11-06T03:13:23Z</time>
      </trkpt>
      <trkpt lat="45.99788" lon="4.54908">
        <ele>675</ele>
        <time>2016-11-06T03:15:23Z</time>
      </trkpt>
      <trkpt lat="45.99792" lon="4.54899">
        <ele>677</ele>
        <time>2016-11-06T03:17:23Z</time>
      </trkpt>
      <trkpt lat="45.99796" lon="4.54892">
        <ele>678</ele>
        <time>2016-11-06T03:19:23Z</time>
      </trkpt>
      <trkpt lat="45.99801" lon="4.54877">
        <ele>679</ele>
        <time>2016-11-06T03:21:23Z</time>
      </trkpt>
      <trkpt lat="45.99802" lon="4.54862">
        <ele>680</ele>
        <time>2016-11-06T03:23:23Z</time>
      </trkpt>
      <trkpt lat="45.99805" lon="4.54844">
        <ele>681</ele>
        <time>2016-11-06T03:25:23Z</time>
      </trkpt>
      <trkpt lat="45.99809" lon="4.54803">
        <ele>683</ele>
        <time>2016-11-06T03:27:23Z</time>
      </trkpt>
      <trkpt lat="45.99815" lon="4.54786">
        <ele>684</ele>
        <time>2016-11-06T03:29:23Z</time>
      </trkpt>
      <trkpt lat="45.99818" lon="4.54775">
        <ele>685</ele>
        <time>2016-11-06T03:31:23Z</time>
      </trkpt>
      <trkpt lat="45.9982" lon="4.54761">
        <ele>686</ele>
        <time>2016-11-06T03:33:23Z</time>
      </trkpt>
      <trkpt lat="45.99823" lon="4.54748">
        <ele>687</ele>
        <time>2016-11-06T03:35:23Z</time>
      </trkpt>
      <trkpt lat="45.9983" lon="4.54714">
        <ele>689</ele>
        <time>2016-11-06T03:37:23Z</time>
      </trkpt>
      <trkpt lat="45.99832" lon="4.54694">
        <ele>690</ele>
        <time>2016-11-06T03:39:23Z</time>
      </trkpt>
      <trkpt lat="45.99839" lon="4.54623">
        <ele>694</ele>
        <time>2016-11-06T03:41:23Z</time>
      </trkpt>
      <trkpt lat="45.99841" lon="4.54609">
        <ele>695</ele>
        <time>2016-11-06T03:43:23Z</time>
      </trkpt>
      <trkpt lat="45.99842" lon="4.54601">
        <ele>695</ele>
        <time>2016-11-06T03:45:23Z</time>
      </trkpt>
      <trkpt lat="45.99845" lon="4.54594">
        <ele>696</ele>
        <time>2016-11-06T03:47:23Z</time>
      </trkpt>
      <trkpt lat="45.99851" lon="4.54587">
        <ele>697</ele>
        <time>2016-11-06T03:49:23Z</time>
      </trkpt>
      <trkpt lat="45.99862" lon="4.54574">
        <ele>697</ele>
        <time>2016-11-06T03:51:23Z</time>
      </trkpt>
      <trkpt lat="45.99869" lon="4.54562">
        <ele>698</ele>
        <time>2016-11-06T03:53:23Z</time>
      </trkpt>
      <trkpt lat="45.99882" lon="4.54545">
        <ele>697</ele>
        <time>2016-11-06T03:55:23Z</time>
      </trkpt>
      <trkpt lat="45.99897" lon="4.54532">
        <ele>694</ele>
        <time>2016-11-06T03:57:23Z</time>
      </trkpt>
      <trkpt lat="45.99912" lon="4.54522">
        <ele>691</ele>
        <time>2016-11-06T03:59:23Z</time>
      </trkpt>
      <trkpt lat="45.99919" lon="4.54517">
        <ele>689</ele>
        <time>2016-11-06T04:01:23Z</time>
      </trkpt>
      <trkpt lat="45.99927" lon="4.54514">
        <ele>689</ele>
        <time>2016-11-06T04:03:23Z</time>
      </trkpt>
      <trkpt lat="45.9993" lon="4.54514">
        <ele>689</ele>
        <time>2016-11-06T04:05:23Z</time>
      </trkpt>
      <trkpt lat="45.99937" lon="4.54514">
        <ele>688</ele>
        <time>2016-11-06T04:07:23Z</time>
      </trkpt>
      <trkpt lat="45.99946" lon="4.54519">
        <ele>689</ele>
        <time>2016-11-06T04:09:23Z</time>
      </trkpt>
      <trkpt lat="45.9995" lon="4.5452">
        <ele>689</ele>
        <time>2016-11-06T04:11:23Z</time>
      </trkpt>
      <trkpt lat="45.9996" lon="4.54517">
        <ele>688</ele>
        <time>2016-11-06T04:13:23Z</time>
      </trkpt>
      <trkpt lat="45.99967" lon="4.54511">
        <ele>687</ele>
        <time>2016-11-06T04:15:23Z</time>
      </trkpt>
      <trkpt lat="45.99989" lon="4.5449">
        <ele>680</ele>
        <time>2016-11-06T04:17:23Z</time>
      </trkpt>
      <trkpt lat="46.00022" lon="4.54468">
        <ele>674</ele>
        <time>2016-11-06T04:19:23Z</time>
      </trkpt>
      <trkpt lat="46.00031" lon="4.54461">
        <ele>672</ele>
        <time>2016-11-06T04:21:23Z</time>
      </trkpt>
      <trkpt lat="46.00052" lon="4.54449">
        <ele>670</ele>
        <time>2016-11-06T04:23:23Z</time>
      </trkpt>
      <trkpt lat="46.00087" lon="4.54425">
        <ele>666</ele>
        <time>2016-11-06T04:25:23Z</time>
      </trkpt>
      <trkpt lat="46.00097" lon="4.54419">
        <ele>667</ele>
        <time>2016-11-06T04:27:23Z</time>
      </trkpt>
      <trkpt lat="46.00101" lon="4.54416">
        <ele>668</ele>
        <time>2016-11-06T04:29:23Z</time>
      </trkpt>
      <trkpt lat="46.00106" lon="4.54411">
        <ele>668</ele>
        <time>2016-11-06T04:31:23Z</time>
      </trkpt>
      <trkpt lat="46.00109" lon="4.54407">
        <ele>668</ele>
        <time>2016-11-06T04:33:23Z</time>
      </trkpt>
      <trkpt lat="46.00115" lon="4.54386">
        <ele>665</ele>
        <time>2016-11-06T04:35:23Z</time>
      </trkpt>
      <trkpt lat="46.0012" lon="4.54357">
        <ele>660</ele>
        <time>2016-11-06T04:37:23Z</time>
      </trkpt>
      <trkpt lat="46.00121" lon="4.54307">
        <ele>650</ele>
        <time>2016-11-06T04:39:23Z</time>
      </trkpt>
      <trkpt lat="46.00126" lon="4.54278">
        <ele>646</ele>
        <time>2016-11-06T04:41:23Z</time>
      </trkpt>
      <trkpt lat="46.00132" lon="4.54264">
        <ele>645</ele>
        <time>2016-11-06T04:43:23Z</time>
      </trkpt>
      <trkpt lat="46.00169" lon="4.54187">
        <ele>640</ele>
        <time>2016-11-06T04:45:23Z</time>
      </trkpt>
      <trkpt lat="46.00178" lon="4.54164">
        <ele>638</ele>
        <time>2016-11-06T04:47:23Z</time>
      </trkpt>
      <trkpt lat="46.00183" lon="4.54155">
        <ele>637</ele>
        <time>2016-11-06T04:49:23Z</time>
      </trkpt>
      <trkpt lat="46.0019" lon="4.54132">
        <ele>632</ele>
        <time>2016-11-06T04:51:23Z</time>
      </trkpt>
      <trkpt lat="46.0019" lon="4.54132">
        <ele>632</ele>
        <time>2016-11-06T04:53:23Z</time>
      </trkpt>
      <trkpt lat="46.00168" lon="4.5415">
        <ele>631</ele>
        <time>2016-11-06T04:55:23Z</time>
      </trkpt>
      <trkpt lat="46.00147" lon="4.54171">
        <ele>630</ele>
        <time>2016-11-06T04:57:23Z</time>
      </trkpt>
      <trkpt lat="46.00138" lon="4.54178">
        <ele>629</ele>
        <time>2016-11-06T04:59:23Z</time>
      </trkpt>
      <trkpt lat="46.00127" lon="4.54186">
        <ele>627</ele>
        <time>2016-11-06T05:01:23Z</time>
      </trkpt>
      <trkpt lat="46.00121" lon="4.54187">
        <ele>625</ele>
        <time>2016-11-06T05:03:23Z</time>
      </trkpt>
      <trkpt lat="46.00117" lon="4.54186">
        <ele>624</ele>
        <time>2016-11-06T05:05:23Z</time>
      </trkpt>
      <trkpt lat="46.00097" lon="4.54198">
        <ele>620</ele>
        <time>2016-11-06T05:07:23Z</time>
      </trkpt>
      <trkpt lat="46.00077" lon="4.54218">
        <ele>619</ele>
        <time>2016-11-06T05:09:23Z</time>
      </trkpt>
      <trkpt lat="46.00059" lon="4.54239">
        <ele>624</ele>
        <time>2016-11-06T05:11:23Z</time>
      </trkpt>
      <trkpt lat="46.00047" lon="4.54256">
        <ele>627</ele>
        <time>2016-11-06T05:13:23Z</time>
      </trkpt>
      <trkpt lat="46.00039" lon="4.54265">
        <ele>628</ele>
        <time>2016-11-06T05:15:23Z</time>
      </trkpt>
      <trkpt lat="46.00036" lon="4.54267">
        <ele>629</ele>
        <time>2016-11-06T05:17:23Z</time>
      </trkpt>
      <trkpt lat="46.00022" lon="4.5427">
        <ele>630</ele>
        <time>2016-11-06T05:19:23Z</time>
      </trkpt>
      <trkpt lat="46.00013" lon="4.54264">
        <ele>629</ele>
        <time>2016-11-06T05:21:23Z</time>
      </trkpt>
      <trkpt lat="46.00003" lon="4.54249">
        <ele>627</ele>
        <time>2016-11-06T05:23:23Z</time>
      </trkpt>
      <trkpt lat="46.00001" lon="4.54242">
        <ele>626</ele>
        <time>2016-11-06T05:25:23Z</time>
      </trkpt>
      <trkpt lat="45.99996" lon="4.54222">
        <ele>625</ele>
        <time>2016-11-06T05:27:23Z</time>
      </trkpt>
      <trkpt lat="45.99981" lon="4.54152">
        <ele>620</ele>
        <time>2016-11-06T05:29:23Z</time>
      </trkpt>
      <trkpt lat="45.99974" lon="4.54125">
        <ele>619</ele>
        <time>2016-11-06T05:31:23Z</time>
      </trkpt>
      <trkpt lat="45.99959" lon="4.54076">
        <ele>615</ele>
        <time>2016-11-06T05:33:23Z</time>
      </trkpt>
      <trkpt lat="45.99948" lon="4.54062">
        <ele>616</ele>
        <time>2016-11-06T05:35:23Z</time>
      </trkpt>
      <trkpt lat="45.99942" lon="4.54047">
        <ele>615</ele>
        <time>2016-11-06T05:37:23Z</time>
      </trkpt>
      <trkpt lat="45.99927" lon="4.54027">
        <ele>613</ele>
        <time>2016-11-06T05:39:23Z</time>
      </trkpt>
      <trkpt lat="45.99899" lon="4.53994">
        <ele>607</ele>
        <time>2016-11-06T05:41:23Z</time>
      </trkpt>
      <trkpt lat="45.9988" lon="4.5398">
        <ele>604</ele>
        <time>2016-11-06T05:43:23Z</time>
      </trkpt>
      <trkpt lat="45.99861" lon="4.53961">
        <ele>600</ele>
        <time>2016-11-06T05:45:23Z</time>
      </trkpt>
      <trkpt lat="45.9984" lon="4.53936">
        <ele>594</ele>
        <time>2016-11-06T05:47:23Z</time>
      </trkpt>
      <trkpt lat="45.99826" lon="4.53915">
        <ele>588</ele>
        <time>2016-11-06T05:49:23Z</time>
      </trkpt>
      <trkpt lat="45.99818" lon="4.53904">
        <ele>583</ele>
        <time>2016-11-06T05:51:23Z</time>
      </trkpt>
      <trkpt lat="45.99818" lon="4.53904">
        <ele>583</ele>
        <time>2016-11-06T05:53:23Z</time>
      </trkpt>
      <trkpt lat="45.99789" lon="4.53919">
        <ele>579</ele>
        <time>2016-11-06T05:55:23Z</time>
      </trkpt>
      <trkpt lat="45.99778" lon="4.53931">
        <ele>580</ele>
        <time>2016-11-06T05:57:23Z</time>
      </trkpt>
      <trkpt lat="45.99769" lon="4.53945">
        <ele>581</ele>
        <time>2016-11-06T05:59:23Z</time>
      </trkpt>
      <trkpt lat="45.99761" lon="4.53961">
        <ele>583</ele>
        <time>2016-11-06T06:01:23Z</time>
      </trkpt>
      <trkpt lat="45.99755" lon="4.53974">
        <ele>585</ele>
        <time>2016-11-06T06:03:23Z</time>
      </trkpt>
      <trkpt lat="45.99744" lon="4.53988">
        <ele>587</ele>
        <time>2016-11-06T06:05:23Z</time>
      </trkpt>
      <trkpt lat="45.9971" lon="4.54">
        <ele>584</ele>
        <time>2016-11-06T06:07:23Z</time>
      </trkpt>
      <trkpt lat="45.99689" lon="4.54011">
        <ele>583</ele>
        <time>2016-11-06T06:09:23Z</time>
      </trkpt>
      <trkpt lat="45.99667" lon="4.54037">
        <ele>587</ele>
        <time>2016-11-06T06:11:23Z</time>
      </trkpt>
      <trkpt lat="45.99646" lon="4.54067">
        <ele>594</ele>
        <time>2016-11-06T06:13:23Z</time>
      </trkpt>
      <trkpt lat="45.99625" lon="4.54091">
        <ele>599</ele>
        <time>2016-11-06T06:15:23Z</time>
      </trkpt>
      <trkpt lat="45.99611" lon="4.54094">
        <ele>598</ele>
        <time>2016-11-06T06:17:23Z</time>
      </trkpt>
      <trkpt lat="45.99589" lon="4.54103">
        <ele>598</ele>
        <time>2016-11-06T06:19:23Z</time>
      </trkpt>
      <trkpt lat="45.99578" lon="4.54106">
        <ele>600</ele>
        <time>2016-11-06T06:21:23Z</time>
      </trkpt>
      <trkpt lat="45.99565" lon="4.541">
        <ele>602</ele>
        <time>2016-11-06T06:23:23Z</time>
      </trkpt>
      <trkpt lat="45.99553" lon="4.5406">
        <ele>598</ele>
        <time>2016-11-06T06:25:23Z</time>
      </trkpt>
      <trkpt lat="45.99539" lon="4.54009">
        <ele>595</ele>
        <time>2016-11-06T06:27:23Z</time>
      </trkpt>
      <trkpt lat="45.99524" lon="4.53956">
        <ele>595</ele>
        <time>2016-11-06T06:29:23Z</time>
      </trkpt>
      <trkpt lat="45.99512" lon="4.53937">
        <ele>597</ele>
        <time>2016-11-06T06:31:23Z</time>
      </trkpt>
      <trkpt lat="45.99495" lon="4.53949">
        <ele>599</ele>
        <time>2016-11-06T06:33:23Z</time>
      </trkpt>
      <trkpt lat="45.9945" lon="4.53998">
        <ele>596</ele>
        <time>2016-11-06T06:35:23Z</time>
      </trkpt>
      <trkpt lat="45.99431" lon="4.54026">
        <ele>600</ele>
        <time>2016-11-06T06:37:23Z</time>
      </trkpt>
      <trkpt lat="45.99411" lon="4.54051">
        <ele>604</ele>
        <time>2016-11-06T06:39:23Z</time>
      </trkpt>
      <trkpt lat="45.99404" lon="4.54068">
        <ele>608</ele>
        <time>2016-11-06T06:41:23Z</time>
      </trkpt>
      <trkpt lat="45.99391" lon="4.54078">
        <ele>609</ele>
        <time>2016-11-06T06:43:23Z</time>
      </trkpt>
      <trkpt lat="45.99374" lon="4.54084">
        <ele>609</ele>
        <time>2016-11-06T06:45:23Z</time>
      </trkpt>
      <trkpt lat="45.99356" lon="4.54086">
        <ele>607</ele>
        <time>2016-11-06T06:47:23Z</time>
      </trkpt>
      <trkpt lat="45.99339" lon="4.54084">
        <ele>604</ele>
        <time>2016-11-06T06:49:23Z</time>
      </trkpt>
      <trkpt lat="45.99318" lon="4.54066">
        <ele>601</ele>
        <time>2016-11-06T06:51:23Z</time>
      </trkpt>
      <trkpt lat="45.993" lon="4.54054">
        <ele>600</ele>
        <time>2016-11-06T06:53:23Z</time>
      </trkpt>
      <trkpt lat="45.99276" lon="4.54043">
        <ele>601</ele>
        <time>2016-11-06T06:55:23Z</time>
      </trkpt>
      <trkpt lat="45.99254" lon="4.54035">
        <ele>601</ele>
        <time>2016-11-06T06:57:23Z</time>
      </trkpt>
      <trkpt lat="45.99204" lon="4.54002">
        <ele>599</ele>
        <time>2016-11-06T06:59:23Z</time>
      </trkpt>
      <trkpt lat="45.99121" lon="4.53944">
        <ele>588</ele>
        <time>2016-11-06T07:01:23Z</time>
      </trkpt>
      <trkpt lat="45.99082" lon="4.53913">
        <ele>582</ele>
        <time>2016-11-06T07:03:23Z</time>
      </trkpt>
      <trkpt lat="45.99072" lon="4.53908">
        <ele>579</ele>
        <time>2016-11-06T07:05:23Z</time>
      </trkpt>
      <trkpt lat="45.99063" lon="4.53907">
        <ele>578</ele>
        <time>2016-11-06T07:07:23Z</time>
      </trkpt>
      <trkpt lat="45.9905" lon="4.5391">
        <ele>576</ele>
        <time>2016-11-06T07:09:23Z</time>
      </trkpt>
      <trkpt lat="45.99042" lon="4.53911">
        <ele>575</ele>
        <time>2016-11-06T07:11:23Z</time>
      </trkpt>
      <trkpt lat="45.99031" lon="4.53917">
        <ele>574</ele>
        <time>2016-11-06T07:13:23Z</time>
      </trkpt>
      <trkpt lat="45.99028" lon="4.53922">
        <ele>575</ele>
        <time>2016-11-06T07:15:23Z</time>
      </trkpt>
      <trkpt lat="45.99024" lon="4.53936">
        <ele>576</ele>
        <time>2016-11-06T07:17:23Z</time>
      </trkpt>
      <trkpt lat="45.99015" lon="4.53977">
        <ele>580</ele>
        <time>2016-11-06T07:19:23Z</time>
      </trkpt>
      <trkpt lat="45.99013" lon="4.53984">
        <ele>581</ele>
        <time>2016-11-06T07:21:23Z</time>
      </trkpt>
      <trkpt lat="45.99011" lon="4.5399">
        <ele>581</ele>
        <time>2016-11-06T07:23:23Z</time>
      </trkpt>
      <trkpt lat="45.99006" lon="4.53999">
        <ele>581</ele>
        <time>2016-11-06T07:25:23Z</time>
      </trkpt>
      <trkpt lat="45.98993" lon="4.54012">
        <ele>582</ele>
        <time>2016-11-06T07:27:23Z</time>
      </trkpt>
      <trkpt lat="45.98975" lon="4.54034">
        <ele>585</ele>
        <time>2016-11-06T07:29:23Z</time>
      </trkpt>
      <trkpt lat="45.9897" lon="4.54038">
        <ele>586</ele>
        <time>2016-11-06T07:31:23Z</time>
      </trkpt>
      <trkpt lat="45.98966" lon="4.54038">
        <ele>585</ele>
        <time>2016-11-06T07:33:23Z</time>
      </trkpt>
      <trkpt lat="45.98962" lon="4.54036">
        <ele>585</ele>
        <time>2016-11-06T07:35:23Z</time>
      </trkpt>
      <trkpt lat="45.98954" lon="4.54029">
        <ele>583</ele>
        <time>2016-11-06T07:37:23Z</time>
      </trkpt>
      <trkpt lat="45.98948" lon="4.54024">
        <ele>581</ele>
        <time>2016-11-06T07:39:23Z</time>
      </trkpt>
      <trkpt lat="45.98941" lon="4.54017">
        <ele>579</ele>
        <time>2016-11-06T07:41:23Z</time>
      </trkpt>
      <trkpt lat="45.98925" lon="4.54006">
        <ele>575</ele>
        <time>2016-11-06T07:43:23Z</time>
      </trkpt>
      <trkpt lat="45.98897" lon="4.53992">
        <ele>571</ele>
        <time>2016-11-06T07:45:23Z</time>
      </trkpt>
      <trkpt lat="45.98882" lon="4.53986">
        <ele>570</ele>
        <time>2016-11-06T07:47:23Z</time>
      </trkpt>
      <trkpt lat="45.98869" lon="4.53983">
        <ele>570</ele>
        <time>2016-11-06T07:49:23Z</time>
      </trkpt>
      <trkpt lat="45.98853" lon="4.53984">
        <ele>570</ele>
        <time>2016-11-06T07:51:23Z</time>
      </trkpt>
      <trkpt lat="45.98847" lon="4.53986">
        <ele>571</ele>
        <time>2016-11-06T07:53:23Z</time>
      </trkpt>
      <trkpt lat="45.9883" lon="4.53992">
        <ele>574</ele>
        <time>2016-11-06T07:55:23Z</time>
      </trkpt>
      <trkpt lat="45.98823" lon="4.53996">
        <ele>575</ele>
        <time>2016-11-06T07:57:23Z</time>
      </trkpt>
      <trkpt lat="45.98804" lon="4.5401">
        <ele>581</ele>
        <time>2016-11-06T07:59:23Z</time>
      </trkpt>
      <trkpt lat="45.98777" lon="4.54026">
        <ele>587</ele>
        <time>2016-11-06T08:01:23Z</time>
      </trkpt>
      <trkpt lat="45.98771" lon="4.5403">
        <ele>589</ele>
        <time>2016-11-06T08:03:23Z</time>
      </trkpt>
      <trkpt lat="45.98763" lon="4.54031">
        <ele>589</ele>
        <time>2016-11-06T08:05:23Z</time>
      </trkpt>
      <trkpt lat="45.98756" lon="4.54029">
        <ele>589</ele>
        <time>2016-11-06T08:07:23Z</time>
      </trkpt>
      <trkpt lat="45.98748" lon="4.54026">
        <ele>588</ele>
        <time>2016-11-06T08:09:23Z</time>
      </trkpt>
      <trkpt lat="45.98733" lon="4.5402">
        <ele>588</ele>
        <time>2016-11-06T08:11:23Z</time>
      </trkpt>
      <trkpt lat="45.98702" lon="4.54005">
        <ele>586</ele>
        <time>2016-11-06T08:13:23Z</time>
      </trkpt>
      <trkpt lat="45.98689" lon="4.54">
        <ele>586</ele>
        <time>2016-11-06T08:15:23Z</time>
      </trkpt>
      <trkpt lat="45.98677" lon="4.53998">
        <ele>587</ele>
        <time>2016-11-06T08:17:23Z</time>
      </trkpt>
      <trkpt lat="45.98666" lon="4.53997">
        <ele>588</ele>
        <time>2016-11-06T08:19:23Z</time>
      </trkpt>
      <trkpt lat="45.98649" lon="4.53997">
        <ele>591</ele>
        <time>2016-11-06T08:21:23Z</time>
      </trkpt>
      <trkpt lat="45.98618" lon="4.53993">
        <ele>594</ele>
        <time>2016-11-06T08:23:23Z</time>
      </trkpt>
      <trkpt lat="45.98612" lon="4.53987">
        <ele>593</ele>
        <time>2016-11-06T08:25:23Z</time>
      </trkpt>
      <trkpt lat="45.98601" lon="4.53974">
        <ele>590</ele>
        <time>2016-11-06T08:27:23Z</time>
      </trkpt>
      <trkpt lat="45.98592" lon="4.53962">
        <ele>587</ele>
        <time>2016-11-06T08:29:23Z</time>
      </trkpt>
      <trkpt lat="45.98585" lon="4.5395">
        <ele>583</ele>
        <time>2016-11-06T08:31:23Z</time>
      </trkpt>
      <trkpt lat="45.98579" lon="4.5394">
        <ele>581</ele>
        <time>2016-11-06T08:33:23Z</time>
      </trkpt>
      <trkpt lat="45.9857" lon="4.53931">
        <ele>580</ele>
        <time>2016-11-06T08:35:23Z</time>
      </trkpt>
      <trkpt lat="45.98562" lon="4.53925">
        <ele>579</ele>
        <time>2016-11-06T08:37:23Z</time>
      </trkpt>
      <trkpt lat="45.98535" lon="4.53899">
        <ele>579</ele>
        <time>2016-11-06T08:39:23Z</time>
      </trkpt>
      <trkpt lat="45.98522" lon="4.53882">
        <ele>578</ele>
        <time>2016-11-06T08:41:23Z</time>
      </trkpt>
      <trkpt lat="45.98517" lon="4.53872">
        <ele>576</ele>
        <time>2016-11-06T08:43:23Z</time>
      </trkpt>
      <trkpt lat="45.98511" lon="4.53861">
        <ele>575</ele>
        <time>2016-11-06T08:45:23Z</time>
      </trkpt>
      <trkpt lat="45.98498" lon="4.53838">
        <ele>572</ele>
        <time>2016-11-06T08:47:23Z</time>
      </trkpt>
      <trkpt lat="45.98493" lon="4.53826">
        <ele>570</ele>
        <time>2016-11-06T08:49:23Z</time>
      </trkpt>
      <trkpt lat="45.98472" lon="4.53788">
        <ele>565</ele>
        <time>2016-11-06T08:51:23Z</time>
      </trkpt>
      <trkpt lat="45.98454" lon="4.53763">
        <ele>561</ele>
        <time>2016-11-06T08:53:23Z</time>
      </trkpt>
      <trkpt lat="45.98443" lon="4.53753">
        <ele>560</ele>
        <time>2016-11-06T08:55:23Z</time>
      </trkpt>
      <trkpt lat="45.9843" lon="4.53744">
        <ele>558</ele>
        <time>2016-11-06T08:57:23Z</time>
      </trkpt>
      <trkpt lat="45.9842" lon="4.53742">
        <ele>558</ele>
        <time>2016-11-06T08:59:23Z</time>
      </trkpt>
      <trkpt lat="45.9842" lon="4.53742">
        <ele>558</ele>
        <time>2016-11-06T09:01:23Z</time>
      </trkpt>
      <trkpt lat="45.98415" lon="4.5374">
        <ele>558</ele>
        <time>2016-11-06T09:03:23Z</time>
      </trkpt>
      <trkpt lat="45.98406" lon="4.5374">
        <ele>555</ele>
        <time>2016-11-06T09:05:23Z</time>
      </trkpt>
      <trkpt lat="45.98399" lon="4.53741">
        <ele>553</ele>
        <time>2016-11-06T09:07:23Z</time>
      </trkpt>
      <trkpt lat="45.98388" lon="4.53745">
        <ele>551</ele>
        <time>2016-11-06T09:09:23Z</time>
      </trkpt>
      <trkpt lat="45.98381" lon="4.53748">
        <ele>550</ele>
        <time>2016-11-06T09:11:23Z</time>
      </trkpt>
      <trkpt lat="45.98375" lon="4.53755">
        <ele>549</ele>
        <time>2016-11-06T09:13:23Z</time>
      </trkpt>
      <trkpt lat="45.9837" lon="4.53765">
        <ele>550</ele>
        <time>2016-11-06T09:15:23Z</time>
      </trkpt>
      <trkpt lat="45.98367" lon="4.53776">
        <ele>551</ele>
        <time>2016-11-06T09:17:23Z</time>
      </trkpt>
      <trkpt lat="45.98367" lon="4.53776">
        <ele>551</ele>
        <time>2016-11-06T09:19:23Z</time>
      </trkpt>
      <trkpt lat="45.98363" lon="4.53788">
        <ele>553</ele>
        <time>2016-11-06T09:21:23Z</time>
      </trkpt>
      <trkpt lat="45.98354" lon="4.53807">
        <ele>554</ele>
        <time>2016-11-06T09:23:23Z</time>
      </trkpt>
      <trkpt lat="45.98349" lon="4.53817">
        <ele>554</ele>
        <time>2016-11-06T09:25:23Z</time>
      </trkpt>
      <trkpt lat="45.9834" lon="4.53827">
        <ele>554</ele>
        <time>2016-11-06T09:27:23Z</time>
      </trkpt>
      <trkpt lat="45.98332" lon="4.53835">
        <ele>553</ele>
        <time>2016-11-06T09:29:23Z</time>
      </trkpt>
      <trkpt lat="45.98323" lon="4.53848">
        <ele>556</ele>
        <time>2016-11-06T09:31:23Z</time>
      </trkpt>
      <trkpt lat="45.98316" lon="4.53854">
        <ele>557</ele>
        <time>2016-11-06T09:33:23Z</time>
      </trkpt>
      <trkpt lat="45.98307" lon="4.53857">
        <ele>557</ele>
        <time>2016-11-06T09:35:23Z</time>
      </trkpt>
      <trkpt lat="45.983" lon="4.53858">
        <ele>556</ele>
        <time>2016-11-06T09:37:23Z</time>
      </trkpt>
      <trkpt lat="45.98288" lon="4.53858">
        <ele>554</ele>
        <time>2016-11-06T09:39:23Z</time>
      </trkpt>
      <trkpt lat="45.98239" lon="4.53847">
        <ele>546</ele>
        <time>2016-11-06T09:41:23Z</time>
      </trkpt>
      <trkpt lat="45.98188" lon="4.53834">
        <ele>548</ele>
        <time>2016-11-06T09:43:23Z</time>
      </trkpt>
      <trkpt lat="45.98172" lon="4.53828">
        <ele>548</ele>
        <time>2016-11-06T09:45:23Z</time>
      </trkpt>
      <trkpt lat="45.9816" lon="4.53818">
        <ele>547</ele>
        <time>2016-11-06T09:47:23Z</time>
      </trkpt>
      <trkpt lat="45.98152" lon="4.53808">
        <ele>546</ele>
        <time>2016-11-06T09:49:23Z</time>
      </trkpt>
      <trkpt lat="45.98139" lon="4.53792">
        <ele>544</ele>
        <time>2016-11-06T09:51:23Z</time>
      </trkpt>
      <trkpt lat="45.9813" lon="4.53778">
        <ele>544</ele>
        <time>2016-11-06T09:53:23Z</time>
      </trkpt>
      <trkpt lat="45.98122" lon="4.5376">
        <ele>542</ele>
        <time>2016-11-06T09:55:23Z</time>
      </trkpt>
      <trkpt lat="45.98121" lon="4.53758">
        <ele>542</ele>
        <time>2016-11-06T09:57:23Z</time>
      </trkpt>
      <trkpt lat="45.98116" lon="4.5375">
        <ele>543</ele>
        <time>2016-11-06T09:59:23Z</time>
      </trkpt>
      <trkpt lat="45.98107" lon="4.53743">
        <ele>543</ele>
        <time>2016-11-06T10:01:23Z</time>
      </trkpt>
      <trkpt lat="45.98092" lon="4.53733">
        <ele>545</ele>
        <time>2016-11-06T10:03:23Z</time>
      </trkpt>
      <trkpt lat="45.98084" lon="4.53731">
        <ele>546</ele>
        <time>2016-11-06T10:05:23Z</time>
      </trkpt>
      <trkpt lat="45.98076" lon="4.53732">
        <ele>546</ele>
        <time>2016-11-06T10:07:23Z</time>
      </trkpt>
      <trkpt lat="45.98068" lon="4.53738">
        <ele>546</ele>
        <time>2016-11-06T10:09:23Z</time>
      </trkpt>
      <trkpt lat="45.9806" lon="4.53747">
        <ele>546</ele>
        <time>2016-11-06T10:11:23Z</time>
      </trkpt>
      <trkpt lat="45.98053" lon="4.53754">
        <ele>546</ele>
        <time>2016-11-06T10:13:23Z</time>
      </trkpt>
      <trkpt lat="45.98039" lon="4.53764">
        <ele>544</ele>
        <time>2016-11-06T10:15:23Z</time>
      </trkpt>
      <trkpt lat="45.98033" lon="4.53768">
        <ele>544</ele>
        <time>2016-11-06T10:17:23Z</time>
      </trkpt>
      <trkpt lat="45.98025" lon="4.5377">
        <ele>543</ele>
        <time>2016-11-06T10:19:23Z</time>
      </trkpt>
      <trkpt lat="45.98016" lon="4.53771">
        <ele>541</ele>
        <time>2016-11-06T10:21:23Z</time>
      </trkpt>
      <trkpt lat="45.98009" lon="4.53769">
        <ele>540</ele>
        <time>2016-11-06T10:23:23Z</time>
      </trkpt>
      <trkpt lat="45.97994" lon="4.53765">
        <ele>538</ele>
        <time>2016-11-06T10:25:23Z</time>
      </trkpt>
      <trkpt lat="45.97978" lon="4.53762">
        <ele>535</ele>
        <time>2016-11-06T10:27:23Z</time>
      </trkpt>
      <trkpt lat="45.9796" lon="4.53758">
        <ele>532</ele>
        <time>2016-11-06T10:29:23Z</time>
      </trkpt>
      <trkpt lat="45.97949" lon="4.53756">
        <ele>530</ele>
        <time>2016-11-06T10:31:23Z</time>
      </trkpt>
      <trkpt lat="45.97938" lon="4.53753">
        <ele>528</ele>
        <time>2016-11-06T10:33:23Z</time>
      </trkpt>
      <trkpt lat="45.97938" lon="4.53753">
        <ele>528</ele>
        <time>2016-11-06T10:35:23Z</time>
      </trkpt>
      <trkpt lat="45.97943" lon="4.53759">
        <ele>529</ele>
        <time>2016-11-06T10:37:23Z</time>
      </trkpt>
      <trkpt lat="45.97945" lon="4.53762">
        <ele>530</ele>
        <time>2016-11-06T10:39:23Z</time>
      </trkpt>
      <trkpt lat="45.97946" lon="4.53767">
        <ele>530</ele>
        <time>2016-11-06T10:41:23Z</time>
      </trkpt>
      <trkpt lat="45.97947" lon="4.53771">
        <ele>530</ele>
        <time>2016-11-06T10:43:23Z</time>
      </trkpt>
      <trkpt lat="45.97949" lon="4.53776">
        <ele>531</ele>
        <time>2016-11-06T10:45:23Z</time>
      </trkpt>
      <trkpt lat="45.9795" lon="4.53782">
        <ele>531</ele>
        <time>2016-11-06T10:47:23Z</time>
      </trkpt>
      <trkpt lat="45.97951" lon="4.53793">
        <ele>532</ele>
        <time>2016-11-06T10:49:23Z</time>
      </trkpt>
      <trkpt lat="45.97952" lon="4.53797">
        <ele>532</ele>
        <time>2016-11-06T10:51:23Z</time>
      </trkpt>
      <trkpt lat="45.97954" lon="4.53802">
        <ele>532</ele>
        <time>2016-11-06T10:53:23Z</time>
      </trkpt>
      <trkpt lat="45.97959" lon="4.53816">
        <ele>534</ele>
        <time>2016-11-06T10:55:23Z</time>
      </trkpt>
      <trkpt lat="45.97963" lon="4.53822">
        <ele>535</ele>
        <time>2016-11-06T10:57:23Z</time>
      </trkpt>
      <trkpt lat="45.97967" lon="4.53833">
        <ele>536</ele>
        <time>2016-11-06T10:59:23Z</time>
      </trkpt>
      <trkpt lat="45.97971" lon="4.53845">
        <ele>536</ele>
        <time>2016-11-06T11:01:23Z</time>
      </trkpt>
      <trkpt lat="45.97976" lon="4.53854">
        <ele>537</ele>
        <time>2016-11-06T11:03:23Z</time>
      </trkpt>
      <trkpt lat="45.97978" lon="4.53859">
        <ele>537</ele>
        <time>2016-11-06T11:05:23Z</time>
      </trkpt>
      <trkpt lat="45.97981" lon="4.53865">
        <ele>538</ele>
        <time>2016-11-06T11:07:23Z</time>
      </trkpt>
      <trkpt lat="45.97994" lon="4.5388">
        <ele>541</ele>
        <time>2016-11-06T11:09:23Z</time>
      </trkpt>
      <trkpt lat="45.98" lon="4.53887">
        <ele>542</ele>
        <time>2016-11-06T11:11:23Z</time>
      </trkpt>
      <trkpt lat="45.98005" lon="4.53897">
        <ele>543</ele>
        <time>2016-11-06T11:13:23Z</time>
      </trkpt>
      <trkpt lat="45.98008" lon="4.53905">
        <ele>544</ele>
        <time>2016-11-06T11:15:23Z</time>
      </trkpt>
      <trkpt lat="45.98013" lon="4.53918">
        <ele>545</ele>
        <time>2016-11-06T11:17:23Z</time>
      </trkpt>
      <trkpt lat="45.98017" lon="4.53933">
        <ele>547</ele>
        <time>2016-11-06T11:19:23Z</time>
      </trkpt>
      <trkpt lat="45.98019" lon="4.53945">
        <ele>548</ele>
        <time>2016-11-06T11:21:23Z</time>
      </trkpt>
      <trkpt lat="45.9802" lon="4.53958">
        <ele>549</ele>
        <time>2016-11-06T11:23:23Z</time>
      </trkpt>
      <trkpt lat="45.9802" lon="4.5397">
        <ele>550</ele>
        <time>2016-11-06T11:25:23Z</time>
      </trkpt>
      <trkpt lat="45.98018" lon="4.53981">
        <ele>550</ele>
        <time>2016-11-06T11:27:23Z</time>
      </trkpt>
      <trkpt lat="45.98016" lon="4.53991">
        <ele>550</ele>
        <time>2016-11-06T11:29:23Z</time>
      </trkpt>
      <trkpt lat="45.98011" lon="4.54009">
        <ele>551</ele>
        <time>2016-11-06T11:31:23Z</time>
      </trkpt>
      <trkpt lat="45.98007" lon="4.54019">
        <ele>552</ele>
        <time>2016-11-06T11:33:23Z</time>
      </trkpt>
      <trkpt lat="45.97998" lon="4.5404">
        <ele>553</ele>
        <time>2016-11-06T11:35:23Z</time>
      </trkpt>
      <trkpt lat="45.97993" lon="4.54052">
        <ele>553</ele>
        <time>2016-11-06T11:37:23Z</time>
      </trkpt>
      <trkpt lat="45.9798" lon="4.54084">
        <ele>555</ele>
        <time>2016-11-06T11:39:23Z</time>
      </trkpt>
      <trkpt lat="45.97976" lon="4.54093">
        <ele>556</ele>
        <time>2016-11-06T11:41:23Z</time>
      </trkpt>
      <trkpt lat="45.97969" lon="4.54111">
        <ele>558</ele>
        <time>2016-11-06T11:43:23Z</time>
      </trkpt>
      <trkpt lat="45.9796" lon="4.54134">
        <ele>560</ele>
        <time>2016-11-06T11:45:23Z</time>
      </trkpt>
      <trkpt lat="45.97953" lon="4.54147">
        <ele>561</ele>
        <time>2016-11-06T11:47:23Z</time>
      </trkpt>
      <trkpt lat="45.97945" lon="4.54164">
        <ele>562</ele>
        <time>2016-11-06T11:49:23Z</time>
      </trkpt>
      <trkpt lat="45.97933" lon="4.54183">
        <ele>563</ele>
        <time>2016-11-06T11:51:23Z</time>
      </trkpt>
      <trkpt lat="45.97922" lon="4.54197">
        <ele>563</ele>
        <time>2016-11-06T11:53:23Z</time>
      </trkpt>
      <trkpt lat="45.979" lon="4.54235">
        <ele>566</ele>
        <time>2016-11-06T11:55:23Z</time>
      </trkpt>
      <trkpt lat="45.97898" lon="4.5424">
        <ele>566</ele>
        <time>2016-11-06T11:57:23Z</time>
      </trkpt>
      <trkpt lat="45.97898" lon="4.5424">
        <ele>566</ele>
        <time>2016-11-06T11:59:23Z</time>
      </trkpt>
      <trkpt lat="45.9789" lon="4.54248">
        <ele>566</ele>
        <time>2016-11-06T12:01:23Z</time>
      </trkpt>
      <trkpt lat="45.97881" lon="4.54263">
        <ele>566</ele>
        <time>2016-11-06T12:03:23Z</time>
      </trkpt>
      <trkpt lat="45.97877" lon="4.54275">
        <ele>567</ele>
        <time>2016-11-06T12:05:23Z</time>
      </trkpt>
      <trkpt lat="45.97865" lon="4.54299">
        <ele>569</ele>
        <time>2016-11-06T12:07:23Z</time>
      </trkpt>
      <trkpt lat="45.97854" lon="4.5432">
        <ele>570</ele>
        <time>2016-11-06T12:09:23Z</time>
      </trkpt>
      <trkpt lat="45.97843" lon="4.54341">
        <ele>571</ele>
        <time>2016-11-06T12:11:23Z</time>
      </trkpt>
      <trkpt lat="45.97835" lon="4.5436">
        <ele>571</ele>
        <time>2016-11-06T12:13:23Z</time>
      </trkpt>
      <trkpt lat="45.97833" lon="4.54369">
        <ele>571</ele>
        <time>2016-11-06T12:15:23Z</time>
      </trkpt>
      <trkpt lat="45.97832" lon="4.54376">
        <ele>572</ele>
        <time>2016-11-06T12:17:23Z</time>
      </trkpt>
      <trkpt lat="45.97831" lon="4.54383">
        <ele>572</ele>
        <time>2016-11-06T12:19:23Z</time>
      </trkpt>
      <trkpt lat="45.97827" lon="4.54394">
        <ele>573</ele>
        <time>2016-11-06T12:21:23Z</time>
      </trkpt>
      <trkpt lat="45.97824" lon="4.54398">
        <ele>572</ele>
        <time>2016-11-06T12:23:23Z</time>
      </trkpt>
      <trkpt lat="45.97822" lon="4.54402">
        <ele>572</ele>
        <time>2016-11-06T12:25:23Z</time>
      </trkpt>
      <trkpt lat="45.97819" lon="4.54406">
        <ele>572</ele>
        <time>2016-11-06T12:27:23Z</time>
      </trkpt>
      <trkpt lat="45.97817" lon="4.54408">
        <ele>572</ele>
        <time>2016-11-06T12:29:23Z</time>
      </trkpt>
      <trkpt lat="45.97815" lon="4.54411">
        <ele>572</ele>
        <time>2016-11-06T12:31:23Z</time>
      </trkpt>
      <trkpt lat="45.97813" lon="4.54414">
        <ele>572</ele>
        <time>2016-11-06T12:33:23Z</time>
      </trkpt>
      <trkpt lat="45.97811" lon="4.54418">
        <ele>572</ele>
        <time>2016-11-06T12:35:23Z</time>
      </trkpt>
      <trkpt lat="45.97807" lon="4.54429">
        <ele>572</ele>
        <time>2016-11-06T12:37:23Z</time>
      </trkpt>
      <trkpt lat="45.97795" lon="4.54458">
        <ele>573</ele>
        <time>2016-11-06T12:39:23Z</time>
      </trkpt>
      <trkpt lat="45.97787" lon="4.54476">
        <ele>574</ele>
        <time>2016-11-06T12:41:23Z</time>
      </trkpt>
      <trkpt lat="45.97781" lon="4.54487">
        <ele>574</ele>
        <time>2016-11-06T12:43:23Z</time>
      </trkpt>
      <trkpt lat="45.97762" lon="4.54513">
        <ele>574</ele>
        <time>2016-11-06T12:45:23Z</time>
      </trkpt>
      <trkpt lat="45.97747" lon="4.54512">
        <ele>572</ele>
        <time>2016-11-06T12:47:23Z</time>
      </trkpt>
      <trkpt lat="45.97729" lon="4.54509">
        <ele>571</ele>
        <time>2016-11-06T12:49:23Z</time>
      </trkpt>
      <trkpt lat="45.977" lon="4.545">
        <ele>569</ele>
        <time>2016-11-06T12:51:23Z</time>
      </trkpt>
      <trkpt lat="45.97685" lon="4.54494">
        <ele>567</ele>
        <time>2016-11-06T12:53:23Z</time>
      </trkpt>
      <trkpt lat="45.9767" lon="4.54484">
        <ele>565</ele>
        <time>2016-11-06T12:55:23Z</time>
      </trkpt>
      <trkpt lat="45.9767" lon="4.54484">
        <ele>565</ele>
        <time>2016-11-06T12:57:23Z</time>
      </trkpt>
      <trkpt lat="45.97661" lon="4.54482">
        <ele>564</ele>
        <time>2016-11-06T12:59:23Z</time>
      </trkpt>
      <trkpt lat="45.97646" lon="4.54481">
        <ele>562</ele>
        <time>2016-11-06T13:01:23Z</time>
      </trkpt>
      <trkpt lat="45.97602" lon="4.54481">
        <ele>559</ele>
        <time>2016-11-06T13:03:23Z</time>
      </trkpt>
      <trkpt lat="45.9759" lon="4.54482">
        <ele>559</ele>
        <time>2016-11-06T13:05:23Z</time>
      </trkpt>
      <trkpt lat="45.97584" lon="4.54485">
        <ele>559</ele>
        <time>2016-11-06T13:07:23Z</time>
      </trkpt>
      <trkpt lat="45.97579" lon="4.54488">
        <ele>559</ele>
        <time>2016-11-06T13:09:23Z</time>
      </trkpt>
      <trkpt lat="45.97567" lon="4.54498">
        <ele>559</ele>
        <time>2016-11-06T13:11:23Z</time>
      </trkpt>
      <trkpt lat="45.97555" lon="4.54508">
        <ele>558</ele>
        <time>2016-11-06T13:13:23Z</time>
      </trkpt>
      <trkpt lat="45.97528" lon="4.54537">
        <ele>557</ele>
        <time>2016-11-06T13:15:23Z</time>
      </trkpt>
      <trkpt lat="45.97505" lon="4.54566">
        <ele>556</ele>
        <time>2016-11-06T13:17:23Z</time>
      </trkpt>
      <trkpt lat="45.97503" lon="4.5457">
        <ele>557</ele>
        <time>2016-11-06T13:19:23Z</time>
      </trkpt>
      <trkpt lat="45.97497" lon="4.54582">
        <ele>557</ele>
        <time>2016-11-06T13:21:23Z</time>
      </trkpt>
      <trkpt lat="45.97489" lon="4.54602">
        <ele>557</ele>
        <time>2016-11-06T13:23:23Z</time>
      </trkpt>
      <trkpt lat="45.97474" lon="4.54648">
        <ele>557</ele>
        <time>2016-11-06T13:25:23Z</time>
      </trkpt>
      <trkpt lat="45.97471" lon="4.54665">
        <ele>558</ele>
        <time>2016-11-06T13:27:23Z</time>
      </trkpt>
      <trkpt lat="45.97465" lon="4.54697">
        <ele>556</ele>
        <time>2016-11-06T13:29:23Z</time>
      </trkpt>
      <trkpt lat="45.9746" lon="4.54761">
        <ele>554</ele>
        <time>2016-11-06T13:31:23Z</time>
      </trkpt>
      <trkpt lat="45.97469" lon="4.5479">
        <ele>553</ele>
        <time>2016-11-06T13:33:23Z</time>
      </trkpt>
      <trkpt lat="45.97477" lon="4.54802">
        <ele>554</ele>
        <time>2016-11-06T13:35:23Z</time>
      </trkpt>
      <trkpt lat="45.97488" lon="4.54816">
        <ele>556</ele>
        <time>2016-11-06T13:37:23Z</time>
      </trkpt>
      <trkpt lat="45.97502" lon="4.54829">
        <ele>559</ele>
        <time>2016-11-06T13:39:23Z</time>
      </trkpt>
      <trkpt lat="45.97518" lon="4.54843">
        <ele>557</ele>
        <time>2016-11-06T13:41:23Z</time>
      </trkpt>
      <trkpt lat="45.97536" lon="4.54856">
        <ele>556</ele>
        <time>2016-11-06T13:43:23Z</time>
      </trkpt>
      <trkpt lat="45.97554" lon="4.54865">
        <ele>556</ele>
        <time>2016-11-06T13:45:23Z</time>
      </trkpt>
      <trkpt lat="45.97566" lon="4.54875">
        <ele>555</ele>
        <time>2016-11-06T13:47:23Z</time>
      </trkpt>
      <trkpt lat="45.97592" lon="4.5489">
        <ele>556</ele>
        <time>2016-11-06T13:49:23Z</time>
      </trkpt>
      <trkpt lat="45.97638" lon="4.54907">
        <ele>554</ele>
        <time>2016-11-06T13:51:23Z</time>
      </trkpt>
      <trkpt lat="45.97656" lon="4.5491">
        <ele>553</ele>
        <time>2016-11-06T13:53:23Z</time>
      </trkpt>
      <trkpt lat="45.97679" lon="4.54911">
        <ele>554</ele>
        <time>2016-11-06T13:55:23Z</time>
      </trkpt>
      <trkpt lat="45.97687" lon="4.54914">
        <ele>554</ele>
        <time>2016-11-06T13:57:23Z</time>
      </trkpt>
      <trkpt lat="45.97699" lon="4.54922">
        <ele>554</ele>
        <time>2016-11-06T13:59:23Z</time>
      </trkpt>
      <trkpt lat="45.97709" lon="4.5493">
        <ele>554</ele>
        <time>2016-11-06T14:01:23Z</time>
      </trkpt>
      <trkpt lat="45.97733" lon="4.54956">
        <ele>554</ele>
        <time>2016-11-06T14:03:23Z</time>
      </trkpt>
      <trkpt lat="45.97754" lon="4.54972">
        <ele>555</ele>
        <time>2016-11-06T14:05:23Z</time>
      </trkpt>
      <trkpt lat="45.97765" lon="4.54977">
        <ele>554</ele>
        <time>2016-11-06T14:07:23Z</time>
      </trkpt>
      <trkpt lat="45.97776" lon="4.54982">
        <ele>553</ele>
        <time>2016-11-06T14:09:23Z</time>
      </trkpt>
      <trkpt lat="45.97789" lon="4.54989">
        <ele>551</ele>
        <time>2016-11-06T14:11:23Z</time>
      </trkpt>
      <trkpt lat="45.97802" lon="4.54994">
        <ele>550</ele>
        <time>2016-11-06T14:13:23Z</time>
      </trkpt>
      <trkpt lat="45.97816" lon="4.54996">
        <ele>549</ele>
        <time>2016-11-06T14:15:23Z</time>
      </trkpt>
      <trkpt lat="45.97828" lon="4.54996">
        <ele>549</ele>
        <time>2016-11-06T14:17:23Z</time>
      </trkpt>
      <trkpt lat="45.97839" lon="4.54993">
        <ele>548</ele>
        <time>2016-11-06T14:19:23Z</time>
      </trkpt>
      <trkpt lat="45.97844" lon="4.5499">
        <ele>547</ele>
        <time>2016-11-06T14:21:23Z</time>
      </trkpt>
      <trkpt lat="45.9786" lon="4.5498">
        <ele>545</ele>
        <time>2016-11-06T14:23:23Z</time>
      </trkpt>
      <trkpt lat="45.97871" lon="4.54973">
        <ele>544</ele>
        <time>2016-11-06T14:25:23Z</time>
      </trkpt>
      <trkpt lat="45.97907" lon="4.54944">
        <ele>539</ele>
        <time>2016-11-06T14:27:23Z</time>
      </trkpt>
      <trkpt lat="45.97927" lon="4.5493">
        <ele>536</ele>
        <time>2016-11-06T14:29:23Z</time>
      </trkpt>
      <trkpt lat="45.9794" lon="4.54919">
        <ele>534</ele>
        <time>2016-11-06T14:31:23Z</time>
      </trkpt>
      <trkpt lat="45.97949" lon="4.5491">
        <ele>533</ele>
        <time>2016-11-06T14:33:23Z</time>
      </trkpt>
      <trkpt lat="45.97961" lon="4.54903">
        <ele>532</ele>
        <time>2016-11-06T14:35:23Z</time>
      </trkpt>
      <trkpt lat="45.97977" lon="4.54903">
        <ele>529</ele>
        <time>2016-11-06T14:37:23Z</time>
      </trkpt>
      <trkpt lat="45.97989" lon="4.54911">
        <ele>525</ele>
        <time>2016-11-06T14:39:23Z</time>
      </trkpt>
      <trkpt lat="45.98014" lon="4.54933">
        <ele>523</ele>
        <time>2016-11-06T14:41:23Z</time>
      </trkpt>
      <trkpt lat="45.98027" lon="4.54947">
        <ele>524</ele>
        <time>2016-11-06T14:43:23Z</time>
      </trkpt>
      <trkpt lat="45.98027" lon="4.54958">
        <ele>523</ele>
        <time>2016-11-06T14:45:23Z</time>
      </trkpt>
      <trkpt lat="45.98031" lon="4.5497">
        <ele>522</ele>
        <time>2016-11-06T14:47:23Z</time>
      </trkpt>
      <trkpt lat="45.98037" lon="4.54996">
        <ele>521</ele>
        <time>2016-11-06T14:49:23Z</time>
      </trkpt>
      <trkpt lat="45.9804" lon="4.55019">
        <ele>519</ele>
        <time>2016-11-06T14:51:23Z</time>
      </trkpt>
      <trkpt lat="45.98044" lon="4.55036">
        <ele>518</ele>
        <time>2016-11-06T14:53:23Z</time>
      </trkpt>
      <trkpt lat="45.98049" lon="4.55063">
        <ele>516</ele>
        <time>2016-11-06T14:55:23Z</time>
      </trkpt>
      <trkpt lat="45.98054" lon="4.55079">
        <ele>515</ele>
        <time>2016-11-06T14:57:23Z</time>
      </trkpt>
      <trkpt lat="45.98067" lon="4.55095">
        <ele>514</ele>
        <time>2016-11-06T14:59:23Z</time>
      </trkpt>
      <trkpt lat="45.98075" lon="4.55107">
        <ele>513</ele>
        <time>2016-11-06T15:01:23Z</time>
      </trkpt>
      <trkpt lat="45.9812" lon="4.5517">
        <ele>503</ele>
        <time>2016-11-06T15:03:23Z</time>
      </trkpt>
      <trkpt lat="45.98129" lon="4.55186">
        <ele>499</ele>
        <time>2016-11-06T15:05:23Z</time>
      </trkpt>
      <trkpt lat="45.98137" lon="4.55191">
        <ele>498</ele>
        <time>2016-11-06T15:07:23Z</time>
      </trkpt>
      <trkpt lat="45.98152" lon="4.55192">
        <ele>499</ele>
        <time>2016-11-06T15:09:23Z</time>
      </trkpt>
      <trkpt lat="45.98163" lon="4.55185">
        <ele>501</ele>
        <time>2016-11-06T15:11:23Z</time>
      </trkpt>
      <trkpt lat="45.98211" lon="4.55171">
        <ele>495</ele>
        <time>2016-11-06T15:13:23Z</time>
      </trkpt>
      <trkpt lat="45.98299" lon="4.55164">
        <ele>476</ele>
        <time>2016-11-06T15:15:23Z</time>
      </trkpt>
      <trkpt lat="45.98341" lon="4.5515">
        <ele>471</ele>
        <time>2016-11-06T15:17:23Z</time>
      </trkpt>
      <trkpt lat="45.98341" lon="4.5515">
        <ele>471</ele>
        <time>2016-11-06T15:19:23Z</time>
      </trkpt>
      <trkpt lat="45.98337" lon="4.55166">
        <ele>468</ele>
        <time>2016-11-06T15:21:23Z</time>
      </trkpt>
      <trkpt lat="45.98334" lon="4.5517">
        <ele>468</ele>
        <time>2016-11-06T15:23:23Z</time>
      </trkpt>
      <trkpt lat="45.98326" lon="4.55178">
        <ele>470</ele>
        <time>2016-11-06T15:25:23Z</time>
      </trkpt>
      <trkpt lat="45.98318" lon="4.55183">
        <ele>471</ele>
        <time>2016-11-06T15:27:23Z</time>
      </trkpt>
      <trkpt lat="45.9828" lon="4.5521">
        <ele>474</ele>
        <time>2016-11-06T15:29:23Z</time>
      </trkpt>
      <trkpt lat="45.9828" lon="4.5521">
        <ele>474</ele>
        <time>2016-11-06T15:31:23Z</time>
      </trkpt>
      <trkpt lat="45.98281" lon="4.55224">
        <ele>471</ele>
        <time>2016-11-06T15:33:23Z</time>
      </trkpt>
      <trkpt lat="45.98281" lon="4.55234">
        <ele>470</ele>
        <time>2016-11-06T15:35:23Z</time>
      </trkpt>
      <trkpt lat="45.98279" lon="4.55243">
        <ele>469</ele>
        <time>2016-11-06T15:37:23Z</time>
      </trkpt>
      <trkpt lat="45.9827" lon="4.55254">
        <ele>467</ele>
        <time>2016-11-06T15:39:23Z</time>
      </trkpt>
      <trkpt lat="45.98257" lon="4.55266">
        <ele>467</ele>
        <time>2016-11-06T15:41:23Z</time>
      </trkpt>
      <trkpt lat="45.98227" lon="4.55291">
        <ele>469</ele>
        <time>2016-11-06T15:43:23Z</time>
      </trkpt>
      <trkpt lat="45.98219" lon="4.55299">
        <ele>469</ele>
        <time>2016-11-06T15:45:23Z</time>
      </trkpt>
      <trkpt lat="45.9821" lon="4.55308">
        <ele>468</ele>
        <time>2016-11-06T15:47:23Z</time>
      </trkpt>
      <trkpt lat="45.98194" lon="4.55327">
        <ele>465</ele>
        <time>2016-11-06T15:49:23Z</time>
      </trkpt>
      <trkpt lat="45.9817" lon="4.55352">
        <ele>461</ele>
        <time>2016-11-06T15:51:23Z</time>
      </trkpt>
      <trkpt lat="45.98163" lon="4.55361">
        <ele>461</ele>
        <time>2016-11-06T15:53:23Z</time>
      </trkpt>
      <trkpt lat="45.98147" lon="4.55374">
        <ele>460</ele>
        <time>2016-11-06T15:55:23Z</time>
      </trkpt>
      <trkpt lat="45.98141" lon="4.55382">
        <ele>459</ele>
        <time>2016-11-06T15:57:23Z</time>
      </trkpt>
      <trkpt lat="45.98132" lon="4.55388">
        <ele>459</ele>
        <time>2016-11-06T15:59:23Z</time>
      </trkpt>
      <trkpt lat="45.98122" lon="4.55394">
        <ele>457</ele>
        <time>2016-11-06T16:01:23Z</time>
      </trkpt>
      <trkpt lat="45.981" lon="4.55404">
        <ele>454</ele>
        <time>2016-11-06T16:03:23Z</time>
      </trkpt>
      <trkpt lat="45.98088" lon="4.55407">
        <ele>453</ele>
        <time>2016-11-06T16:05:23Z</time>
      </trkpt>
      <trkpt lat="45.98082" lon="4.55407">
        <ele>452</ele>
        <time>2016-11-06T16:07:23Z</time>
      </trkpt>
      <trkpt lat="45.98074" lon="4.55406">
        <ele>451</ele>
        <time>2016-11-06T16:09:23Z</time>
      </trkpt>
      <trkpt lat="45.98062" lon="4.55407">
        <ele>450</ele>
        <time>2016-11-06T16:11:23Z</time>
      </trkpt>
      <trkpt lat="45.98034" lon="4.55406">
        <ele>448</ele>
        <time>2016-11-06T16:13:23Z</time>
      </trkpt>
      <trkpt lat="45.98027" lon="4.55405">
        <ele>448</ele>
        <time>2016-11-06T16:15:23Z</time>
      </trkpt>
      <trkpt lat="45.98016" lon="4.55407">
        <ele>446</ele>
        <time>2016-11-06T16:17:23Z</time>
      </trkpt>
      <trkpt lat="45.97998" lon="4.55414">
        <ele>444</ele>
        <time>2016-11-06T16:19:23Z</time>
      </trkpt>
      <trkpt lat="45.97989" lon="4.5542">
        <ele>444</ele>
        <time>2016-11-06T16:21:23Z</time>
      </trkpt>
      <trkpt lat="45.97985" lon="4.55425">
        <ele>445</ele>
        <time>2016-11-06T16:23:23Z</time>
      </trkpt>
      <trkpt lat="45.97976" lon="4.55435">
        <ele>447</ele>
        <time>2016-11-06T16:25:23Z</time>
      </trkpt>
      <trkpt lat="45.97967" lon="4.55443">
        <ele>448</ele>
        <time>2016-11-06T16:27:23Z</time>
      </trkpt>
      <trkpt lat="45.97958" lon="4.55448">
        <ele>449</ele>
        <time>2016-11-06T16:29:23Z</time>
      </trkpt>
      <trkpt lat="45.97922" lon="4.5546">
        <ele>449</ele>
        <time>2016-11-06T16:31:23Z</time>
      </trkpt>
      <trkpt lat="45.97906" lon="4.55464">
        <ele>448</ele>
        <time>2016-11-06T16:33:23Z</time>
      </trkpt>
      <trkpt lat="45.97894" lon="4.55466">
        <ele>448</ele>
        <time>2016-11-06T16:35:23Z</time>
      </trkpt>
      <trkpt lat="45.97883" lon="4.55467">
        <ele>447</ele>
        <time>2016-11-06T16:37:23Z</time>
      </trkpt>
      <trkpt lat="45.97873" lon="4.55467">
        <ele>446</ele>
        <time>2016-11-06T16:39:23Z</time>
      </trkpt>
      <trkpt lat="45.97861" lon="4.55465">
        <ele>445</ele>
        <time>2016-11-06T16:41:23Z</time>
      </trkpt>
      <trkpt lat="45.97849" lon="4.5546">
        <ele>444</ele>
        <time>2016-11-06T16:43:23Z</time>
      </trkpt>
      <trkpt lat="45.97833" lon="4.55453">
        <ele>442</ele>
        <time>2016-11-06T16:45:23Z</time>
      </trkpt>
      <trkpt lat="45.97827" lon="4.55447">
        <ele>441</ele>
        <time>2016-11-06T16:47:23Z</time>
      </trkpt>
      <trkpt lat="45.97818" lon="4.55441">
        <ele>440</ele>
        <time>2016-11-06T16:49:23Z</time>
      </trkpt>
      <trkpt lat="45.97794" lon="4.55419">
        <ele>435</ele>
        <time>2016-11-06T16:51:23Z</time>
      </trkpt>
      <trkpt lat="45.97777" lon="4.55401">
        <ele>434</ele>
        <time>2016-11-06T16:53:23Z</time>
      </trkpt>
      <trkpt lat="45.97761" lon="4.55386">
        <ele>433</ele>
        <time>2016-11-06T16:55:23Z</time>
      </trkpt>
      <trkpt lat="45.97752" lon="4.5538">
        <ele>432</ele>
        <time>2016-11-06T16:57:23Z</time>
      </trkpt>
      <trkpt lat="45.97732" lon="4.55373">
        <ele>431</ele>
        <time>2016-11-06T16:59:23Z</time>
      </trkpt>
      <trkpt lat="45.97721" lon="4.55371">
        <ele>431</ele>
        <time>2016-11-06T17:01:23Z</time>
      </trkpt>
      <trkpt lat="45.97708" lon="4.55373">
        <ele>431</ele>
        <time>2016-11-06T17:03:23Z</time>
      </trkpt>
      <trkpt lat="45.97685" lon="4.55378">
        <ele>431</ele>
        <time>2016-11-06T17:05:23Z</time>
      </trkpt>
      <trkpt lat="45.97658" lon="4.55388">
        <ele>430</ele>
        <time>2016-11-06T17:07:23Z</time>
      </trkpt>
      <trkpt lat="45.97638" lon="4.554">
        <ele>428</ele>
        <time>2016-11-06T17:09:23Z</time>
      </trkpt>
      <trkpt lat="45.97615" lon="4.55418">
        <ele>424</ele>
        <time>2016-11-06T17:11:23Z</time>
      </trkpt>
      <trkpt lat="45.97586" lon="4.55445">
        <ele>424</ele>
        <time>2016-11-06T17:13:23Z</time>
      </trkpt>
      <trkpt lat="45.97569" lon="4.55458">
        <ele>425</ele>
        <time>2016-11-06T17:15:23Z</time>
      </trkpt>
      <trkpt lat="45.97561" lon="4.55466">
        <ele>426</ele>
        <time>2016-11-06T17:17:23Z</time>
      </trkpt>
      <trkpt lat="45.97545" lon="4.55476">
        <ele>428</ele>
        <time>2016-11-06T17:19:23Z</time>
      </trkpt>
      <trkpt lat="45.97538" lon="4.55479">
        <ele>428</ele>
        <time>2016-11-06T17:21:23Z</time>
      </trkpt>
      <trkpt lat="45.97528" lon="4.5548">
        <ele>429</ele>
        <time>2016-11-06T17:23:23Z</time>
      </trkpt>
      <trkpt lat="45.97519" lon="4.55479">
        <ele>429</ele>
        <time>2016-11-06T17:25:23Z</time>
      </trkpt>
      <trkpt lat="45.97512" lon="4.55477">
        <ele>428</ele>
        <time>2016-11-06T17:27:23Z</time>
      </trkpt>
      <trkpt lat="45.97506" lon="4.55473">
        <ele>427</ele>
        <time>2016-11-06T17:29:23Z</time>
      </trkpt>
      <trkpt lat="45.975" lon="4.55466">
        <ele>426</ele>
        <time>2016-11-06T17:31:23Z</time>
      </trkpt>
      <trkpt lat="45.97484" lon="4.55446">
        <ele>422</ele>
        <time>2016-11-06T17:33:23Z</time>
      </trkpt>
      <trkpt lat="45.97468" lon="4.55427">
        <ele>418</ele>
        <time>2016-11-06T17:35:23Z</time>
      </trkpt>
      <trkpt lat="45.9746" lon="4.55415">
        <ele>416</ele>
        <time>2016-11-06T17:37:23Z</time>
      </trkpt>
      <trkpt lat="45.97447" lon="4.55392">
        <ele>414</ele>
        <time>2016-11-06T17:39:23Z</time>
      </trkpt>
      <trkpt lat="45.9744" lon="4.55383">
        <ele>413</ele>
        <time>2016-11-06T17:41:23Z</time>
      </trkpt>
      <trkpt lat="45.97424" lon="4.55356">
        <ele>408</ele>
        <time>2016-11-06T17:43:23Z</time>
      </trkpt>
      <trkpt lat="45.97421" lon="4.55343">
        <ele>406</ele>
        <time>2016-11-06T17:45:23Z</time>
      </trkpt>
      <trkpt lat="45.97419" lon="4.55327">
        <ele>406</ele>
        <time>2016-11-06T17:47:23Z</time>
      </trkpt>
      <trkpt lat="45.97418" lon="4.5531">
        <ele>408</ele>
        <time>2016-11-06T17:49:23Z</time>
      </trkpt>
      <trkpt lat="45.97416" lon="4.55306">
        <ele>408</ele>
        <time>2016-11-06T17:51:23Z</time>
      </trkpt>
      <trkpt lat="45.97408" lon="4.55296">
        <ele>409</ele>
        <time>2016-11-06T17:53:23Z</time>
      </trkpt>
      <trkpt lat="45.97402" lon="4.55286">
        <ele>410</ele>
        <time>2016-11-06T17:55:23Z</time>
      </trkpt>
      <trkpt lat="45.97388" lon="4.55266">
        <ele>411</ele>
        <time>2016-11-06T17:57:23Z</time>
      </trkpt>
      <trkpt lat="45.9738" lon="4.55261">
        <ele>410</ele>
        <time>2016-11-06T17:59:23Z</time>
      </trkpt>
      <trkpt lat="45.97335" lon="4.55224">
        <ele>406</ele>
        <time>2016-11-06T18:01:23Z</time>
      </trkpt>
      <trkpt lat="45.97326" lon="4.55215">
        <ele>407</ele>
        <time>2016-11-06T18:03:23Z</time>
      </trkpt>
      <trkpt lat="45.97316" lon="4.55202">
        <ele>407</ele>
        <time>2016-11-06T18:05:23Z</time>
      </trkpt>
      <trkpt lat="45.97302" lon="4.55177">
        <ele>406</ele>
        <time>2016-11-06T18:07:23Z</time>
      </trkpt>
      <trkpt lat="45.97293" lon="4.55164">
        <ele>405</ele>
        <time>2016-11-06T18:09:23Z</time>
      </trkpt>
      <trkpt lat="45.97285" lon="4.55152">
        <ele>405</ele>
        <time>2016-11-06T18:11:23Z</time>
      </trkpt>
      <trkpt lat="45.9728" lon="4.55139">
        <ele>406</ele>
        <time>2016-11-06T18:13:23Z</time>
      </trkpt>
      <trkpt lat="45.97274" lon="4.55127">
        <ele>406</ele>
        <time>2016-11-06T18:15:23Z</time>
      </trkpt>
      <trkpt lat="45.97268" lon="4.55118">
        <ele>405</ele>
        <time>2016-11-06T18:17:23Z</time>
      </trkpt>
      <trkpt lat="45.97263" lon="4.55111">
        <ele>404</ele>
        <time>2016-11-06T18:19:23Z</time>
      </trkpt>
      <trkpt lat="45.9726" lon="4.55108">
        <ele>403</ele>
        <time>2016-11-06T18:21:23Z</time>
      </trkpt>
      <trkpt lat="45.9726" lon="4.55108">
        <ele>403</ele>
        <time>2016-11-06T18:23:23Z</time>
      </trkpt>
      <trkpt lat="45.97237" lon="4.55087">
        <ele>398</ele>
        <time>2016-11-06T18:25:23Z</time>
      </trkpt>
      <trkpt lat="45.97224" lon="4.55079">
        <ele>397</ele>
        <time>2016-11-06T18:27:23Z</time>
      </trkpt>
      <trkpt lat="45.97214" lon="4.55076">
        <ele>396</ele>
        <time>2016-11-06T18:29:23Z</time>
      </trkpt>
      <trkpt lat="45.97203" lon="4.5507">
        <ele>395</ele>
        <time>2016-11-06T18:31:23Z</time>
      </trkpt>
      <trkpt lat="45.97192" lon="4.55066">
        <ele>394</ele>
        <time>2016-11-06T18:33:23Z</time>
      </trkpt>
      <trkpt lat="45.97183" lon="4.55057">
        <ele>393</ele>
        <time>2016-11-06T18:35:23Z</time>
      </trkpt>
      <trkpt lat="45.97174" lon="4.55051">
        <ele>392</ele>
        <time>2016-11-06T18:37:23Z</time>
      </trkpt>
      <trkpt lat="45.9717" lon="4.55048">
        <ele>391</ele>
        <time>2016-11-06T18:39:23Z</time>
      </trkpt>
      <trkpt lat="45.97169" lon="4.55047">
        <ele>391</ele>
        <time>2016-11-06T18:41:23Z</time>
      </trkpt>
      <trkpt lat="45.97152" lon="4.55031">
        <ele>391</ele>
        <time>2016-11-06T18:43:23Z</time>
      </trkpt>
      <trkpt lat="45.97152" lon="4.55031">
        <ele>391</ele>
        <time>2016-11-06T18:45:23Z</time>
      </trkpt>
      <trkpt lat="45.97148" lon="4.55035">
        <ele>391</ele>
        <time>2016-11-06T18:47:23Z</time>
      </trkpt>
      <trkpt lat="45.97137" lon="4.55034">
        <ele>390</ele>
        <time>2016-11-06T18:49:23Z</time>
      </trkpt>
      <trkpt lat="45.9711" lon="4.55016">
        <ele>387</ele>
        <time>2016-11-06T18:51:23Z</time>
      </trkpt>
      <trkpt lat="45.97102" lon="4.55014">
        <ele>386</ele>
        <time>2016-11-06T18:53:23Z</time>
      </trkpt>
      <trkpt lat="45.9709" lon="4.55016">
        <ele>385</ele>
        <time>2016-11-06T18:55:23Z</time>
      </trkpt>
      <trkpt lat="45.97078" lon="4.5502">
        <ele>384</ele>
        <time>2016-11-06T18:57:23Z</time>
      </trkpt>
      <trkpt lat="45.97065" lon="4.55023">
        <ele>384</ele>
        <time>2016-11-06T18:59:23Z</time>
      </trkpt>
      <trkpt lat="45.97055" lon="4.55024">
        <ele>384</ele>
        <time>2016-11-06T19:01:23Z</time>
      </trkpt>
      <trkpt lat="45.97025" lon="4.55028">
        <ele>382</ele>
        <time>2016-11-06T19:03:23Z</time>
      </trkpt>
      <trkpt lat="45.96983" lon="4.55023">
        <ele>379</ele>
        <time>2016-11-06T19:05:23Z</time>
      </trkpt>
      <trkpt lat="45.96974" lon="4.55022">
        <ele>379</ele>
        <time>2016-11-06T19:07:23Z</time>
      </trkpt>
      <trkpt lat="45.96964" lon="4.55025">
        <ele>380</ele>
        <time>2016-11-06T19:09:23Z</time>
      </trkpt>
      <trkpt lat="45.96955" lon="4.55031">
        <ele>381</ele>
        <time>2016-11-06T19:11:23Z</time>
      </trkpt>
      <trkpt lat="45.96946" lon="4.5504">
        <ele>383</ele>
        <time>2016-11-06T19:13:23Z</time>
      </trkpt>
      <trkpt lat="45.9694" lon="4.55044">
        <ele>384</ele>
        <time>2016-11-06T19:15:23Z</time>
      </trkpt>
      <trkpt lat="45.96935" lon="4.55044">
        <ele>383</ele>
        <time>2016-11-06T19:17:23Z</time>
      </trkpt>
      <trkpt lat="45.96935" lon="4.55044">
        <ele>383</ele>
        <time>2016-11-06T19:19:23Z</time>
      </trkpt>
      <trkpt lat="45.9693" lon="4.55045">
        <ele>384</ele>
        <time>2016-11-06T19:21:23Z</time>
      </trkpt>
      <trkpt lat="45.96927" lon="4.55044">
        <ele>383</ele>
        <time>2016-11-06T19:23:23Z</time>
      </trkpt>
      <trkpt lat="45.96926" lon="4.55042">
        <ele>383</ele>
        <time>2016-11-06T19:25:23Z</time>
      </trkpt>
      <trkpt lat="45.96926" lon="4.55039">
        <ele>383</ele>
        <time>2016-11-06T19:27:23Z</time>
      </trkpt>
      <trkpt lat="45.96934" lon="4.54987">
        <ele>376</ele>
        <time>2016-11-06T19:29:23Z</time>
      </trkpt>
      <trkpt lat="45.96933" lon="4.54982">
        <ele>376</ele>
        <time>2016-11-06T19:31:23Z</time>
      </trkpt>
      <trkpt lat="45.96931" lon="4.54979">
        <ele>376</ele>
        <time>2016-11-06T19:33:23Z</time>
      </trkpt>
      <trkpt lat="45.96923" lon="4.54973">
        <ele>375</ele>
        <time>2016-11-06T19:35:23Z</time>
      </trkpt>
      <trkpt lat="45.96906" lon="4.54964">
        <ele>376</ele>
        <time>2016-11-06T19:37:23Z</time>
      </trkpt>
      <trkpt lat="45.96883" lon="4.54955">
        <ele>377</ele>
        <time>2016-11-06T19:39:23Z</time>
      </trkpt>
      <trkpt lat="45.96862" lon="4.54944">
        <ele>377</ele>
        <time>2016-11-06T19:41:23Z</time>
      </trkpt>
      <trkpt lat="45.96853" lon="4.54938">
        <ele>376</ele>
        <time>2016-11-06T19:43:23Z</time>
      </trkpt>
      <trkpt lat="45.96847" lon="4.54927">
        <ele>374</ele>
        <time>2016-11-06T19:45:23Z</time>
      </trkpt>
      <trkpt lat="45.96839" lon="4.54916">
        <ele>372</ele>
        <time>2016-11-06T19:47:23Z</time>
      </trkpt>
      <trkpt lat="45.96832" lon="4.54909">
        <ele>372</ele>
        <time>2016-11-06T19:49:23Z</time>
      </trkpt>
      <trkpt lat="45.96816" lon="4.54897">
        <ele>374</ele>
        <time>2016-11-06T19:51:23Z</time>
      </trkpt>
      <trkpt lat="45.96766" lon="4.54845">
        <ele>367</ele>
        <time>2016-11-06T19:53:23Z</time>
      </trkpt>
      <trkpt lat="45.96747" lon="4.54828">
        <ele>363</ele>
        <time>2016-11-06T19:55:23Z</time>
      </trkpt>
      <trkpt lat="45.9674" lon="4.54823">
        <ele>363</ele>
        <time>2016-11-06T19:57:23Z</time>
      </trkpt>
      <trkpt lat="45.96733" lon="4.5482">
        <ele>363</ele>
        <time>2016-11-06T19:59:23Z</time>
      </trkpt>
      <trkpt lat="45.96723" lon="4.5482">
        <ele>363</ele>
        <time>2016-11-06T20:01:23Z</time>
      </trkpt>
      <trkpt lat="45.96666" lon="4.54826">
        <ele>364</ele>
        <time>2016-11-06T20:03:23Z</time>
      </trkpt>
      <trkpt lat="45.9662" lon="4.54826">
        <ele>364</ele>
        <time>2016-11-06T20:05:23Z</time>
      </trkpt>
      <trkpt lat="45.96611" lon="4.54825">
        <ele>364</ele>
        <time>2016-11-06T20:07:23Z</time>
      </trkpt>
      <trkpt lat="45.96596" lon="4.54821">
        <ele>364</ele>
        <time>2016-11-06T20:09:23Z</time>
      </trkpt>
      <trkpt lat="45.96582" lon="4.54816">
        <ele>364</ele>
        <time>2016-11-06T20:11:23Z</time>
      </trkpt>
      <trkpt lat="45.96569" lon="4.54803">
        <ele>364</ele>
        <time>2016-11-06T20:13:23Z</time>
      </trkpt>
      <trkpt lat="45.96552" lon="4.54776">
        <ele>361</ele>
        <time>2016-11-06T20:15:23Z</time>
      </trkpt>
      <trkpt lat="45.96517" lon="4.54741">
        <ele>359</ele>
        <time>2016-11-06T20:17:23Z</time>
      </trkpt>
      <trkpt lat="45.96479" lon="4.54722">
        <ele>362</ele>
        <time>2016-11-06T20:19:23Z</time>
      </trkpt>
      <trkpt lat="45.96441" lon="4.54698">
        <ele>362</ele>
        <time>2016-11-06T20:21:23Z</time>
      </trkpt>
      <trkpt lat="45.964" lon="4.54672">
        <ele>359</ele>
        <time>2016-11-06T20:23:23Z</time>
      </trkpt>
      <trkpt lat="45.96391" lon="4.54664">
        <ele>358</ele>
        <time>2016-11-06T20:25:23Z</time>
      </trkpt>
      <trkpt lat="45.96382" lon="4.54654">
        <ele>358</ele>
        <time>2016-11-06T20:27:23Z</time>
      </trkpt>
      <trkpt lat="45.96367" lon="4.54642">
        <ele>357</ele>
        <time>2016-11-06T20:29:23Z</time>
      </trkpt>
      <trkpt lat="45.96357" lon="4.54637">
        <ele>357</ele>
        <time>2016-11-06T20:31:23Z</time>
      </trkpt>
      <trkpt lat="45.96318" lon="4.54626">
        <ele>356</ele>
        <time>2016-11-06T20:33:23Z</time>
      </trkpt>
      <trkpt lat="45.96307" lon="4.54618">
        <ele>355</ele>
        <time>2016-11-06T20:35:23Z</time>
      </trkpt>
      <trkpt lat="45.96291" lon="4.54613">
        <ele>354</ele>
        <time>2016-11-06T20:37:23Z</time>
      </trkpt>
      <trkpt lat="45.9628" lon="4.54609">
        <ele>353</ele>
        <time>2016-11-06T20:39:23Z</time>
      </trkpt>
      <trkpt lat="45.96273" lon="4.54604">
        <ele>352</ele>
        <time>2016-11-06T20:41:23Z</time>
      </trkpt>
      <trkpt lat="45.96268" lon="4.54594">
        <ele>349</ele>
        <time>2016-11-06T20:43:23Z</time>
      </trkpt>
      <trkpt lat="45.96265" lon="4.5458">
        <ele>346</ele>
        <time>2016-11-06T20:45:23Z</time>
      </trkpt>
      <trkpt lat="45.96259" lon="4.54555">
        <ele>347</ele>
        <time>2016-11-06T20:47:23Z</time>
      </trkpt>
      <trkpt lat="45.96254" lon="4.54529">
        <ele>348</ele>
        <time>2016-11-06T20:49:23Z</time>
      </trkpt>
      <trkpt lat="45.96253" lon="4.54525">
        <ele>348</ele>
        <time>2016-11-06T20:51:23Z</time>
      </trkpt>
      <trkpt lat="45.96252" lon="4.54524">
        <ele>348</ele>
        <time>2016-11-06T20:53:23Z</time>
      </trkpt>
      <trkpt lat="45.9622" lon="4.54499">
        <ele>347</ele>
        <time>2016-11-06T20:55:23Z</time>
      </trkpt>
      <trkpt lat="45.96212" lon="4.54491">
        <ele>347</ele>
        <time>2016-11-06T20:57:23Z</time>
      </trkpt>
      <trkpt lat="45.96201" lon="4.54474">
        <ele>348</ele>
        <time>2016-11-06T20:59:23Z</time>
      </trkpt>
      <trkpt lat="45.96181" lon="4.54459">
        <ele>346</ele>
        <time>2016-11-06T21:01:23Z</time>
      </trkpt>
      <trkpt lat="45.96179" lon="4.54456">
        <ele>346</ele>
        <time>2016-11-06T21:03:23Z</time>
      </trkpt>
      <trkpt lat="45.9616" lon="4.54438">
        <ele>345</ele>
        <time>2016-11-06T21:05:23Z</time>
      </trkpt>
      <trkpt lat="45.96145" lon="4.54415">
        <ele>343</ele>
        <time>2016-11-06T21:07:23Z</time>
      </trkpt>
      <trkpt lat="45.96122" lon="4.54396">
        <ele>343</ele>
        <time>2016-11-06T21:09:23Z</time>
      </trkpt>
      <trkpt lat="45.96108" lon="4.54383">
        <ele>342</ele>
        <time>2016-11-06T21:11:23Z</time>
      </trkpt>
      <trkpt lat="45.96098" lon="4.54369">
        <ele>341</ele>
        <time>2016-11-06T21:13:23Z</time>
      </trkpt>
      <trkpt lat="45.96086" lon="4.54352">
        <ele>339</ele>
        <time>2016-11-06T21:15:23Z</time>
      </trkpt>
      <trkpt lat="45.96077" lon="4.54334">
        <ele>338</ele>
        <time>2016-11-06T21:17:23Z</time>
      </trkpt>
      <trkpt lat="45.96065" lon="4.54288">
        <ele>341</ele>
        <time>2016-11-06T21:19:23Z</time>
      </trkpt>
      <trkpt lat="45.96061" lon="4.54272">
        <ele>342</ele>
        <time>2016-11-06T21:21:23Z</time>
      </trkpt>
      <trkpt lat="45.96055" lon="4.54251">
        <ele>342</ele>
        <time>2016-11-06T21:23:23Z</time>
      </trkpt>
      <trkpt lat="45.96049" lon="4.54239">
        <ele>341</ele>
        <time>2016-11-06T21:25:23Z</time>
      </trkpt>
      <trkpt lat="45.9604" lon="4.5422">
        <ele>341</ele>
        <time>2016-11-06T21:27:23Z</time>
      </trkpt>
      <trkpt lat="45.96036" lon="4.54212">
        <ele>341</ele>
        <time>2016-11-06T21:29:23Z</time>
      </trkpt>
      <trkpt lat="45.96027" lon="4.54198">
        <ele>340</ele>
        <time>2016-11-06T21:31:23Z</time>
      </trkpt>
      <trkpt lat="45.96016" lon="4.54185">
        <ele>338</ele>
        <time>2016-11-06T21:33:23Z</time>
      </trkpt>
      <trkpt lat="45.96006" lon="4.54171">
        <ele>337</ele>
        <time>2016-11-06T21:35:23Z</time>
      </trkpt>
      <trkpt lat="45.95996" lon="4.5416">
        <ele>336</ele>
        <time>2016-11-06T21:37:23Z</time>
      </trkpt>
      <trkpt lat="45.95971" lon="4.54134">
        <ele>335</ele>
        <time>2016-11-06T21:39:23Z</time>
      </trkpt>
      <trkpt lat="45.95966" lon="4.54127">
        <ele>335</ele>
        <time>2016-11-06T21:41:23Z</time>
      </trkpt>
      <trkpt lat="45.95965" lon="4.54123">
        <ele>335</ele>
        <time>2016-11-06T21:43:23Z</time>
      </trkpt>
      <trkpt lat="45.95968" lon="4.54105">
        <ele>338</ele>
        <time>2016-11-06T21:45:23Z</time>
      </trkpt>
      <trkpt lat="45.95968" lon="4.54096">
        <ele>339</ele>
        <time>2016-11-06T21:47:23Z</time>
      </trkpt>
      <trkpt lat="45.95966" lon="4.54089">
        <ele>340</ele>
        <time>2016-11-06T21:49:23Z</time>
      </trkpt>
      <trkpt lat="45.95964" lon="4.54087">
        <ele>339</ele>
        <time>2016-11-06T21:51:23Z</time>
      </trkpt>
      <trkpt lat="45.95964" lon="4.54087">
        <ele>339</ele>
        <time>2016-11-06T21:53:23Z</time>
      </trkpt>
      <trkpt lat="45.95953" lon="4.54091">
        <ele>337</ele>
        <time>2016-11-06T21:55:23Z</time>
      </trkpt>
      <trkpt lat="45.95934" lon="4.54099">
        <ele>333</ele>
        <time>2016-11-06T21:57:23Z</time>
      </trkpt>
      <trkpt lat="45.9592" lon="4.54098">
        <ele>330</ele>
        <time>2016-11-06T21:59:23Z</time>
      </trkpt>
      <trkpt lat="45.95909" lon="4.54096">
        <ele>329</ele>
        <time>2016-11-06T22:01:23Z</time>
      </trkpt>
      <trkpt lat="45.95898" lon="4.54093">
        <ele>328</ele>
        <time>2016-11-06T22:03:23Z</time>
      </trkpt>
      <trkpt lat="45.95888" lon="4.54086">
        <ele>327</ele>
        <time>2016-11-06T22:05:23Z</time>
      </trkpt>
      <trkpt lat="45.95879" lon="4.54077">
        <ele>327</ele>
        <time>2016-11-06T22:07:23Z</time>
      </trkpt>
      <trkpt lat="45.95872" lon="4.54064">
        <ele>327</ele>
        <time>2016-11-06T22:09:23Z</time>
      </trkpt>
      <trkpt lat="45.95866" lon="4.54046">
        <ele>328</ele>
        <time>2016-11-06T22:11:23Z</time>
      </trkpt>
      <trkpt lat="45.95856" lon="4.54009">
        <ele>329</ele>
        <time>2016-11-06T22:13:23Z</time>
      </trkpt>
      <trkpt lat="45.9585" lon="4.53994">
        <ele>329</ele>
        <time>2016-11-06T22:15:23Z</time>
      </trkpt>
      <trkpt lat="45.95843" lon="4.53985">
        <ele>328</ele>
        <time>2016-11-06T22:17:23Z</time>
      </trkpt>
      <trkpt lat="45.95839" lon="4.53979">
        <ele>328</ele>
        <time>2016-11-06T22:19:23Z</time>
      </trkpt>
      <trkpt lat="45.95825" lon="4.53966">
        <ele>329</ele>
        <time>2016-11-06T22:21:23Z</time>
      </trkpt>
      <trkpt lat="45.95811" lon="4.5396">
        <ele>328</ele>
        <time>2016-11-06T22:23:23Z</time>
      </trkpt>
      <trkpt lat="45.95784" lon="4.53945">
        <ele>327</ele>
        <time>2016-11-06T22:25:23Z</time>
      </trkpt>
      <trkpt lat="45.95772" lon="4.5394">
        <ele>326</ele>
        <time>2016-11-06T22:27:23Z</time>
      </trkpt>
      <trkpt lat="45.95756" lon="4.53937">
        <ele>325</ele>
        <time>2016-11-06T22:29:23Z</time>
      </trkpt>
      <trkpt lat="45.95725" lon="4.53929">
        <ele>322</ele>
        <time>2016-11-06T22:31:23Z</time>
      </trkpt>
      <trkpt lat="45.9572" lon="4.53923">
        <ele>321</ele>
        <time>2016-11-06T22:33:23Z</time>
      </trkpt>
      <trkpt lat="45.95714" lon="4.53912">
        <ele>321</ele>
        <time>2016-11-06T22:35:23Z</time>
      </trkpt>
      <trkpt lat="45.9569" lon="4.53887">
        <ele>319</ele>
        <time>2016-11-06T22:37:23Z</time>
      </trkpt>
      <trkpt lat="45.95686" lon="4.53881">
        <ele>318</ele>
        <time>2016-11-06T22:39:23Z</time>
      </trkpt>
      <trkpt lat="45.95684" lon="4.53873">
        <ele>318</ele>
        <time>2016-11-06T22:41:23Z</time>
      </trkpt>
      <trkpt lat="45.95682" lon="4.53861">
        <ele>318</ele>
        <time>2016-11-06T22:43:23Z</time>
      </trkpt>
      <trkpt lat="45.9568" lon="4.53851">
        <ele>318</ele>
        <time>2016-11-06T22:45:23Z</time>
      </trkpt>
      <trkpt lat="45.95675" lon="4.53835">
        <ele>317</ele>
        <time>2016-11-06T22:47:23Z</time>
      </trkpt>
      <trkpt lat="45.95666" lon="4.53806">
        <ele>317</ele>
        <time>2016-11-06T22:49:23Z</time>
      </trkpt>
      <trkpt lat="45.95653" lon="4.53768">
        <ele>318</ele>
        <time>2016-11-06T22:51:23Z</time>
      </trkpt>
      <trkpt lat="45.95647" lon="4.53747">
        <ele>318</ele>
        <time>2016-11-06T22:53:23Z</time>
      </trkpt>
      <trkpt lat="45.95644" lon="4.53737">
        <ele>318</ele>
        <time>2016-11-06T22:55:23Z</time>
      </trkpt>
      <trkpt lat="45.95641" lon="4.53711">
        <ele>318</ele>
        <time>2016-11-06T22:57:23Z</time>
      </trkpt>
      <trkpt lat="45.95649" lon="4.53692">
        <ele>318</ele>
        <time>2016-11-06T22:59:23Z</time>
      </trkpt>
      <trkpt lat="45.95664" lon="4.53665">
        <ele>321</ele>
        <time>2016-11-06T23:01:23Z</time>
      </trkpt>
      <trkpt lat="45.95669" lon="4.53659">
        <ele>322</ele>
        <time>2016-11-06T23:03:23Z</time>
      </trkpt>
      <trkpt lat="45.95678" lon="4.5365">
        <ele>323</ele>
        <time>2016-11-06T23:05:23Z</time>
      </trkpt>
      <trkpt lat="45.95683" lon="4.53646">
        <ele>324</ele>
        <time>2016-11-06T23:07:23Z</time>
      </trkpt>
      <trkpt lat="45.95701" lon="4.53634">
        <ele>326</ele>
        <time>2016-11-06T23:09:23Z</time>
      </trkpt>
      <trkpt lat="45.95706" lon="4.53629">
        <ele>327</ele>
        <time>2016-11-06T23:11:23Z</time>
      </trkpt>
      <trkpt lat="45.95711" lon="4.53624">
        <ele>328</ele>
        <time>2016-11-06T23:13:23Z</time>
      </trkpt>
      <trkpt lat="45.95715" lon="4.53613">
        <ele>328</ele>
        <time>2016-11-06T23:15:23Z</time>
      </trkpt>
      <trkpt lat="45.95718" lon="4.53606">
        <ele>328</ele>
        <time>2016-11-06T23:17:23Z</time>
      </trkpt>
      <trkpt lat="45.95721" lon="4.5359">
        <ele>327</ele>
        <time>2016-11-06T23:19:23Z</time>
      </trkpt>
      <trkpt lat="45.95729" lon="4.53549">
        <ele>331</ele>
        <time>2016-11-06T23:21:23Z</time>
      </trkpt>
      <trkpt lat="45.95737" lon="4.5348">
        <ele>338</ele>
        <time>2016-11-06T23:23:23Z</time>
      </trkpt>
      <trkpt lat="45.95741" lon="4.53452">
        <ele>341</ele>
        <time>2016-11-06T23:25:23Z</time>
      </trkpt>
      <trkpt lat="45.95741" lon="4.53428">
        <ele>343</ele>
        <time>2016-11-06T23:27:23Z</time>
      </trkpt>
      <trkpt lat="45.95742" lon="4.534">
        <ele>344</ele>
        <time>2016-11-06T23:29:23Z</time>
      </trkpt>
      <trkpt lat="45.95744" lon="4.53388">
        <ele>345</ele>
        <time>2016-11-06T23:31:23Z</time>
      </trkpt>
      <trkpt lat="45.95744" lon="4.53388">
        <ele>345</ele>
        <time>2016-11-06T23:33:23Z</time>
      </trkpt>
      <trkpt lat="45.95732" lon="4.53386">
        <ele>344</ele>
        <time>2016-11-06T23:35:23Z</time>
      </trkpt>
      <trkpt lat="45.9573" lon="4.53386">
        <ele>344</ele>
        <time>2016-11-06T23:37:23Z</time>
      </trkpt>
      <trkpt lat="45.95691" lon="4.53406">
        <ele>343</ele>
        <time>2016-11-06T23:39:23Z</time>
      </trkpt>
      <trkpt lat="45.95682" lon="4.53411">
        <ele>342</ele>
        <time>2016-11-06T23:41:23Z</time>
      </trkpt>
      <trkpt lat="45.95671" lon="4.53421">
        <ele>342</ele>
        <time>2016-11-06T23:43:23Z</time>
      </trkpt>
      <trkpt lat="45.95665" lon="4.53424">
        <ele>342</ele>
        <time>2016-11-06T23:45:23Z</time>
      </trkpt>
      <trkpt lat="45.95658" lon="4.53425">
        <ele>341</ele>
        <time>2016-11-06T23:47:23Z</time>
      </trkpt>
      <trkpt lat="45.9565" lon="4.53424">
        <ele>340</ele>
        <time>2016-11-06T23:49:23Z</time>
      </trkpt>
      <trkpt lat="45.95633" lon="4.53416">
        <ele>340</ele>
        <time>2016-11-06T23:51:23Z</time>
      </trkpt>
      <trkpt lat="45.95619" lon="4.53405">
        <ele>339</ele>
        <time>2016-11-06T23:53:23Z</time>
      </trkpt>
      <trkpt lat="45.95606" lon="4.53394">
        <ele>338</ele>
        <time>2016-11-06T23:55:23Z</time>
      </trkpt>
      <trkpt lat="45.95581" lon="4.53365">
        <ele>338</ele>
        <time>2016-11-06T23:57:23Z</time>
      </trkpt>
      <trkpt lat="45.95572" lon="4.53352">
        <ele>338</ele>
        <time>2016-11-06T23:59:23Z</time>
      </trkpt>
      <trkpt lat="45.95564" lon="4.5334">
        <ele>337</ele>
        <time>2016-11-07T00:01:23Z</time>
      </trkpt>
      <trkpt lat="45.95554" lon="4.53329">
        <ele>337</ele>
        <time>2016-11-07T00:03:23Z</time>
      </trkpt>
      <trkpt lat="45.95544" lon="4.53319">
        <ele>336</ele>
        <time>2016-11-07T00:05:23Z</time>
      </trkpt>
      <trkpt lat="45.95524" lon="4.53298">
        <ele>335</ele>
        <time>2016-11-07T00:07:23Z</time>
      </trkpt>
      <trkpt lat="45.95494" lon="4.53276">
        <ele>334</ele>
        <time>2016-11-07T00:09:23Z</time>
      </trkpt>
      <trkpt lat="45.95462" lon="4.53245">
        <ele>331</ele>
        <time>2016-11-07T00:11:23Z</time>
      </trkpt>
      <trkpt lat="45.95462" lon="4.53245">
        <ele>331</ele>
        <time>2016-11-07T00:13:23Z</time>
      </trkpt>
      <trkpt lat="45.95421" lon="4.53216">
        <ele>327</ele>
        <time>2016-11-07T00:15:23Z</time>
      </trkpt>
      <trkpt lat="45.95412" lon="4.5321">
        <ele>326</ele>
        <time>2016-11-07T00:17:23Z</time>
      </trkpt>
      <trkpt lat="45.95387" lon="4.53198">
        <ele>324</ele>
        <time>2016-11-07T00:19:23Z</time>
      </trkpt>
      <trkpt lat="45.95378" lon="4.53192">
        <ele>323</ele>
        <time>2016-11-07T00:21:23Z</time>
      </trkpt>
      <trkpt lat="45.95361" lon="4.53178">
        <ele>323</ele>
        <time>2016-11-07T00:23:23Z</time>
      </trkpt>
      <trkpt lat="45.95353" lon="4.53173">
        <ele>323</ele>
        <time>2016-11-07T00:25:23Z</time>
      </trkpt>
      <trkpt lat="45.95337" lon="4.53165">
        <ele>322</ele>
        <time>2016-11-07T00:27:23Z</time>
      </trkpt>
      <trkpt lat="45.95319" lon="4.5316">
        <ele>320</ele>
        <time>2016-11-07T00:29:23Z</time>
      </trkpt>
      <trkpt lat="45.95311" lon="4.53155">
        <ele>319</ele>
        <time>2016-11-07T00:31:23Z</time>
      </trkpt>
      <trkpt lat="45.953" lon="4.53148">
        <ele>318</ele>
        <time>2016-11-07T00:33:23Z</time>
      </trkpt>
      <trkpt lat="45.95273" lon="4.53125">
        <ele>316</ele>
        <time>2016-11-07T00:35:23Z</time>
      </trkpt>
      <trkpt lat="45.95252" lon="4.531">
        <ele>316</ele>
        <time>2016-11-07T00:37:23Z</time>
      </trkpt>
      <trkpt lat="45.95212" lon="4.53061">
        <ele>310</ele>
        <time>2016-11-07T00:39:23Z</time>
      </trkpt>
      <trkpt lat="45.95196" lon="4.53047">
        <ele>308</ele>
        <time>2016-11-07T00:41:23Z</time>
      </trkpt>
      <trkpt lat="45.95174" lon="4.53028">
        <ele>306</ele>
        <time>2016-11-07T00:43:23Z</time>
      </trkpt>
      <trkpt lat="45.95158" lon="4.53011">
        <ele>305</ele>
        <time>2016-11-07T00:45:23Z</time>
      </trkpt>
      <trkpt lat="45.95144" lon="4.52995">
        <ele>303</ele>
        <time>2016-11-07T00:47:23Z</time>
      </trkpt>
      <trkpt lat="45.95143" lon="4.52992">
        <ele>303</ele>
        <time>2016-11-07T00:49:23Z</time>
      </trkpt>
      <trkpt lat="45.95143" lon="4.52989">
        <ele>303</ele>
        <time>2016-11-07T00:51:23Z</time>
      </trkpt>
      <trkpt lat="45.95143" lon="4.52987">
        <ele>303</ele>
        <time>2016-11-07T00:53:23Z</time>
      </trkpt>
      <trkpt lat="45.95144" lon="4.52984">
        <ele>303</ele>
        <time>2016-11-07T00:55:23Z</time>
      </trkpt>
      <trkpt lat="45.9517" lon="4.52956">
        <ele>305</ele>
        <time>2016-11-07T00:57:23Z</time>
      </trkpt>
      <trkpt lat="45.95198" lon="4.52928">
        <ele>306</ele>
        <time>2016-11-07T00:59:23Z</time>
      </trkpt>
      <trkpt lat="45.95202" lon="4.52922">
        <ele>305</ele>
        <time>2016-11-07T01:01:23Z</time>
      </trkpt>
      <trkpt lat="45.95204" lon="4.5292">
        <ele>305</ele>
        <time>2016-11-07T01:03:23Z</time>
      </trkpt>
      <trkpt lat="45.95204" lon="4.52918">
        <ele>305</ele>
        <time>2016-11-07T01:05:23Z</time>
      </trkpt>
      <trkpt lat="45.95204" lon="4.52914">
        <ele>305</ele>
        <time>2016-11-07T01:07:23Z</time>
      </trkpt>
      <trkpt lat="45.95204" lon="4.52907">
        <ele>304</ele>
        <time>2016-11-07T01:09:23Z</time>
      </trkpt>
      <trkpt lat="45.95205" lon="4.52904">
        <ele>304</ele>
        <time>2016-11-07T01:11:23Z</time>
      </trkpt>
      <trkpt lat="45.95206" lon="4.52901">
        <ele>303</ele>
        <time>2016-11-07T01:13:23Z</time>
      </trkpt>
      <trkpt lat="45.95209" lon="4.52897">
        <ele>303</ele>
        <time>2016-11-07T01:15:23Z</time>
      </trkpt>
      <trkpt lat="45.95213" lon="4.52895">
        <ele>303</ele>
        <time>2016-11-07T01:17:23Z</time>
      </trkpt>
      <trkpt lat="45.95228" lon="4.52886">
        <ele>303</ele>
        <time>2016-11-07T01:19:23Z</time>
      </trkpt>
      <trkpt lat="45.95251" lon="4.52874">
        <ele>303</ele>
        <time>2016-11-07T01:21:23Z</time>
      </trkpt>
      <trkpt lat="45.95257" lon="4.5287">
        <ele>303</ele>
        <time>2016-11-07T01:23:23Z</time>
      </trkpt>
      <trkpt lat="45.95259" lon="4.52868">
        <ele>303</ele>
        <time>2016-11-07T01:25:23Z</time>
      </trkpt>
      <trkpt lat="45.9526" lon="4.52865">
        <ele>303</ele>
        <time>2016-11-07T01:27:23Z</time>
      </trkpt>
      <trkpt lat="45.95262" lon="4.5286">
        <ele>302</ele>
        <time>2016-11-07T01:29:23Z</time>
      </trkpt>
      <trkpt lat="45.95263" lon="4.52854">
        <ele>301</ele>
        <time>2016-11-07T01:31:23Z</time>
      </trkpt>
      <trkpt lat="45.95263" lon="4.52845">
        <ele>300</ele>
        <time>2016-11-07T01:33:23Z</time>
      </trkpt>
      <trkpt lat="45.95259" lon="4.52793">
        <ele>293</ele>
        <time>2016-11-07T01:35:23Z</time>
      </trkpt>
      <trkpt lat="45.95259" lon="4.52787">
        <ele>292</ele>
        <time>2016-11-07T01:37:23Z</time>
      </trkpt>
      <trkpt lat="45.9526" lon="4.52782">
        <ele>292</ele>
        <time>2016-11-07T01:39:23Z</time>
      </trkpt>
      <trkpt lat="45.95261" lon="4.52776">
        <ele>291</ele>
        <time>2016-11-07T01:41:23Z</time>
      </trkpt>
      <trkpt lat="45.95265" lon="4.52764">
        <ele>290</ele>
        <time>2016-11-07T01:43:23Z</time>
      </trkpt>
      <trkpt lat="45.95271" lon="4.52751">
        <ele>288</ele>
        <time>2016-11-07T01:45:23Z</time>
      </trkpt>
      <trkpt lat="45.95278" lon="4.52741">
        <ele>288</ele>
        <time>2016-11-07T01:47:23Z</time>
      </trkpt>
      <trkpt lat="45.95282" lon="4.52731">
        <ele>288</ele>
        <time>2016-11-07T01:49:23Z</time>
      </trkpt>
      <trkpt lat="45.95286" lon="4.52722">
        <ele>288</ele>
        <time>2016-11-07T01:51:23Z</time>
      </trkpt>
      <trkpt lat="45.95288" lon="4.52715">
        <ele>288</ele>
        <time>2016-11-07T01:53:23Z</time>
      </trkpt>
      <trkpt lat="45.95291" lon="4.52696">
        <ele>288</ele>
        <time>2016-11-07T01:55:23Z</time>
      </trkpt>
      <trkpt lat="45.95292" lon="4.52685">
        <ele>287</ele>
        <time>2016-11-07T01:57:23Z</time>
      </trkpt>
      <trkpt lat="45.95293" lon="4.52682">
        <ele>287</ele>
        <time>2016-11-07T01:59:23Z</time>
      </trkpt>
      <trkpt lat="45.95292" lon="4.52679">
        <ele>287</ele>
        <time>2016-11-07T02:01:23Z</time>
      </trkpt>
      <trkpt lat="45.95292" lon="4.52679">
        <ele>287</ele>
        <time>2016-11-07T02:03:23Z</time>
      </trkpt>
      <trkpt lat="45.95296" lon="4.52676">
        <ele>287</ele>
        <time>2016-11-07T02:05:23Z</time>
      </trkpt>
      <trkpt lat="45.95339" lon="4.52633">
        <ele>288</ele>
        <time>2016-11-07T02:07:23Z</time>
      </trkpt>
      <trkpt lat="45.9536" lon="4.52612">
        <ele>287</ele>
        <time>2016-11-07T02:09:23Z</time>
      </trkpt>
      <trkpt lat="45.95376" lon="4.52597">
        <ele>287</ele>
        <time>2016-11-07T02:11:23Z</time>
      </trkpt>
      <trkpt lat="45.95401" lon="4.5257">
        <ele>287</ele>
        <time>2016-11-07T02:13:23Z</time>
      </trkpt>
      <trkpt lat="45.95426" lon="4.52544">
        <ele>288</ele>
        <time>2016-11-07T02:15:23Z</time>
      </trkpt>
      <trkpt lat="45.95449" lon="4.52519">
        <ele>289</ele>
        <time>2016-11-07T02:17:23Z</time>
      </trkpt>
      <trkpt lat="45.95466" lon="4.52502">
        <ele>290</ele>
        <time>2016-11-07T02:19:23Z</time>
      </trkpt>
      <trkpt lat="45.95479" lon="4.52487">
        <ele>290</ele>
        <time>2016-11-07T02:21:23Z</time>
      </trkpt>
      <trkpt lat="45.95498" lon="4.52467">
        <ele>290</ele>
        <time>2016-11-07T02:23:23Z</time>
      </trkpt>
    </trkseg>
  </trk>
</gpx>